Darstellungsparameter: Aktuell verwendete Einstellungen:
Skalierung der Graphiken ... ?
xyx+y,   Skalierungsfaktor:      Skalierung: Modus: x, Faktor: 1
Darstellungszeitraum ... ?
Vom - - bis: - -   Zeitraum: 22.07.2019 - 21.10.2019
Min/Max/Avg-Anzeige ... ?
Zeige MMA aktuell
Zeige MMA Monat
Zeige MMA alles
Zeige --A aktuell
Zeige --A Monat
Zeige --A alles
Keine MMA-Anzeige
MMA:
Average (ber die Originaldaten)
MMA-Basis: 22.07.2019 - 21.10.2019
Quicknavigation für Darstellung... ?
Tage:      1T, 2T, 3T, 5T -1T -2T -3T -5T +1T +2T +3T +5T
Wochen: 1W, 2W, 3W -1W -2W -3W +1W +2W +3W
Monate: 1M, 3M, 6M -1M -3M -6M +1M +3M +6M
Jahre:    1J, 3J, 5J, 10J -1J -3J -5J -10J +1J +3J +5J +10J
Nutze für die Darstellung ... ?
Originaldaten oder Mittelwerte auf ...
Stundenbasis Tagesbasis Wochenbasis
Monatsbasis Jahresbasis      Datenbasis: Original-Daten
Darstellen als:
Statistik (Auto) Statistik J:M      Darstellung:
Zur Graphik,    zurück zur Übersicht aller Sensoren.
 
Tabellarische Datenbersicht: ?
 
Sensor: Nr:Datum:Temp:Abs-Feuchte:Windchill:Wind:
Aussen-T/F 1 22-07-2019 00:00:00 17.6 C 12 g/m*3 17.6 C 0 km/h
2 22-07-2019 00:05:00 17.5 C 11.93 g/m*3 17.5 C 0 km/h
3 22-07-2019 00:10:00 17.4 C 11.86 g/m*3 17.4 C 0 km/h
4 22-07-2019 00:15:00 17.3 C 11.79 g/m*3 17.3 C 0 km/h
5 22-07-2019 00:20:00 17.1 C 11.79 g/m*3 17.1 C 0 km/h
6 22-07-2019 00:25:00 17.1 C 11.79 g/m*3 17.1 C 0 km/h
7 22-07-2019 00:30:00 16.9 C 11.65 g/m*3 16.9 C 0 km/h
8 22-07-2019 00:35:00 16.9 C 11.79 g/m*3 16.9 C 0 km/h
9 22-07-2019 00:40:00 16.9 C 11.79 g/m*3 16.9 C 0 km/h
10 22-07-2019 00:45:00 16.8 C 11.72 g/m*3 16.8 C 0 km/h
11 22-07-2019 00:50:00 16.7 C 11.65 g/m*3 16.7 C 0 km/h
12 22-07-2019 00:55:00 16.7 C 11.65 g/m*3 16.7 C 0 km/h
13 22-07-2019 01:00:00 16.5 C 11.51 g/m*3 16.5 C 0 km/h
14 22-07-2019 01:05:00 16.4 C 11.58 g/m*3 16.4 C 0 km/h
15 22-07-2019 01:10:00 16.4 C 11.58 g/m*3 16.4 C 0 km/h
16 22-07-2019 01:15:00 16.3 C 11.65 g/m*3 16.3 C 0 km/h
17 22-07-2019 01:20:00 16.3 C 11.65 g/m*3 16.3 C 0 km/h
18 22-07-2019 01:25:00 16.2 C 11.58 g/m*3 16.2 C 0 km/h
19 22-07-2019 01:30:00 16.2 C 11.58 g/m*3 16.2 C 0 km/h
20 22-07-2019 01:35:00 16.1 C 11.65 g/m*3 16.1 C 0 km/h
21 22-07-2019 01:40:00 16 C 11.58 g/m*3 16 C 0 km/h
22 22-07-2019 01:45:00 15.9 C 11.51 g/m*3 15.9 C 0 km/h
23 22-07-2019 01:50:00 15.8 C 11.44 g/m*3 15.8 C 0 km/h
24 22-07-2019 01:55:00 15.8 C 11.58 g/m*3 15.8 C 0 km/h
25 22-07-2019 02:00:00 15.7 C 11.51 g/m*3 15.7 C 0 km/h
Sensor: Nr:Datum:Temp:Abs-Feuchte:Windchill:Wind:
Aussen-T/F 26 22-07-2019 02:05:00 15.7 C 11.64 g/m*3 15.7 C 0 km/h
27 22-07-2019 02:10:00 15.7 C 11.64 g/m*3 15.7 C 0 km/h
28 22-07-2019 02:15:00 15.7 C 11.64 g/m*3 15.7 C 0 km/h
29 22-07-2019 02:20:00 15.7 C 11.64 g/m*3 15.7 C 0 km/h
30 22-07-2019 02:25:00 15.7 C 11.64 g/m*3 15.7 C 0 km/h
31 22-07-2019 02:30:00 15.6 C 11.7 g/m*3 15.6 C 0 km/h
32 22-07-2019 02:35:00 15.6 C 11.7 g/m*3 15.6 C 0 km/h
33 22-07-2019 02:40:00 15.6 C 11.7 g/m*3 15.6 C 0 km/h
34 22-07-2019 02:45:00 15.6 C 11.7 g/m*3 15.6 C 0 km/h
35 22-07-2019 02:50:00 15.6 C 11.7 g/m*3 15.6 C 0 km/h
36 22-07-2019 02:55:00 15.5 C 11.63 g/m*3 15.5 C 0 km/h
37 22-07-2019 03:00:00 15.5 C 11.63 g/m*3 15.5 C 0 km/h
38 22-07-2019 03:05:00 15.5 C 11.63 g/m*3 15.5 C 0 km/h
39 22-07-2019 03:10:00 15.5 C 11.63 g/m*3 15.5 C 0 km/h
40 22-07-2019 03:15:00 15.4 C 11.56 g/m*3 15.4 C 0 km/h
41 22-07-2019 03:20:00 15.4 C 11.56 g/m*3 15.4 C 0 km/h
42 22-07-2019 03:25:00 15.4 C 11.56 g/m*3 15.4 C 0 km/h
43 22-07-2019 03:30:00 15.3 C 11.49 g/m*3 15.3 C 0 km/h
44 22-07-2019 03:35:00 15.3 C 11.49 g/m*3 15.3 C 0 km/h
45 22-07-2019 03:40:00 15.2 C 11.55 g/m*3 15.2 C 0 km/h
46 22-07-2019 03:45:00 15.2 C 11.55 g/m*3 15.2 C 0 km/h
47 22-07-2019 03:50:00 15.2 C 11.55 g/m*3 15.2 C 0 km/h
48 22-07-2019 03:55:00 15.1 C 11.48 g/m*3 15.1 C 0 km/h
49 22-07-2019 04:00:00 15.1 C 11.48 g/m*3 15.1 C 0 km/h
50 22-07-2019 04:05:00 15 C 11.41 g/m*3 15 C 0 km/h
Sensor: Nr:Datum:Temp:Abs-Feuchte:Windchill:Wind:
Aussen-T/F 51 22-07-2019 04:10:00 14.9 C 11.34 g/m*3 14.9 C 0 km/h
52 22-07-2019 04:15:00 14.8 C 11.27 g/m*3 14.8 C 0 km/h
53 22-07-2019 04:20:00 14.8 C 11.27 g/m*3 14.8 C 0 km/h
54 22-07-2019 04:25:00 14.7 C 11.21 g/m*3 14.7 C 0 km/h
55 22-07-2019 04:30:00 14.7 C 11.33 g/m*3 14.7 C 0 km/h
56 22-07-2019 04:35:00 14.6 C 11.26 g/m*3 14.6 C 0 km/h
57 22-07-2019 04:40:00 14.6 C 11.26 g/m*3 14.6 C 0 km/h
58 22-07-2019 04:45:00 14.6 C 11.26 g/m*3 14.6 C 0 km/h
59 22-07-2019 04:50:00 14.6 C 11.26 g/m*3 14.6 C 0 km/h
60 22-07-2019 04:55:00 14.5 C 11.19 g/m*3 14.5 C 0 km/h
61 22-07-2019 05:00:00 14.4 C 11.13 g/m*3 14.4 C 0 km/h
62 22-07-2019 05:05:00 14.4 C 11.13 g/m*3 14.4 C 0 km/h
63 22-07-2019 05:10:00 14.4 C 11.25 g/m*3 14.4 C 0 km/h
64 22-07-2019 05:15:00 14.3 C 11.18 g/m*3 14.3 C 0 km/h
65 22-07-2019 05:20:00 14.4 C 11.25 g/m*3 14.4 C 0 km/h
66 22-07-2019 05:25:00 14.3 C 11.18 g/m*3 14.3 C 0 km/h
67 22-07-2019 05:30:00 14.3 C 11.18 g/m*3 14.3 C 0 km/h
68 22-07-2019 05:35:00 14.3 C 11.18 g/m*3 14.3 C 0 km/h
69 22-07-2019 05:40:00 14.2 C 11.11 g/m*3 14.2 C 0 km/h
70 22-07-2019 05:45:00 14.2 C 11.11 g/m*3 14.2 C 0 km/h
71 22-07-2019 05:50:00 14.2 C 11.11 g/m*3 14.2 C 0 km/h
72 22-07-2019 05:55:00 14.2 C 11.23 g/m*3 14.2 C 0 km/h
73 22-07-2019 06:00:00 14.2 C 11.23 g/m*3 14.2 C 0 km/h
74 22-07-2019 06:05:00 14.2 C 11.23 g/m*3 14.2 C 0 km/h
75 22-07-2019 06:10:00 14.3 C 11.3 g/m*3 14.3 C 0 km/h
Sensor: Nr:Datum:Temp:Abs-Feuchte:Windchill:Wind:
Aussen-T/F 76 22-07-2019 06:15:00 14.3 C 11.3 g/m*3 14.3 C 0 km/h
77 22-07-2019 06:20:00 14.2 C 11.11 g/m*3 14.2 C 0 km/h
78 22-07-2019 06:25:00 14.1 C 11.04 g/m*3 14.1 C 0 km/h
79 22-07-2019 06:30:00 14.1 C 11.17 g/m*3 14.1 C 0 km/h
80 22-07-2019 06:35:00 14.1 C 11.17 g/m*3 14.1 C 0 km/h
81 22-07-2019 06:40:00 14.1 C 11.17 g/m*3 14.1 C 0 km/h
82 22-07-2019 06:45:00 14.1 C 11.17 g/m*3 14.1 C 0 km/h
83 22-07-2019 06:50:00 14.2 C 11.23 g/m*3 14.2 C 0 km/h
84 22-07-2019 06:55:00 14.2 C 11.23 g/m*3 14.2 C 0 km/h
85 22-07-2019 07:00:00 14.3 C 11.43 g/m*3 14.3 C 0 km/h
86 22-07-2019 07:05:00 14.3 C 11.43 g/m*3 14.3 C 0 km/h
87 22-07-2019 07:10:00 14.3 C 11.43 g/m*3 14.3 C 0 km/h
88 22-07-2019 07:15:00 14.4 C 11.5 g/m*3 14.4 C 0 km/h
89 22-07-2019 07:20:00 14.5 C 11.57 g/m*3 14.5 C 0 km/h
90 22-07-2019 07:25:00 14.7 C 11.71 g/m*3 14.7 C 0 km/h
91 22-07-2019 07:30:00 14.8 C 11.78 g/m*3 14.8 C 0 km/h
92 22-07-2019 07:35:00 14.9 C 11.85 g/m*3 14.9 C 0 km/h
93 22-07-2019 07:40:00 14.9 C 11.85 g/m*3 14.9 C 0 km/h
94 22-07-2019 07:45:00 15.1 C 11.87 g/m*3 15.1 C 0 km/h
95 22-07-2019 07:50:00 15.2 C 11.94 g/m*3 15.2 C 0 km/h
96 22-07-2019 07:55:00 15.3 C 12.01 g/m*3 15.3 C 0 km/h
97 22-07-2019 08:00:00 15.4 C 12.09 g/m*3 15.4 C 0 km/h
98 22-07-2019 08:05:00 15.5 C 12.16 g/m*3 15.5 C 0 km/h
99 22-07-2019 08:10:00 15.6 C 12.23 g/m*3 15.6 C 0 km/h
100 22-07-2019 08:15:00 15.7 C 12.18 g/m*3 15.7 C 0 km/h
Sensor: Nr:Datum:Temp:Abs-Feuchte:Windchill:Wind:
Aussen-T/F 101 22-07-2019 08:20:00 16 C 12.4 g/m*3 16 C 0 km/h
102 22-07-2019 08:25:00 16.2 C 12.27 g/m*3 16.2 C 0 km/h
103 22-07-2019 08:30:00 16.4 C 12.28 g/m*3 16.4 C 0 km/h
104 22-07-2019 08:35:00 16.6 C 12.43 g/m*3 16.6 C 0 km/h
105 22-07-2019 08:40:00 16.8 C 12.44 g/m*3 16.8 C 0 km/h
106 22-07-2019 08:45:00 16.9 C 12.51 g/m*3 16.9 C 0 km/h
107 22-07-2019 08:50:00 17.1 C 12.66 g/m*3 17.1 C 0 km/h
108 22-07-2019 08:55:00 17.2 C 12.74 g/m*3 17.2 C 0 km/h
109 22-07-2019 09:00:00 17.3 C 12.82 g/m*3 17.3 C 0 km/h
110 22-07-2019 09:05:00 17.4 C 12.75 g/m*3 17.4 C 0 km/h
111 22-07-2019 09:10:00 17.6 C 12.75 g/m*3 17.6 C 0 km/h
112 22-07-2019 09:15:00 17.7 C 12.98 g/m*3 17.7 C 0 km/h
113 22-07-2019 09:20:00 17.9 C 12.98 g/m*3 17.9 C 0 km/h
114 22-07-2019 09:25:00 18.1 C 12.82 g/m*3 18.1 C 0 km/h
115 22-07-2019 09:30:00 18.3 C 12.98 g/m*3 18.3 C 0 km/h
116 22-07-2019 09:35:00 18.6 C 13.05 g/m*3 18.6 C 0 km/h
117 22-07-2019 09:40:00 18.8 C 13.37 g/m*3 18.8 C 0 km/h
118 22-07-2019 09:45:00 18.8 C 13.21 g/m*3 18.8 C 0 km/h
119 22-07-2019 09:50:00 18.9 C 13.45 g/m*3 18.9 C 0 km/h
120 22-07-2019 09:55:00 19.1 C 13.44 g/m*3 19.1 C 0 km/h
121 22-07-2019 10:00:00 19.3 C 13.6 g/m*3 19.3 C 0 km/h
122 22-07-2019 10:05:00 19.5 C 13.59 g/m*3 19.5 C 0 km/h
123 22-07-2019 10:10:00 19.7 C 13.41 g/m*3 19.7 C 0 km/h
124 22-07-2019 10:15:00 19.8 C 13.15 g/m*3 19.8 C 0 km/h
125 22-07-2019 10:20:00 20.2 C 13.29 g/m*3 20.2 C 0 km/h
Sensor: Nr:Datum:Temp:Abs-Feuchte:Windchill:Wind:
Aussen-T/F 126 22-07-2019 10:25:00 20.6 C 13.6 g/m*3 20.6 C 0 km/h
127 22-07-2019 10:30:00 20.8 C 13.58 g/m*3 20.8 C 0 km/h
128 22-07-2019 10:35:00 21.2 C 13.34 g/m*3 21.2 C 0 km/h
129 22-07-2019 10:40:00 21.6 C 13.47 g/m*3 21.6 C 0 km/h
130 22-07-2019 10:45:00 22 C 13.97 g/m*3 22 C 0 km/h
131 22-07-2019 10:50:00 22.3 C 13.23 g/m*3 22.3 C 0 km/h
132 22-07-2019 10:55:00 22.7 C 12.73 g/m*3 22.7 C 0 km/h
133 22-07-2019 11:00:00 23.1 C 12.4 g/m*3 23.1 C 0 km/h
134 22-07-2019 11:05:00 23.3 C 12.75 g/m*3 23.3 C 0 km/h
135 22-07-2019 11:10:00 23.4 C 12.62 g/m*3 23.4 C 3.2 km/h
136 22-07-2019 11:15:00 23.6 C 12.97 g/m*3 23.6 C 6.4 km/h
137 22-07-2019 11:20:00 23.7 C 12.62 g/m*3 23.7 C 4.8 km/h
138 22-07-2019 11:25:00 23.8 C 12.69 g/m*3 23.8 C 4.8 km/h
139 22-07-2019 11:30:00 24.1 C 12.69 g/m*3 24.1 C 8.1 km/h
140 22-07-2019 11:35:00 24.3 C 12.61 g/m*3 24.3 C 9.7 km/h
141 22-07-2019 11:40:00 24.4 C 12.46 g/m*3 24.4 C 6.4 km/h
142 22-07-2019 11:45:00 24.6 C 12.6 g/m*3 24.6 C 6.4 km/h
143 22-07-2019 11:50:00 24.8 C 12.52 g/m*3 24.8 C 4.8 km/h
144 22-07-2019 11:55:00 25 C 12.43 g/m*3 25 C 8.1 km/h
145 22-07-2019 12:00:00 25.1 C 12.5 g/m*3 25.1 C 11.3 km/h
146 22-07-2019 12:05:00 25.3 C 12.41 g/m*3 25.3 C 11.3 km/h
147 22-07-2019 12:10:00 25.3 C 12.41 g/m*3 25.3 C 11.3 km/h
148 22-07-2019 12:15:00 25.3 C 12.41 g/m*3 25.3 C 11.3 km/h
149 22-07-2019 12:20:00 25.4 C 12.48 g/m*3 25.4 C 6.4 km/h
150 22-07-2019 12:25:00 25.4 C 12.48 g/m*3 25.4 C 4.8 km/h
Sensor: Nr:Datum:Temp:Abs-Feuchte:Windchill:Wind:
Aussen-T/F 151 22-07-2019 12:30:00 25.5 C 12.55 g/m*3 25.5 C 6.4 km/h
152 22-07-2019 12:35:00 25.7 C 12.69 g/m*3 25.7 C 6.4 km/h
153 22-07-2019 12:40:00 25.9 C 12.59 g/m*3 25.9 C 8.1 km/h
154 22-07-2019 12:45:00 25.9 C 12.59 g/m*3 25.9 C 8.1 km/h
155 22-07-2019 12:50:00 25.9 C 12.35 g/m*3 25.9 C 12.9 km/h
156 22-07-2019 12:55:00 26 C 12.42 g/m*3 26 C 11.3 km/h
157 22-07-2019 13:00:00 26 C 12.42 g/m*3 26 C 9.7 km/h
158 22-07-2019 13:05:00 26 C 12.42 g/m*3 26 C 3.2 km/h
159 22-07-2019 13:10:00 26.1 C 12.49 g/m*3 26.1 C 8.1 km/h
160 22-07-2019 13:15:00 26.2 C 12.56 g/m*3 26.2 C 9.7 km/h
161 22-07-2019 13:20:00 26.2 C 12.31 g/m*3 26.2 C 8.1 km/h
162 22-07-2019 13:25:00 26.3 C 12.63 g/m*3 26.3 C 8.1 km/h
163 22-07-2019 13:30:00 26.3 C 12.63 g/m*3 26.3 C 9.7 km/h
164 22-07-2019 13:35:00 26.4 C 12.45 g/m*3 26.4 C 8.1 km/h
165 22-07-2019 13:40:00 26.6 C 12.59 g/m*3 26.6 C 6.4 km/h
166 22-07-2019 13:45:00 26.7 C 12.66 g/m*3 26.7 C 6.4 km/h
167 22-07-2019 13:50:00 27 C 12.61 g/m*3 27 C 6.4 km/h
168 22-07-2019 13:55:00 27.2 C 12.23 g/m*3 27.2 C 11.3 km/h
169 22-07-2019 14:00:00 27.2 C 12.49 g/m*3 27.2 C 1.6 km/h
170 22-07-2019 14:05:00 27.3 C 12.3 g/m*3 27.3 C 8.1 km/h
171 22-07-2019 14:10:00 27.4 C 12.1 g/m*3 27.4 C 9.7 km/h
172 22-07-2019 14:15:00 27.7 C 12.3 g/m*3 27.7 C 8.1 km/h
173 22-07-2019 14:20:00 27.7 C 12.04 g/m*3 27.7 C 6.4 km/h
174 22-07-2019 14:25:00 27.7 C 12.04 g/m*3 27.7 C 6.4 km/h
175 22-07-2019 14:30:00 27.7 C 12.04 g/m*3 27.7 C 1.6 km/h
Sensor: Nr:Datum:Temp:Abs-Feuchte:Windchill:Wind:
Aussen-T/F 176 22-07-2019 14:35:00 27.8 C 12.64 g/m*3 27.8 C 6.4 km/h
177 22-07-2019 14:40:00 28.1 C 12.58 g/m*3 28.1 C 8.1 km/h
178 22-07-2019 14:45:00 28.3 C 12.44 g/m*3 28.3 C 9.7 km/h
179 22-07-2019 14:50:00 28.2 C 12.37 g/m*3 28.2 C 8.1 km/h
180 22-07-2019 14:55:00 28.2 C 12.1 g/m*3 28.2 C 9.7 km/h
181 22-07-2019 15:00:00 28.3 C 12.44 g/m*3 28.3 C 11.3 km/h
182 22-07-2019 15:05:00 28.4 C 12.51 g/m*3 28.4 C 11.3 km/h
183 22-07-2019 15:10:00 28.6 C 12.65 g/m*3 28.6 C 11.3 km/h
184 22-07-2019 15:15:00 28.8 C 12.5 g/m*3 28.8 C 11.3 km/h
185 22-07-2019 15:20:00 28.9 C 12.57 g/m*3 28.9 C 8.1 km/h
186 22-07-2019 15:25:00 29.1 C 12.13 g/m*3 29.1 C 11.3 km/h
187 22-07-2019 15:30:00 29.2 C 12.2 g/m*3 29.2 C 11.3 km/h
188 22-07-2019 15:35:00 29.1 C 12.13 g/m*3 29.1 C 8.1 km/h
189 22-07-2019 15:40:00 29.2 C 12.78 g/m*3 29.2 C 8.1 km/h
190 22-07-2019 15:45:00 29.4 C 12.33 g/m*3 29.4 C 8.1 km/h
191 22-07-2019 15:50:00 29.7 C 12.23 g/m*3 29.7 C 8.1 km/h
192 22-07-2019 15:55:00 29.9 C 12.37 g/m*3 29.9 C 6.4 km/h
193 22-07-2019 16:00:00 30.2 C 12.57 g/m*3 30.2 C 4.8 km/h
194 22-07-2019 16:05:00 30.4 C 12.08 g/m*3 30.4 C 11.3 km/h
195 22-07-2019 16:10:00 30.7 C 12.6 g/m*3 30.7 C 12.9 km/h
196 22-07-2019 16:15:00 30.8 C 12.35 g/m*3 30.8 C 8.1 km/h
197 22-07-2019 16:20:00 30.9 C 12.1 g/m*3 30.9 C 12.9 km/h
198 22-07-2019 16:25:00 30.8 C 12.35 g/m*3 30.8 C 14.5 km/h
199 22-07-2019 16:30:00 30.9 C 12.1 g/m*3 30.9 C 12.9 km/h
200 22-07-2019 16:35:00 30.8 C 12.03 g/m*3 30.8 C 11.3 km/h
Sensor: Nr:Datum:Temp:Abs-Feuchte:Windchill:Wind:
Aussen-T/F 201 22-07-2019 16:40:00 30.7 C 12.28 g/m*3 30.7 C 9.7 km/h
202 22-07-2019 16:45:00 31 C 12.48 g/m*3 31 C 11.3 km/h
203 22-07-2019 16:50:00 31.2 C 12.29 g/m*3 31.2 C 9.7 km/h
204 22-07-2019 16:55:00 31.3 C 12.03 g/m*3 31.3 C 9.7 km/h
205 22-07-2019 17:00:00 31.4 C 12.42 g/m*3 31.4 C 9.7 km/h
206 22-07-2019 17:05:00 31.6 C 12.23 g/m*3 31.6 C 4.8 km/h
207 22-07-2019 17:10:00 31.3 C 12.03 g/m*3 31.3 C 12.9 km/h
208 22-07-2019 17:15:00 31.2 C 11.97 g/m*3 31.2 C 8.1 km/h
209 22-07-2019 17:20:00 31.2 C 11.97 g/m*3 31.2 C 6.4 km/h
210 22-07-2019 17:25:00 31.3 C 12.03 g/m*3 31.3 C 8.1 km/h
211 22-07-2019 17:30:00 31.3 C 12.03 g/m*3 31.3 C 8.1 km/h
212 22-07-2019 17:35:00 31.4 C 12.1 g/m*3 31.4 C 11.3 km/h
213 22-07-2019 17:40:00 31.7 C 12.29 g/m*3 31.7 C 9.7 km/h
214 22-07-2019 17:45:00 31.8 C 12.02 g/m*3 31.8 C 4.8 km/h
215 22-07-2019 17:50:00 31.9 C 12.09 g/m*3 31.9 C 4.8 km/h
216 22-07-2019 17:55:00 32.1 C 12.22 g/m*3 32.1 C 4.8 km/h
217 22-07-2019 18:00:00 32.1 C 11.88 g/m*3 32.1 C 9.7 km/h
218 22-07-2019 18:05:00 32 C 12.15 g/m*3 32 C 9.7 km/h
219 22-07-2019 18:10:00 32 C 12.15 g/m*3 32 C 11.3 km/h
220 22-07-2019 18:15:00 32.1 C 12.22 g/m*3 32.1 C 6.4 km/h
221 22-07-2019 18:20:00 32.1 C 12.22 g/m*3 32.1 C 9.7 km/h
222 22-07-2019 18:25:00 32.2 C 12.28 g/m*3 32.2 C 4.8 km/h
223 22-07-2019 18:30:00 32.3 C 12.01 g/m*3 32.3 C 3.2 km/h
224 22-07-2019 18:35:00 32.3 C 12.01 g/m*3 32.3 C 3.2 km/h
225 22-07-2019 18:40:00 32.6 C 12.2 g/m*3 32.6 C 1.6 km/h
Sensor: Nr:Datum:Temp:Abs-Feuchte:Windchill:Wind:
Aussen-T/F 226 22-07-2019 18:45:00 32.7 C 12.26 g/m*3 32.7 C 3.2 km/h
227 22-07-2019 18:50:00 32.8 C 11.98 g/m*3 32.8 C 6.4 km/h
228 22-07-2019 18:55:00 32.6 C 12.2 g/m*3 32.6 C 9.7 km/h
229 22-07-2019 19:00:00 32.3 C 12.35 g/m*3 32.3 C 6.4 km/h
230 22-07-2019 19:05:00 32.3 C 12.01 g/m*3 32.3 C 6.4 km/h
231 22-07-2019 19:10:00 32.2 C 11.6 g/m*3 32.2 C 8.1 km/h
232 22-07-2019 19:15:00 32 C 11.82 g/m*3 32 C 6.4 km/h
233 22-07-2019 19:20:00 31.9 C 11.75 g/m*3 31.9 C 3.2 km/h
234 22-07-2019 19:25:00 31.9 C 12.09 g/m*3 31.9 C 6.4 km/h
235 22-07-2019 19:30:00 31.7 C 11.96 g/m*3 31.7 C 11.3 km/h
236 22-07-2019 19:35:00 31.2 C 11.97 g/m*3 31.2 C 9.7 km/h
237 22-07-2019 19:40:00 30.8 C 11.71 g/m*3 30.8 C 8.1 km/h
238 22-07-2019 19:45:00 30.7 C 11.97 g/m*3 30.7 C 6.4 km/h
239 22-07-2019 19:50:00 30.4 C 11.77 g/m*3 30.4 C 6.4 km/h
240 22-07-2019 19:55:00 30.3 C 12.02 g/m*3 30.3 C 9.7 km/h
241 22-07-2019 20:00:00 30.2 C 12.26 g/m*3 30.2 C 6.4 km/h
242 22-07-2019 20:05:00 30.1 C 12.2 g/m*3 30.1 C 4.8 km/h
243 22-07-2019 20:10:00 30 C 12.13 g/m*3 30 C 4.8 km/h
244 22-07-2019 20:15:00 29.9 C 12.06 g/m*3 29.9 C 8.1 km/h
245 22-07-2019 20:20:00 29.8 C 12 g/m*3 29.8 C 6.4 km/h
246 22-07-2019 20:25:00 29.7 C 12.53 g/m*3 29.7 C 8.1 km/h
247 22-07-2019 20:30:00 29.4 C 12.33 g/m*3 29.4 C 9.7 km/h
248 22-07-2019 20:35:00 29.3 C 12.55 g/m*3 29.3 C 4.8 km/h
249 22-07-2019 20:40:00 29.1 C 12.71 g/m*3 29.1 C 11.3 km/h
250 22-07-2019 20:45:00 28.8 C 12.79 g/m*3 28.8 C 6.4 km/h
Sensor: Nr:Datum:Temp:Abs-Feuchte:Windchill:Wind:
Aussen-T/F 251 22-07-2019 20:50:00 28.6 C 13.49 g/m*3 28.6 C 3.2 km/h
252 22-07-2019 20:55:00 28.2 C 14.02 g/m*3 28.2 C 4.8 km/h
253 22-07-2019 21:00:00 27.9 C 13.79 g/m*3 27.9 C 0 km/h
254 22-07-2019 21:05:00 27.4 C 13.68 g/m*3 27.4 C 0 km/h
255 22-07-2019 21:10:00 26.9 C 13.56 g/m*3 26.9 C 0 km/h
256 22-07-2019 21:15:00 26.4 C 13.69 g/m*3 26.4 C 0 km/h
257 22-07-2019 21:20:00 26 C 13.63 g/m*3 26 C 0 km/h
258 22-07-2019 21:25:00 25.6 C 13.57 g/m*3 25.6 C 0 km/h
259 22-07-2019 21:30:00 25.2 C 13.27 g/m*3 25.2 C 0 km/h
260 22-07-2019 21:35:00 24.8 C 13.2 g/m*3 24.8 C 0 km/h
261 22-07-2019 21:40:00 24.6 C 13.05 g/m*3 24.6 C 0 km/h
262 22-07-2019 21:45:00 24.3 C 13.28 g/m*3 24.3 C 0 km/h
263 22-07-2019 21:50:00 24.1 C 13.13 g/m*3 24.1 C 0 km/h
264 22-07-2019 21:55:00 23.9 C 13.2 g/m*3 23.9 C 0 km/h
265 22-07-2019 22:00:00 23.7 C 13.05 g/m*3 23.7 C 0 km/h
266 22-07-2019 22:05:00 23.6 C 12.97 g/m*3 23.6 C 0 km/h
267 22-07-2019 22:10:00 23.4 C 13.04 g/m*3 23.4 C 0 km/h
268 22-07-2019 22:15:00 23.3 C 12.96 g/m*3 23.3 C 0 km/h
269 22-07-2019 22:20:00 23.1 C 12.82 g/m*3 23.1 C 0 km/h
270 22-07-2019 22:25:00 22.9 C 12.88 g/m*3 22.9 C 0 km/h
271 22-07-2019 22:30:00 22.8 C 13 g/m*3 22.8 C 0 km/h
272 22-07-2019 22:35:00 22.6 C 13.06 g/m*3 22.6 C 0 km/h
273 22-07-2019 22:40:00 22.4 C 13.11 g/m*3 22.4 C 0 km/h
274 22-07-2019 22:45:00 22.3 C 13.03 g/m*3 22.3 C 0 km/h
275 22-07-2019 22:50:00 22.1 C 12.88 g/m*3 22.1 C 0 km/h
Sensor: Nr:Datum:Temp:Abs-Feuchte:Windchill:Wind:
Aussen-T/F 276 22-07-2019 22:55:00 22 C 12.81 g/m*3 22 C 0 km/h
277 22-07-2019 23:00:00 21.9 C 12.93 g/m*3 21.9 C 0 km/h
278 22-07-2019 23:05:00 21.7 C 12.97 g/m*3 21.7 C 0 km/h
279 22-07-2019 23:10:00 21.4 C 12.94 g/m*3 21.4 C 0 km/h
280 22-07-2019 23:15:00 21.2 C 12.97 g/m*3 21.2 C 0 km/h
281 22-07-2019 23:20:00 21.1 C 12.9 g/m*3 21.1 C 0 km/h
282 22-07-2019 23:25:00 21 C 13.01 g/m*3 21 C 0 km/h
283 22-07-2019 23:30:00 20.8 C 13.04 g/m*3 20.8 C 0 km/h
284 22-07-2019 23:35:00 20.7 C 12.96 g/m*3 20.7 C 0 km/h
285 22-07-2019 23:40:00 20.5 C 12.81 g/m*3 20.5 C 0 km/h
286 22-07-2019 23:45:00 20.4 C 12.91 g/m*3 20.4 C 0 km/h
287 22-07-2019 23:50:00 20.3 C 13.01 g/m*3 20.3 C 0 km/h
288 22-07-2019 23:55:00 20.1 C 12.86 g/m*3 20.1 C 0 km/h
289 23-07-2019 00:00:00 20 C 12.96 g/m*3 20 C 0 km/h
290 23-07-2019 00:05:00 19.8 C 12.81 g/m*3 19.8 C 0 km/h
291 23-07-2019 00:10:00 19.8 C 12.81 g/m*3 19.8 C 0 km/h
292 23-07-2019 00:15:00 19.6 C 12.66 g/m*3 19.6 C 0 km/h
293 23-07-2019 00:20:00 19.5 C 12.75 g/m*3 19.5 C 0 km/h
294 23-07-2019 00:25:00 19.4 C 12.68 g/m*3 19.4 C 0 km/h
295 23-07-2019 00:30:00 19.3 C 12.61 g/m*3 19.3 C 0 km/h
296 23-07-2019 00:35:00 19.2 C 12.7 g/m*3 19.2 C 0 km/h
297 23-07-2019 00:40:00 19.2 C 12.7 g/m*3 19.2 C 0 km/h
298 23-07-2019 00:45:00 19.1 C 12.62 g/m*3 19.1 C 0 km/h
299 23-07-2019 00:50:00 19 C 12.71 g/m*3 19 C 0 km/h
300 23-07-2019 00:55:00 18.9 C 12.64 g/m*3 18.9 C 0 km/h
Sensor: Nr:Datum:Temp:Abs-Feuchte:Windchill:Wind:
Aussen-T/F 301 23-07-2019 01:00:00 18.8 C 12.56 g/m*3 18.8 C 0 km/h
302 23-07-2019 01:05:00 18.8 C 12.56 g/m*3 18.8 C 0 km/h
303 23-07-2019 01:10:00 18.7 C 12.65 g/m*3 18.7 C 0 km/h
304 23-07-2019 01:15:00 18.6 C 12.57 g/m*3 18.6 C 0 km/h
305 23-07-2019 01:20:00 18.5 C 12.66 g/m*3 18.5 C 0 km/h
306 23-07-2019 01:25:00 18.4 C 12.58 g/m*3 18.4 C 0 km/h
307 23-07-2019 01:30:00 18.3 C 12.51 g/m*3 18.3 C 0 km/h
308 23-07-2019 01:35:00 18.2 C 12.43 g/m*3 18.2 C 0 km/h
309 23-07-2019 01:40:00 18.2 C 12.59 g/m*3 18.2 C 0 km/h
310 23-07-2019 01:45:00 18.1 C 12.52 g/m*3 18.1 C 0 km/h
311 23-07-2019 01:50:00 18 C 12.44 g/m*3 18 C 0 km/h
312 23-07-2019 01:55:00 17.9 C 12.37 g/m*3 17.9 C 0 km/h
313 23-07-2019 02:00:00 17.9 C 12.37 g/m*3 17.9 C 0 km/h
314 23-07-2019 02:05:00 17.8 C 12.45 g/m*3 17.8 C 0 km/h
315 23-07-2019 02:10:00 17.8 C 12.45 g/m*3 17.8 C 0 km/h
316 23-07-2019 02:15:00 17.7 C 12.37 g/m*3 17.7 C 0 km/h
317 23-07-2019 02:20:00 17.7 C 12.37 g/m*3 17.7 C 0 km/h
318 23-07-2019 02:25:00 17.6 C 12.3 g/m*3 17.6 C 0 km/h
319 23-07-2019 02:30:00 17.5 C 12.37 g/m*3 17.5 C 0 km/h
320 23-07-2019 02:35:00 17.4 C 12.3 g/m*3 17.4 C 0 km/h
321 23-07-2019 02:40:00 17.4 C 12.3 g/m*3 17.4 C 0 km/h
322 23-07-2019 02:45:00 17.3 C 12.23 g/m*3 17.3 C 0 km/h
323 23-07-2019 02:50:00 17.3 C 12.23 g/m*3 17.3 C 0 km/h
324 23-07-2019 02:55:00 17.3 C 12.37 g/m*3 17.3 C 0 km/h
325 23-07-2019 03:00:00 17.2 C 12.3 g/m*3 17.2 C 0 km/h
Sensor: Nr:Datum:Temp:Abs-Feuchte:Windchill:Wind:
Aussen-T/F 326 23-07-2019 03:05:00 17.1 C 12.23 g/m*3 17.1 C 0 km/h
327 23-07-2019 03:10:00 16.9 C 12.08 g/m*3 16.9 C 0 km/h
328 23-07-2019 03:15:00 16.9 C 12.23 g/m*3 16.9 C 0 km/h
329 23-07-2019 03:20:00 16.9 C 12.23 g/m*3 16.9 C 0 km/h
330 23-07-2019 03:25:00 16.9 C 12.23 g/m*3 16.9 C 0 km/h
331 23-07-2019 03:30:00 16.8 C 12.15 g/m*3 16.8 C 0 km/h
332 23-07-2019 03:35:00 16.8 C 12.15 g/m*3 16.8 C 0 km/h
333 23-07-2019 03:40:00 16.7 C 12.22 g/m*3 16.7 C 0 km/h
334 23-07-2019 03:45:00 16.7 C 12.22 g/m*3 16.7 C 0 km/h
335 23-07-2019 03:50:00 16.6 C 12.15 g/m*3 16.6 C 0 km/h
336 23-07-2019 03:55:00 16.6 C 12.15 g/m*3 16.6 C 0 km/h
337 23-07-2019 04:00:00 16.6 C 12.15 g/m*3 16.6 C 0 km/h
338 23-07-2019 04:05:00 16.5 C 12.22 g/m*3 16.5 C 0 km/h
339 23-07-2019 04:10:00 16.4 C 12.14 g/m*3 16.4 C 0 km/h
340 23-07-2019 04:15:00 16.4 C 12.14 g/m*3 16.4 C 0 km/h
341 23-07-2019 04:20:00 16.3 C 12.07 g/m*3 16.3 C 0 km/h
342 23-07-2019 04:25:00 16.3 C 12.07 g/m*3 16.3 C 0 km/h
343 23-07-2019 04:30:00 16.2 C 12.14 g/m*3 16.2 C 0 km/h
344 23-07-2019 04:35:00 16.2 C 12.14 g/m*3 16.2 C 0 km/h
345 23-07-2019 04:40:00 16.2 C 12.14 g/m*3 16.2 C 0 km/h
346 23-07-2019 04:45:00 16.2 C 12.14 g/m*3 16.2 C 0 km/h
347 23-07-2019 04:50:00 16.1 C 12.06 g/m*3 16.1 C 0 km/h
348 23-07-2019 04:55:00 16.1 C 12.06 g/m*3 16.1 C 0 km/h
349 23-07-2019 05:00:00 16.1 C 12.06 g/m*3 16.1 C 0 km/h
350 23-07-2019 05:05:00 16 C 12.13 g/m*3 16 C 0 km/h
Sensor: Nr:Datum:Temp:Abs-Feuchte:Windchill:Wind:
Aussen-T/F 351 23-07-2019 05:10:00 16 C 12.13 g/m*3 16 C 0 km/h
352 23-07-2019 05:15:00 15.9 C 12.05 g/m*3 15.9 C 0 km/h
353 23-07-2019 05:20:00 15.9 C 12.05 g/m*3 15.9 C 0 km/h
354 23-07-2019 05:25:00 15.8 C 11.98 g/m*3 15.8 C 0 km/h
355 23-07-2019 05:30:00 15.8 C 11.98 g/m*3 15.8 C 0 km/h
356 23-07-2019 05:35:00 15.8 C 11.98 g/m*3 15.8 C 0 km/h
357 23-07-2019 05:40:00 15.7 C 11.91 g/m*3 15.7 C 0 km/h
358 23-07-2019 05:45:00 15.7 C 11.91 g/m*3 15.7 C 0 km/h
359 23-07-2019 05:50:00 15.6 C 11.97 g/m*3 15.6 C 0 km/h
360 23-07-2019 05:55:00 15.6 C 11.97 g/m*3 15.6 C 0 km/h
361 23-07-2019 06:00:00 15.6 C 11.97 g/m*3 15.6 C 0 km/h
362 23-07-2019 06:05:00 15.6 C 11.97 g/m*3 15.6 C 0 km/h
363 23-07-2019 06:10:00 15.6 C 12.1 g/m*3 15.6 C 0 km/h
364 23-07-2019 06:15:00 15.6 C 12.1 g/m*3 15.6 C 0 km/h
365 23-07-2019 06:20:00 15.6 C 12.1 g/m*3 15.6 C 0 km/h
366 23-07-2019 06:25:00 15.6 C 12.1 g/m*3 15.6 C 0 km/h
367 23-07-2019 06:30:00 15.7 C 12.18 g/m*3 15.7 C 0 km/h
368 23-07-2019 06:35:00 15.7 C 12.18 g/m*3 15.7 C 0 km/h
369 23-07-2019 06:40:00 15.7 C 12.18 g/m*3 15.7 C 0 km/h
370 23-07-2019 06:45:00 15.7 C 12.18 g/m*3 15.7 C 0 km/h
371 23-07-2019 06:50:00 15.7 C 12.18 g/m*3 15.7 C 0 km/h
372 23-07-2019 06:55:00 15.8 C 12.25 g/m*3 15.8 C 0 km/h
373 23-07-2019 07:00:00 15.8 C 12.25 g/m*3 15.8 C 0 km/h
374 23-07-2019 07:05:00 15.9 C 12.32 g/m*3 15.9 C 0 km/h
375 23-07-2019 07:10:00 16 C 12.4 g/m*3 16 C 0 km/h
Sensor: Nr:Datum:Temp:Abs-Feuchte:Windchill:Wind:
Aussen-T/F 376 23-07-2019 07:15:00 16.1 C 12.47 g/m*3 16.1 C 0 km/h
377 23-07-2019 07:20:00 16.1 C 12.47 g/m*3 16.1 C 0 km/h
378 23-07-2019 07:25:00 16.1 C 12.47 g/m*3 16.1 C 0 km/h
379 23-07-2019 07:30:00 16.1 C 12.47 g/m*3 16.1 C 0 km/h
380 23-07-2019 07:35:00 16.2 C 12.55 g/m*3 16.2 C 0 km/h
381 23-07-2019 07:40:00 16.2 C 12.55 g/m*3 16.2 C 0 km/h
382 23-07-2019 07:45:00 16.2 C 12.55 g/m*3 16.2 C 0 km/h
383 23-07-2019 07:50:00 16.3 C 12.62 g/m*3 16.3 C 0 km/h
384 23-07-2019 07:55:00 16.3 C 12.62 g/m*3 16.3 C 0 km/h
385 23-07-2019 08:00:00 16.4 C 12.7 g/m*3 16.4 C 0 km/h
386 23-07-2019 08:05:00 16.4 C 12.7 g/m*3 16.4 C 0 km/h
387 23-07-2019 08:10:00 16.5 C 12.78 g/m*3 16.5 C 0 km/h
388 23-07-2019 08:15:00 16.6 C 12.86 g/m*3 16.6 C 0 km/h
389 23-07-2019 08:20:00 16.7 C 12.93 g/m*3 16.7 C 0 km/h
390 23-07-2019 08:25:00 16.7 C 12.93 g/m*3 16.7 C 0 km/h
391 23-07-2019 08:30:00 16.8 C 13.01 g/m*3 16.8 C 0 km/h
392 23-07-2019 08:35:00 16.9 C 12.94 g/m*3 16.9 C 0 km/h
393 23-07-2019 08:40:00 17.1 C 13.1 g/m*3 17.1 C 0 km/h
394 23-07-2019 08:45:00 17.2 C 13.18 g/m*3 17.2 C 0 km/h
395 23-07-2019 08:50:00 17.3 C 13.26 g/m*3 17.3 C 0 km/h
396 23-07-2019 08:55:00 17.4 C 13.34 g/m*3 17.4 C 0 km/h
397 23-07-2019 09:00:00 17.6 C 13.5 g/m*3 17.6 C 0 km/h
398 23-07-2019 09:05:00 17.7 C 13.43 g/m*3 17.7 C 0 km/h
399 23-07-2019 09:10:00 17.8 C 13.51 g/m*3 17.8 C 0 km/h
400 23-07-2019 09:15:00 18.1 C 13.75 g/m*3 18.1 C 0 km/h
Sensor: Nr:Datum:Temp:Abs-Feuchte:Windchill:Wind:
Aussen-T/F 401 23-07-2019 09:20:00 18.3 C 13.76 g/m*3 18.3 C 0 km/h
402 23-07-2019 09:25:00 18.6 C 14.01 g/m*3 18.6 C 0 km/h
403 23-07-2019 09:30:00 18.8 C 14.01 g/m*3 18.8 C 0 km/h
404 23-07-2019 09:35:00 19 C 14.18 g/m*3 19 C 0 km/h
405 23-07-2019 09:40:00 19.2 C 14.18 g/m*3 19.2 C 0 km/h
406 23-07-2019 09:45:00 19.5 C 14.27 g/m*3 19.5 C 0 km/h
407 23-07-2019 09:50:00 19.8 C 14.35 g/m*3 19.8 C 0 km/h
408 23-07-2019 09:55:00 20.1 C 14.43 g/m*3 20.1 C 0 km/h
409 23-07-2019 10:00:00 20.4 C 14.68 g/m*3 20.4 C 0 km/h
410 23-07-2019 10:05:00 20.7 C 14.58 g/m*3 20.7 C 0 km/h
411 23-07-2019 10:10:00 21.1 C 14.74 g/m*3 21.1 C 0 km/h
412 23-07-2019 10:15:00 21.3 C 14.73 g/m*3 21.3 C 0 km/h
413 23-07-2019 10:20:00 21.6 C 14.98 g/m*3 21.6 C 0 km/h
414 23-07-2019 10:25:00 21.9 C 14.86 g/m*3 21.9 C 0 km/h
415 23-07-2019 10:30:00 22.3 C 15.2 g/m*3 22.3 C 0 km/h
416 23-07-2019 10:35:00 22.7 C 15.36 g/m*3 22.7 C 0 km/h
417 23-07-2019 10:40:00 23.2 C 15.18 g/m*3 23.2 C 0 km/h
418 23-07-2019 10:45:00 23.8 C 14.2 g/m*3 23.8 C 8.1 km/h
419 23-07-2019 10:50:00 24.8 C 15.02 g/m*3 24.8 C 8.1 km/h
420 23-07-2019 10:55:00 25.3 C 14.75 g/m*3 25.3 C 3.2 km/h
421 23-07-2019 11:00:00 25.6 C 14.52 g/m*3 25.6 C 3.2 km/h
422 23-07-2019 11:05:00 25.9 C 14.04 g/m*3 25.9 C 4.8 km/h
423 23-07-2019 11:10:00 26.4 C 14.19 g/m*3 26.4 C 6.4 km/h
424 23-07-2019 11:15:00 26.9 C 14.59 g/m*3 26.9 C 6.4 km/h
425 23-07-2019 11:20:00 27.1 C 14.75 g/m*3 27.1 C 3.2 km/h
Sensor: Nr:Datum:Temp:Abs-Feuchte:Windchill:Wind:
Aussen-T/F 426 23-07-2019 11:25:00 27.1 C 13.72 g/m*3 27.1 C 4.8 km/h
427 23-07-2019 11:30:00 27.4 C 13.94 g/m*3 27.4 C 6.4 km/h
428 23-07-2019 11:35:00 27.8 C 13.72 g/m*3 27.8 C 9.7 km/h
429 23-07-2019 11:40:00 28.1 C 13.4 g/m*3 28.1 C 9.7 km/h
430 23-07-2019 11:45:00 28.4 C 13.34 g/m*3 28.4 C 9.7 km/h
431 23-07-2019 11:50:00 28.7 C 13.28 g/m*3 28.7 C 11.3 km/h
432 23-07-2019 11:55:00 28.8 C 13.92 g/m*3 28.8 C 11.3 km/h
433 23-07-2019 12:00:00 28.9 C 13.43 g/m*3 28.9 C 9.7 km/h
434 23-07-2019 12:05:00 29.1 C 13 g/m*3 29.1 C 11.3 km/h
435 23-07-2019 12:10:00 29.2 C 13.36 g/m*3 29.2 C 11.3 km/h
436 23-07-2019 12:15:00 29.3 C 13.14 g/m*3 29.3 C 8.1 km/h
437 23-07-2019 12:20:00 29.4 C 13.5 g/m*3 29.4 C 6.4 km/h
438 23-07-2019 12:25:00 29.5 C 12.99 g/m*3 29.5 C 12.9 km/h
439 23-07-2019 12:30:00 29.6 C 13.06 g/m*3 29.6 C 8.1 km/h
440 23-07-2019 12:35:00 29.8 C 12.6 g/m*3 29.8 C 9.7 km/h
441 23-07-2019 12:40:00 29.9 C 12.97 g/m*3 29.9 C 14.5 km/h
442 23-07-2019 12:45:00 30 C 12.74 g/m*3 30 C 16.1 km/h
443 23-07-2019 12:50:00 30.2 C 13.18 g/m*3 30.2 C 16.1 km/h
444 23-07-2019 12:55:00 30.2 C 12.57 g/m*3 30.2 C 14.5 km/h
445 23-07-2019 13:00:00 30.3 C 12.64 g/m*3 30.3 C 11.3 km/h
446 23-07-2019 13:05:00 30.3 C 12.94 g/m*3 30.3 C 9.7 km/h
447 23-07-2019 13:10:00 30.4 C 12.7 g/m*3 30.4 C 11.3 km/h
448 23-07-2019 13:15:00 30.6 C 12.53 g/m*3 30.6 C 9.7 km/h
449 23-07-2019 13:20:00 30.6 C 12.53 g/m*3 30.6 C 4.8 km/h
450 23-07-2019 13:25:00 30.7 C 12.6 g/m*3 30.7 C 8.1 km/h
Sensor: Nr:Datum:Temp:Abs-Feuchte:Windchill:Wind:
Aussen-T/F 451 23-07-2019 13:30:00 30.8 C 12.66 g/m*3 30.8 C 9.7 km/h
452 23-07-2019 13:35:00 30.9 C 12.41 g/m*3 30.9 C 20.9 km/h
453 23-07-2019 13:40:00 31.1 C 12.23 g/m*3 31.1 C 20.9 km/h
454 23-07-2019 13:45:00 31.2 C 12.94 g/m*3 31.2 C 6.4 km/h
455 23-07-2019 13:50:00 31.2 C 12.94 g/m*3 31.2 C 6.4 km/h
456 23-07-2019 13:55:00 31.3 C 12.36 g/m*3 31.3 C 4.8 km/h
457 23-07-2019 14:00:00 31.3 C 12.68 g/m*3 31.3 C 1.6 km/h
458 23-07-2019 14:05:00 31.4 C 12.42 g/m*3 31.4 C 4.8 km/h
459 23-07-2019 14:10:00 31.7 C 12.96 g/m*3 31.7 C 11.3 km/h
460 23-07-2019 14:15:00 31.9 C 12.76 g/m*3 31.9 C 11.3 km/h
461 23-07-2019 14:20:00 32.1 C 12.9 g/m*3 32.1 C 9.7 km/h
462 23-07-2019 14:25:00 32.2 C 12.62 g/m*3 32.2 C 9.7 km/h
463 23-07-2019 14:30:00 32.3 C 12.35 g/m*3 32.3 C 14.5 km/h
464 23-07-2019 14:35:00 32.3 C 12.35 g/m*3 32.3 C 12.9 km/h
465 23-07-2019 14:40:00 32.4 C 12.41 g/m*3 32.4 C 11.3 km/h
466 23-07-2019 14:45:00 32.5 C 12.48 g/m*3 32.5 C 6.4 km/h
467 23-07-2019 14:50:00 32.6 C 12.9 g/m*3 32.6 C 6.4 km/h
468 23-07-2019 14:55:00 32.7 C 12.61 g/m*3 32.7 C 8.1 km/h
469 23-07-2019 15:00:00 32.8 C 13.03 g/m*3 32.8 C 8.1 km/h
470 23-07-2019 15:05:00 33.1 C 13.6 g/m*3 33.1 C 9.7 km/h
471 23-07-2019 15:10:00 33.2 C 13.31 g/m*3 33.2 C 8.1 km/h
472 23-07-2019 15:15:00 33.4 C 13.09 g/m*3 33.4 C 12.9 km/h
473 23-07-2019 15:20:00 33.6 C 13.23 g/m*3 33.6 C 6.4 km/h
474 23-07-2019 15:25:00 33.8 C 12.62 g/m*3 33.8 C 9.7 km/h
475 23-07-2019 15:30:00 33.8 C 12.62 g/m*3 33.8 C 8.1 km/h
Sensor: Nr:Datum:Temp:Abs-Feuchte:Windchill:Wind:
Aussen-T/F 476 23-07-2019 15:35:00 34 C 12.76 g/m*3 34 C 6.4 km/h
477 23-07-2019 15:40:00 34.4 C 13.03 g/m*3 34.4 C 9.7 km/h
478 23-07-2019 15:45:00 34.7 C 13.23 g/m*3 34.7 C 11.3 km/h
479 23-07-2019 15:50:00 34.9 C 12.98 g/m*3 34.9 C 4.8 km/h
480 23-07-2019 15:55:00 35.2 C 13.58 g/m*3 35.2 C 9.7 km/h
481 23-07-2019 16:00:00 35.5 C 12.98 g/m*3 35.5 C 4.8 km/h
482 23-07-2019 16:05:00 35.6 C 13.05 g/m*3 35.6 C 6.4 km/h
483 23-07-2019 16:10:00 35.6 C 12.23 g/m*3 35.6 C 9.7 km/h
484 23-07-2019 16:15:00 35.6 C 13.46 g/m*3 35.6 C 3.2 km/h
485 23-07-2019 16:20:00 35.8 C 12.77 g/m*3 35.8 C 8.1 km/h
486 23-07-2019 16:25:00 35.9 C 12.84 g/m*3 35.9 C 4.8 km/h
487 23-07-2019 16:30:00 36.1 C 12.56 g/m*3 36.1 C 6.4 km/h
488 23-07-2019 16:35:00 36 C 12.91 g/m*3 36 C 6.4 km/h
489 23-07-2019 16:40:00 35.8 C 12.77 g/m*3 35.8 C 12.9 km/h
490 23-07-2019 16:45:00 35.8 C 12.36 g/m*3 35.8 C 9.7 km/h
491 23-07-2019 16:50:00 35.8 C 12.36 g/m*3 35.8 C 6.4 km/h
492 23-07-2019 16:55:00 36.1 C 12.56 g/m*3 36.1 C 8.1 km/h
493 23-07-2019 17:00:00 36.1 C 12.14 g/m*3 36.1 C 6.4 km/h
494 23-07-2019 17:05:00 36.3 C 12.69 g/m*3 36.3 C 4.8 km/h
495 23-07-2019 17:10:00 36.4 C 12.33 g/m*3 36.4 C 8.1 km/h
496 23-07-2019 17:15:00 36.3 C 11.84 g/m*3 36.3 C 8.1 km/h
497 23-07-2019 17:20:00 36.3 C 12.26 g/m*3 36.3 C 4.8 km/h
498 23-07-2019 17:25:00 36.4 C 12.33 g/m*3 36.4 C 6.4 km/h
499 23-07-2019 17:30:00 36.4 C 12.33 g/m*3 36.4 C 11.3 km/h
500 23-07-2019 17:35:00 36.5 C 11.96 g/m*3 36.5 C 8.1 km/h
Sensor: Nr:Datum:Temp:Abs-Feuchte:Windchill:Wind:
Aussen-T/F 501 23-07-2019 17:40:00 36.6 C 12.02 g/m*3 36.6 C 8.1 km/h
502 23-07-2019 17:45:00 36.6 C 12.02 g/m*3 36.6 C 9.7 km/h
503 23-07-2019 17:50:00 36.3 C 11.84 g/m*3 36.3 C 9.7 km/h
504 23-07-2019 17:55:00 36.4 C 12.33 g/m*3 36.4 C 8.1 km/h
505 23-07-2019 18:00:00 36.7 C 12.95 g/m*3 36.7 C 8.1 km/h
506 23-07-2019 18:05:00 36.8 C 12.15 g/m*3 36.8 C 11.3 km/h
507 23-07-2019 18:10:00 36.8 C 12.15 g/m*3 36.8 C 6.4 km/h
508 23-07-2019 18:15:00 36.7 C 12.52 g/m*3 36.7 C 8.1 km/h
509 23-07-2019 18:20:00 37 C 12.27 g/m*3 37 C 3.2 km/h
510 23-07-2019 18:25:00 36.9 C 11.77 g/m*3 36.9 C 9.7 km/h
511 23-07-2019 18:30:00 36.8 C 12.15 g/m*3 36.8 C 4.8 km/h
512 23-07-2019 18:35:00 36.8 C 12.58 g/m*3 36.8 C 6.4 km/h
513 23-07-2019 18:40:00 36.9 C 12.65 g/m*3 36.9 C 6.4 km/h
514 23-07-2019 18:45:00 36.9 C 11.77 g/m*3 36.9 C 9.7 km/h
515 23-07-2019 18:50:00 36.6 C 12.45 g/m*3 36.6 C 6.4 km/h
516 23-07-2019 18:55:00 36.3 C 12.26 g/m*3 36.3 C 9.7 km/h
517 23-07-2019 19:00:00 36.2 C 12.2 g/m*3 36.2 C 6.4 km/h
518 23-07-2019 19:05:00 36.2 C 12.2 g/m*3 36.2 C 4.8 km/h
519 23-07-2019 19:10:00 36.3 C 12.26 g/m*3 36.3 C 4.8 km/h
520 23-07-2019 19:15:00 36.3 C 12.69 g/m*3 36.3 C 9.7 km/h
521 23-07-2019 19:20:00 36.1 C 11.72 g/m*3 36.1 C 8.1 km/h
522 23-07-2019 19:25:00 35.8 C 12.77 g/m*3 35.8 C 6.4 km/h
523 23-07-2019 19:30:00 35.6 C 12.23 g/m*3 35.6 C 4.8 km/h
524 23-07-2019 19:35:00 35.4 C 12.51 g/m*3 35.4 C 4.8 km/h
525 23-07-2019 19:40:00 35.2 C 11.98 g/m*3 35.2 C 4.8 km/h
Sensor: Nr:Datum:Temp:Abs-Feuchte:Windchill:Wind:
Aussen-T/F 526 23-07-2019 19:45:00 35 C 13.05 g/m*3 35 C 6.4 km/h
527 23-07-2019 19:50:00 34.9 C 14.16 g/m*3 34.9 C 4.8 km/h
528 23-07-2019 19:55:00 34.7 C 13.23 g/m*3 34.7 C 4.8 km/h
529 23-07-2019 20:00:00 34.5 C 12.71 g/m*3 34.5 C 4.8 km/h
530 23-07-2019 20:05:00 34.3 C 13.34 g/m*3 34.3 C 3.2 km/h
531 23-07-2019 20:10:00 34.2 C 14.41 g/m*3 34.2 C 1.6 km/h
532 23-07-2019 20:15:00 33.9 C 14.56 g/m*3 33.9 C 3.2 km/h
533 23-07-2019 20:20:00 33.6 C 14.33 g/m*3 33.6 C 3.2 km/h
534 23-07-2019 20:25:00 33.3 C 14.47 g/m*3 33.3 C 1.6 km/h
535 23-07-2019 20:30:00 32.8 C 15.85 g/m*3 32.8 C 1.6 km/h
536 23-07-2019 20:35:00 32.3 C 14.41 g/m*3 32.3 C 0 km/h
537 23-07-2019 20:40:00 31.7 C 13.95 g/m*3 31.7 C 0 km/h
538 23-07-2019 20:45:00 31.2 C 14.23 g/m*3 31.2 C 0 km/h
539 23-07-2019 20:50:00 30.7 C 14.17 g/m*3 30.7 C 1.6 km/h
540 23-07-2019 20:55:00 30.2 C 14.1 g/m*3 30.2 C 0 km/h
541 23-07-2019 21:00:00 29.7 C 14.02 g/m*3 29.7 C 0 km/h
542 23-07-2019 21:05:00 29.4 C 14.09 g/m*3 29.4 C 1.6 km/h
543 23-07-2019 21:10:00 29.1 C 13.86 g/m*3 29.1 C 1.6 km/h
544 23-07-2019 21:15:00 28.8 C 13.92 g/m*3 28.8 C 1.6 km/h
545 23-07-2019 21:20:00 28.4 C 13.9 g/m*3 28.4 C 1.6 km/h
546 23-07-2019 21:25:00 28.1 C 13.67 g/m*3 28.1 C 1.6 km/h
547 23-07-2019 21:30:00 27.7 C 13.64 g/m*3 27.7 C 1.6 km/h
548 23-07-2019 21:35:00 27.4 C 13.68 g/m*3 27.4 C 1.6 km/h
549 23-07-2019 21:40:00 27.2 C 13.53 g/m*3 27.2 C 1.6 km/h
550 23-07-2019 21:45:00 26.9 C 13.31 g/m*3 26.9 C 3.2 km/h
Sensor: Nr:Datum:Temp:Abs-Feuchte:Windchill:Wind:
Aussen-T/F 551 23-07-2019 21:50:00 26.8 C 13.49 g/m*3 26.8 C 1.6 km/h
552 23-07-2019 21:55:00 26.6 C 13.09 g/m*3 26.6 C 1.6 km/h
553 23-07-2019 22:00:00 26.5 C 13.27 g/m*3 26.5 C 1.6 km/h
554 23-07-2019 22:05:00 26.4 C 13.19 g/m*3 26.4 C 1.6 km/h
555 23-07-2019 22:10:00 26.2 C 13.29 g/m*3 26.2 C 0 km/h
556 23-07-2019 22:15:00 25.8 C 13.48 g/m*3 25.8 C 0 km/h
557 23-07-2019 22:20:00 25.6 C 13.57 g/m*3 25.6 C 0 km/h
558 23-07-2019 22:25:00 25.2 C 13.27 g/m*3 25.2 C 0 km/h
559 23-07-2019 22:30:00 25 C 13.35 g/m*3 25 C 0 km/h
560 23-07-2019 22:35:00 24.8 C 13.66 g/m*3 24.8 C 0 km/h
561 23-07-2019 22:40:00 24.6 C 13.5 g/m*3 24.6 C 0 km/h
562 23-07-2019 22:45:00 24.3 C 13.5 g/m*3 24.3 C 0 km/h
563 23-07-2019 22:50:00 24.1 C 13.57 g/m*3 24.1 C 0 km/h
564 23-07-2019 22:55:00 23.9 C 13.63 g/m*3 23.9 C 0 km/h
565 23-07-2019 23:00:00 23.7 C 13.48 g/m*3 23.7 C 0 km/h
566 23-07-2019 23:05:00 23.5 C 13.53 g/m*3 23.5 C 0 km/h
567 23-07-2019 23:10:00 23.3 C 13.59 g/m*3 23.3 C 0 km/h
568 23-07-2019 23:15:00 23.2 C 13.51 g/m*3 23.2 C 0 km/h
569 23-07-2019 23:20:00 23.1 C 13.64 g/m*3 23.1 C 0 km/h
570 23-07-2019 23:25:00 23 C 13.57 g/m*3 23 C 0 km/h
571 23-07-2019 23:30:00 22.9 C 13.49 g/m*3 22.9 C 0 km/h
572 23-07-2019 23:35:00 22.8 C 13.41 g/m*3 22.8 C 0 km/h
573 23-07-2019 23:40:00 22.7 C 13.54 g/m*3 22.7 C 0 km/h
574 23-07-2019 23:45:00 22.5 C 13.58 g/m*3 22.5 C 0 km/h
575 23-07-2019 23:50:00 22.3 C 13.43 g/m*3 22.3 C 0 km/h
Sensor: Nr:Datum:Temp:Abs-Feuchte:Windchill:Wind:
Aussen-T/F 576 23-07-2019 23:55:00 22.2 C 13.35 g/m*3 22.2 C 0 km/h
577 24-07-2019 00:00:00 22.1 C 13.47 g/m*3 22.1 C 0 km/h
578 24-07-2019 00:05:00 21.9 C 13.51 g/m*3 21.9 C 0 km/h
579 24-07-2019 00:10:00 21.8 C 13.43 g/m*3 21.8 C 0 km/h
580 24-07-2019 00:15:00 21.7 C 13.35 g/m*3 21.7 C 0 km/h
581 24-07-2019 00:20:00 21.6 C 13.47 g/m*3 21.6 C 0 km/h
582 24-07-2019 00:25:00 21.4 C 13.31 g/m*3 21.4 C 0 km/h
583 24-07-2019 00:30:00 21.4 C 13.5 g/m*3 21.4 C 0 km/h
584 24-07-2019 00:35:00 21.3 C 13.42 g/m*3 21.3 C 0 km/h
585 24-07-2019 00:40:00 21.2 C 13.53 g/m*3 21.2 C 0 km/h
586 24-07-2019 00:45:00 21.1 C 13.45 g/m*3 21.1 C 0 km/h
587 24-07-2019 00:50:00 20.9 C 13.3 g/m*3 20.9 C 0 km/h
588 24-07-2019 00:55:00 20.9 C 13.48 g/m*3 20.9 C 0 km/h
589 24-07-2019 01:00:00 20.8 C 13.4 g/m*3 20.8 C 0 km/h
590 24-07-2019 01:05:00 20.7 C 13.68 g/m*3 20.7 C 0 km/h
591 24-07-2019 01:10:00 20.7 C 13.68 g/m*3 20.7 C 0 km/h
592 24-07-2019 01:15:00 20.6 C 13.6 g/m*3 20.6 C 0 km/h
593 24-07-2019 01:20:00 20.6 C 13.6 g/m*3 20.6 C 0 km/h
594 24-07-2019 01:25:00 20.4 C 13.44 g/m*3 20.4 C 0 km/h
595 24-07-2019 01:30:00 20.3 C 13.54 g/m*3 20.3 C 0 km/h
596 24-07-2019 01:35:00 20.2 C 13.46 g/m*3 20.2 C 0 km/h
597 24-07-2019 01:40:00 20.1 C 13.39 g/m*3 20.1 C 0 km/h
598 24-07-2019 01:45:00 19.9 C 13.23 g/m*3 19.9 C 0 km/h
599 24-07-2019 01:50:00 19.8 C 13.15 g/m*3 19.8 C 0 km/h
600 24-07-2019 01:55:00 19.7 C 13.25 g/m*3 19.7 C 0 km/h
Sensor: Nr:Datum:Temp:Abs-Feuchte:Windchill:Wind:
Aussen-T/F 601 24-07-2019 02:00:00 19.7 C 13.25 g/m*3 19.7 C 0 km/h
602 24-07-2019 02:05:00 19.6 C 13.17 g/m*3 19.6 C 0 km/h
603 24-07-2019 02:10:00 19.5 C 13.09 g/m*3 19.5 C 0 km/h
604 24-07-2019 02:15:00 19.5 C 13.09 g/m*3 19.5 C 0 km/h
605 24-07-2019 02:20:00 19.4 C 13.01 g/m*3 19.4 C 0 km/h
606 24-07-2019 02:25:00 19.4 C 13.18 g/m*3 19.4 C 0 km/h
607 24-07-2019 02:30:00 19.3 C 13.1 g/m*3 19.3 C 0 km/h
608 24-07-2019 02:35:00 19.2 C 13.03 g/m*3 19.2 C 0 km/h
609 24-07-2019 02:40:00 19.1 C 13.11 g/m*3 19.1 C 0 km/h
610 24-07-2019 02:45:00 19.1 C 13.11 g/m*3 19.1 C 0 km/h
611 24-07-2019 02:50:00 19 C 13.04 g/m*3 19 C 0 km/h
612 24-07-2019 02:55:00 18.9 C 13.12 g/m*3 18.9 C 0 km/h
613 24-07-2019 03:00:00 18.9 C 13.12 g/m*3 18.9 C 0 km/h
614 24-07-2019 03:05:00 19.1 C 13.28 g/m*3 19.1 C 0 km/h
615 24-07-2019 03:10:00 19.1 C 13.11 g/m*3 19.1 C 0 km/h
616 24-07-2019 03:15:00 18.9 C 12.96 g/m*3 18.9 C 0 km/h
617 24-07-2019 03:20:00 18.8 C 12.88 g/m*3 18.8 C 0 km/h
618 24-07-2019 03:25:00 18.7 C 12.97 g/m*3 18.7 C 0 km/h
619 24-07-2019 03:30:00 18.6 C 13.05 g/m*3 18.6 C 0 km/h
620 24-07-2019 03:35:00 18.5 C 13.13 g/m*3 18.5 C 0 km/h
621 24-07-2019 03:40:00 18.4 C 13.05 g/m*3 18.4 C 0 km/h
622 24-07-2019 03:45:00 18.3 C 12.98 g/m*3 18.3 C 0 km/h
623 24-07-2019 03:50:00 18.2 C 12.9 g/m*3 18.2 C 0 km/h
624 24-07-2019 03:55:00 18.1 C 12.98 g/m*3 18.1 C 0 km/h
625 24-07-2019 04:00:00 18.1 C 12.98 g/m*3 18.1 C 0 km/h
Sensor: Nr:Datum:Temp:Abs-Feuchte:Windchill:Wind:
Aussen-T/F 626 24-07-2019 04:05:00 18 C 12.9 g/m*3 18 C 0 km/h
627 24-07-2019 04:10:00 17.9 C 12.83 g/m*3 17.9 C 0 km/h
628 24-07-2019 04:15:00 17.9 C 12.83 g/m*3 17.9 C 0 km/h
629 24-07-2019 04:20:00 17.8 C 12.75 g/m*3 17.8 C 0 km/h
630 24-07-2019 04:25:00 17.8 C 12.75 g/m*3 17.8 C 0 km/h
631 24-07-2019 04:30:00 17.8 C 12.9 g/m*3 17.8 C 0 km/h
632 24-07-2019 04:35:00 17.7 C 12.82 g/m*3 17.7 C 0 km/h
633 24-07-2019 04:40:00 17.7 C 12.82 g/m*3 17.7 C 0 km/h
634 24-07-2019 04:45:00 17.6 C 12.75 g/m*3 17.6 C 0 km/h
635 24-07-2019 04:50:00 17.5 C 12.67 g/m*3 17.5 C 0 km/h
636 24-07-2019 04:55:00 17.4 C 12.75 g/m*3 17.4 C 0 km/h
637 24-07-2019 05:00:00 17.4 C 12.75 g/m*3 17.4 C 0 km/h
638 24-07-2019 05:05:00 17.4 C 12.75 g/m*3 17.4 C 0 km/h
639 24-07-2019 05:10:00 17.3 C 12.67 g/m*3 17.3 C 0 km/h
640 24-07-2019 05:15:00 17.3 C 12.82 g/m*3 17.3 C 0 km/h
641 24-07-2019 05:20:00 17.3 C 12.82 g/m*3 17.3 C 0 km/h
642 24-07-2019 05:25:00 17.2 C 12.74 g/m*3 17.2 C 0 km/h
643 24-07-2019 05:30:00 17.2 C 12.74 g/m*3 17.2 C 0 km/h
644 24-07-2019 05:35:00 17.2 C 12.89 g/m*3 17.2 C 0 km/h
645 24-07-2019 05:40:00 17.2 C 12.89 g/m*3 17.2 C 0 km/h
646 24-07-2019 05:45:00 17.1 C 12.81 g/m*3 17.1 C 0 km/h
647 24-07-2019 05:50:00 17.1 C 12.66 g/m*3 17.1 C 0 km/h
648 24-07-2019 05:55:00 17.1 C 12.81 g/m*3 17.1 C 0 km/h
649 24-07-2019 06:00:00 17.1 C 12.81 g/m*3 17.1 C 0 km/h
650 24-07-2019 06:05:00 17.1 C 12.81 g/m*3 17.1 C 0 km/h
Sensor: Nr:Datum:Temp:Abs-Feuchte:Windchill:Wind:
Aussen-T/F 651 24-07-2019 06:10:00 17.1 C 12.81 g/m*3 17.1 C 0 km/h
652 24-07-2019 06:15:00 17.1 C 12.81 g/m*3 17.1 C 0 km/h
653 24-07-2019 06:20:00 17 C 12.73 g/m*3 17 C 0 km/h
654 24-07-2019 06:25:00 17.1 C 12.81 g/m*3 17.1 C 0 km/h
655 24-07-2019 06:30:00 17.1 C 12.81 g/m*3 17.1 C 0 km/h
656 24-07-2019 06:35:00 17 C 12.73 g/m*3 17 C 0 km/h
657 24-07-2019 06:40:00 17 C 12.73 g/m*3 17 C 0 km/h
658 24-07-2019 06:45:00 17.1 C 12.96 g/m*3 17.1 C 0 km/h
659 24-07-2019 06:50:00 17.1 C 12.96 g/m*3 17.1 C 0 km/h
660 24-07-2019 06:55:00 17.1 C 12.96 g/m*3 17.1 C 0 km/h
661 24-07-2019 07:00:00 17.1 C 13.1 g/m*3 17.1 C 0 km/h
662 24-07-2019 07:05:00 17.1 C 13.1 g/m*3 17.1 C 0 km/h
663 24-07-2019 07:10:00 17.1 C 13.1 g/m*3 17.1 C 0 km/h
664 24-07-2019 07:15:00 17.1 C 13.1 g/m*3 17.1 C 0 km/h
665 24-07-2019 07:20:00 17.2 C 13.18 g/m*3 17.2 C 0 km/h
666 24-07-2019 07:25:00 17.2 C 13.18 g/m*3 17.2 C 0 km/h
667 24-07-2019 07:30:00 17.3 C 13.26 g/m*3 17.3 C 0 km/h
668 24-07-2019 07:35:00 17.3 C 13.26 g/m*3 17.3 C 0 km/h
669 24-07-2019 07:40:00 17.3 C 13.26 g/m*3 17.3 C 0 km/h
670 24-07-2019 07:45:00 17.4 C 13.34 g/m*3 17.4 C 0 km/h
671 24-07-2019 07:50:00 17.5 C 13.42 g/m*3 17.5 C 0 km/h
672 24-07-2019 07:55:00 17.6 C 13.5 g/m*3 17.6 C 0 km/h
673 24-07-2019 08:00:00 17.6 C 13.5 g/m*3 17.6 C 0 km/h
674 24-07-2019 08:05:00 17.7 C 13.58 g/m*3 17.7 C 0 km/h
675 24-07-2019 08:10:00 17.8 C 13.66 g/m*3 17.8 C 0 km/h
Sensor: Nr:Datum:Temp:Abs-Feuchte:Windchill:Wind:
Aussen-T/F 676 24-07-2019 08:15:00 18 C 13.67 g/m*3 18 C 0 km/h
677 24-07-2019 08:20:00 18.2 C 13.83 g/m*3 18.2 C 0 km/h
678 24-07-2019 08:25:00 18.3 C 13.92 g/m*3 18.3 C 0 km/h
679 24-07-2019 08:30:00 18.4 C 14 g/m*3 18.4 C 0 km/h
680 24-07-2019 08:35:00 18.5 C 13.92 g/m*3 18.5 C 0 km/h
681 24-07-2019 08:40:00 18.6 C 14.01 g/m*3 18.6 C 0 km/h
682 24-07-2019 08:45:00 18.8 C 14.17 g/m*3 18.8 C 0 km/h
683 24-07-2019 08:50:00 18.9 C 14.26 g/m*3 18.9 C 0 km/h
684 24-07-2019 08:55:00 19.1 C 14.43 g/m*3 19.1 C 0 km/h
685 24-07-2019 09:00:00 19.2 C 14.51 g/m*3 19.2 C 0 km/h
686 24-07-2019 09:05:00 19.3 C 14.6 g/m*3 19.3 C 0 km/h
687 24-07-2019 09:10:00 19.5 C 14.77 g/m*3 19.5 C 0 km/h
688 24-07-2019 09:15:00 19.6 C 14.69 g/m*3 19.6 C 0 km/h
689 24-07-2019 09:20:00 19.8 C 14.86 g/m*3 19.8 C 0 km/h
690 24-07-2019 09:25:00 20.1 C 14.95 g/m*3 20.1 C 0 km/h
691 24-07-2019 09:30:00 20.3 C 15.13 g/m*3 20.3 C 0 km/h
692 24-07-2019 09:35:00 20.5 C 15.12 g/m*3 20.5 C 0 km/h
693 24-07-2019 09:40:00 20.7 C 15.12 g/m*3 20.7 C 0 km/h
694 24-07-2019 09:45:00 20.9 C 15.12 g/m*3 20.9 C 0 km/h
695 24-07-2019 09:50:00 21.3 C 15.28 g/m*3 21.3 C 0 km/h
696 24-07-2019 09:55:00 21.6 C 15.17 g/m*3 21.6 C 0 km/h
697 24-07-2019 10:00:00 21.9 C 15.05 g/m*3 21.9 C 0 km/h
698 24-07-2019 10:05:00 22.3 C 15.6 g/m*3 22.3 C 0 km/h
699 24-07-2019 10:10:00 22.6 C 15.47 g/m*3 22.6 C 0 km/h
700 24-07-2019 10:15:00 22.8 C 15.24 g/m*3 22.8 C 0 km/h
Sensor: Nr:Datum:Temp:Abs-Feuchte:Windchill:Wind:
Aussen-T/F 701 24-07-2019 10:20:00 23.1 C 15.3 g/m*3 23.1 C 0 km/h
702 24-07-2019 10:25:00 23.6 C 15.53 g/m*3 23.6 C 0 km/h
703 24-07-2019 10:30:00 24 C 15.66 g/m*3 24 C 0 km/h
704 24-07-2019 10:35:00 24.3 C 15.71 g/m*3 24.3 C 0 km/h
705 24-07-2019 10:40:00 24.6 C 15.53 g/m*3 24.6 C 0 km/h
706 24-07-2019 10:45:00 24.9 C 15.34 g/m*3 24.9 C 0 km/h
707 24-07-2019 10:50:00 25.3 C 15.69 g/m*3 25.3 C 0 km/h
708 24-07-2019 10:55:00 25.6 C 15.95 g/m*3 25.6 C 0 km/h
709 24-07-2019 11:00:00 25.8 C 16.13 g/m*3 25.8 C 0 km/h
710 24-07-2019 11:05:00 26 C 15.58 g/m*3 26 C 0 km/h
711 24-07-2019 11:10:00 26.3 C 16.34 g/m*3 26.3 C 0 km/h
712 24-07-2019 11:15:00 26.6 C 16.36 g/m*3 26.6 C 0 km/h
713 24-07-2019 11:20:00 26.8 C 15.27 g/m*3 26.8 C 0 km/h
714 24-07-2019 11:25:00 27.1 C 15.53 g/m*3 27.1 C 0 km/h
715 24-07-2019 11:30:00 27.4 C 15.52 g/m*3 27.4 C 0 km/h
716 24-07-2019 11:35:00 27.9 C 15.69 g/m*3 27.9 C 0 km/h
717 24-07-2019 11:40:00 28.3 C 15.2 g/m*3 28.3 C 0 km/h
718 24-07-2019 11:45:00 28.6 C 15.18 g/m*3 28.6 C 0 km/h
719 24-07-2019 11:50:00 29 C 15.22 g/m*3 29 C 0 km/h
720 24-07-2019 11:55:00 29.4 C 15.56 g/m*3 29.4 C 0 km/h
721 24-07-2019 12:00:00 29.8 C 15.9 g/m*3 29.8 C 0 km/h
722 24-07-2019 12:05:00 30.3 C 14.79 g/m*3 30.3 C 0 km/h
723 24-07-2019 12:10:00 30.7 C 14.8 g/m*3 30.7 C 0 km/h
724 24-07-2019 12:15:00 31.2 C 14.23 g/m*3 31.2 C 0 km/h
725 24-07-2019 12:20:00 31.7 C 13.95 g/m*3 31.7 C 0 km/h
Sensor: Nr:Datum:Temp:Abs-Feuchte:Windchill:Wind:
Aussen-T/F 726 24-07-2019 12:25:00 32.1 C 14.59 g/m*3 32.1 C 0 km/h
727 24-07-2019 12:30:00 32.4 C 13.1 g/m*3 32.4 C 0 km/h
728 24-07-2019 12:35:00 32.8 C 13.03 g/m*3 32.8 C 11.3 km/h
729 24-07-2019 12:40:00 33 C 13.17 g/m*3 33 C 0 km/h
730 24-07-2019 12:45:00 33.3 C 13.74 g/m*3 33.3 C 6.4 km/h
731 24-07-2019 12:50:00 33.5 C 13.52 g/m*3 33.5 C 9.7 km/h
732 24-07-2019 12:55:00 33.7 C 13.3 g/m*3 33.7 C 8.1 km/h
733 24-07-2019 13:00:00 33.8 C 12.62 g/m*3 33.8 C 8.1 km/h
734 24-07-2019 13:05:00 33.9 C 11.57 g/m*3 33.9 C 8.1 km/h
735 24-07-2019 13:10:00 33.9 C 11.2 g/m*3 33.9 C 4.8 km/h
736 24-07-2019 13:15:00 33.9 C 11.57 g/m*3 33.9 C 6.4 km/h
737 24-07-2019 13:20:00 34 C 11.26 g/m*3 34 C 9.7 km/h
738 24-07-2019 13:25:00 34.1 C 10.94 g/m*3 34.1 C 11.3 km/h
739 24-07-2019 13:30:00 34.2 C 10.62 g/m*3 34.2 C 9.7 km/h
740 24-07-2019 13:35:00 34.3 C 11.05 g/m*3 34.3 C 4.8 km/h
741 24-07-2019 13:40:00 34.3 C 10.29 g/m*3 34.3 C 6.4 km/h
742 24-07-2019 13:45:00 34.4 C 10.34 g/m*3 34.4 C 8.1 km/h
743 24-07-2019 13:50:00 34.6 C 10.45 g/m*3 34.6 C 3.2 km/h
744 24-07-2019 13:55:00 34.7 C 10.12 g/m*3 34.7 C 4.8 km/h
745 24-07-2019 14:00:00 34.8 C 10.56 g/m*3 34.8 C 6.4 km/h
746 24-07-2019 14:05:00 34.8 C 10.17 g/m*3 34.8 C 6.4 km/h
747 24-07-2019 14:10:00 34.9 C 10.62 g/m*3 34.9 C 8.1 km/h
748 24-07-2019 14:15:00 35 C 10.67 g/m*3 35 C 4.8 km/h
749 24-07-2019 14:20:00 35.1 C 10.33 g/m*3 35.1 C 6.4 km/h
750 24-07-2019 14:25:00 35.3 C 10.84 g/m*3 35.3 C 6.4 km/h
Sensor: Nr:Datum:Temp:Abs-Feuchte:Windchill:Wind:
Aussen-T/F 751 24-07-2019 14:30:00 35.3 C 10.44 g/m*3 35.3 C 6.4 km/h
752 24-07-2019 14:35:00 35.5 C 10.55 g/m*3 35.5 C 4.8 km/h
753 24-07-2019 14:40:00 35.6 C 11.42 g/m*3 35.6 C 4.8 km/h
754 24-07-2019 14:45:00 35.8 C 11.13 g/m*3 35.8 C 4.8 km/h
755 24-07-2019 14:50:00 35.8 C 11.13 g/m*3 35.8 C 4.8 km/h
756 24-07-2019 14:55:00 35.9 C 11.6 g/m*3 35.9 C 11.3 km/h
757 24-07-2019 15:00:00 35.9 C 11.6 g/m*3 35.9 C 4.8 km/h
758 24-07-2019 15:05:00 36.1 C 12.56 g/m*3 36.1 C 6.4 km/h
759 24-07-2019 15:10:00 36.2 C 11.78 g/m*3 36.2 C 8.1 km/h
760 24-07-2019 15:15:00 36.3 C 11.42 g/m*3 36.3 C 9.7 km/h
761 24-07-2019 15:20:00 36.3 C 10.99 g/m*3 36.3 C 8.1 km/h
762 24-07-2019 15:25:00 36.4 C 10.63 g/m*3 36.4 C 3.2 km/h
763 24-07-2019 15:30:00 36.8 C 10.85 g/m*3 36.8 C 4.8 km/h
764 24-07-2019 15:35:00 37.2 C 10.19 g/m*3 37.2 C 4.8 km/h
765 24-07-2019 15:40:00 37.4 C 10.74 g/m*3 37.4 C 6.4 km/h
766 24-07-2019 15:45:00 37.9 C 11.93 g/m*3 37.9 C 4.8 km/h
767 24-07-2019 15:50:00 38.4 C 11.77 g/m*3 38.4 C 3.2 km/h
768 24-07-2019 15:55:00 38.8 C 12.01 g/m*3 38.8 C 8.1 km/h
769 24-07-2019 16:00:00 39.2 C 11.27 g/m*3 39.2 C 6.4 km/h
770 24-07-2019 16:05:00 39.3 C 10.84 g/m*3 39.3 C 6.4 km/h
771 24-07-2019 16:10:00 39.4 C 11.39 g/m*3 39.4 C 8.1 km/h
772 24-07-2019 16:15:00 39.4 C 12.38 g/m*3 39.4 C 11.3 km/h
773 24-07-2019 16:20:00 39.5 C 12.44 g/m*3 39.5 C 9.7 km/h
774 24-07-2019 16:25:00 39.7 C 12.06 g/m*3 39.7 C 6.4 km/h
775 24-07-2019 16:30:00 39.8 C 11.11 g/m*3 39.8 C 3.2 km/h
Sensor: Nr:Datum:Temp:Abs-Feuchte:Windchill:Wind:
Aussen-T/F 776 24-07-2019 16:35:00 39.7 C 11.06 g/m*3 39.7 C 6.4 km/h
777 24-07-2019 16:40:00 39.6 C 11 g/m*3 39.6 C 4.8 km/h
778 24-07-2019 16:45:00 39.7 C 11.56 g/m*3 39.7 C 3.2 km/h
779 24-07-2019 16:50:00 39.9 C 11.17 g/m*3 39.9 C 6.4 km/h
780 24-07-2019 16:55:00 39.9 C 12.19 g/m*3 39.9 C 4.8 km/h
781 24-07-2019 17:00:00 39.9 C 11.68 g/m*3 39.9 C 6.4 km/h
782 24-07-2019 17:05:00 40.1 C 13.85 g/m*3 40.1 C 4.8 km/h
783 24-07-2019 17:10:00 39.9 C 10.66 g/m*3 39.9 C 8.1 km/h
784 24-07-2019 17:15:00 39.9 C 11.68 g/m*3 39.9 C 4.8 km/h
785 24-07-2019 17:20:00 40 C 11.23 g/m*3 40 C 4.8 km/h
786 24-07-2019 17:25:00 39.9 C 11.17 g/m*3 39.9 C 8.1 km/h
787 24-07-2019 17:30:00 39.8 C 11.11 g/m*3 39.8 C 11.3 km/h
788 24-07-2019 17:35:00 39.5 C 11.45 g/m*3 39.5 C 9.7 km/h
789 24-07-2019 17:40:00 39.3 C 10.84 g/m*3 39.3 C 12.9 km/h
790 24-07-2019 17:45:00 39 C 11.16 g/m*3 39 C 14.5 km/h
791 24-07-2019 17:50:00 38.9 C 11.1 g/m*3 38.9 C 14.5 km/h
792 24-07-2019 17:55:00 39.1 C 11.71 g/m*3 39.1 C 8.1 km/h
793 24-07-2019 18:00:00 39.4 C 11.39 g/m*3 39.4 C 6.4 km/h
794 24-07-2019 18:05:00 39.6 C 12 g/m*3 39.6 C 4.8 km/h
795 24-07-2019 18:10:00 39.8 C 11.11 g/m*3 39.8 C 6.4 km/h
796 24-07-2019 18:15:00 39.8 C 11.11 g/m*3 39.8 C 11.3 km/h
797 24-07-2019 18:20:00 39.4 C 10.89 g/m*3 39.4 C 11.3 km/h
798 24-07-2019 18:25:00 39.2 C 11.27 g/m*3 39.2 C 12.9 km/h
799 24-07-2019 18:30:00 39.2 C 10.78 g/m*3 39.2 C 11.3 km/h
800 24-07-2019 18:35:00 39.2 C 11.27 g/m*3 39.2 C 9.7 km/h
Sensor: Nr:Datum:Temp:Abs-Feuchte:Windchill:Wind:
Aussen-T/F 801 24-07-2019 18:40:00 39.1 C 11.22 g/m*3 39.1 C 8.1 km/h
802 24-07-2019 18:45:00 39.1 C 10.73 g/m*3 39.1 C 8.1 km/h
803 24-07-2019 18:50:00 39.1 C 11.22 g/m*3 39.1 C 11.3 km/h
804 24-07-2019 18:55:00 38.9 C 11.1 g/m*3 38.9 C 11.3 km/h
805 24-07-2019 19:00:00 38.8 C 10.57 g/m*3 38.8 C 11.3 km/h
806 24-07-2019 19:05:00 38.7 C 10.99 g/m*3 38.7 C 11.3 km/h
807 24-07-2019 19:10:00 38.6 C 12.84 g/m*3 38.6 C 9.7 km/h
808 24-07-2019 19:15:00 38.7 C 12.43 g/m*3 38.7 C 4.8 km/h
809 24-07-2019 19:20:00 38.8 C 11.05 g/m*3 38.8 C 8.1 km/h
810 24-07-2019 19:25:00 38.8 C 13.45 g/m*3 38.8 C 6.4 km/h
811 24-07-2019 19:30:00 38.7 C 13.86 g/m*3 38.7 C 1.6 km/h
812 24-07-2019 19:35:00 38.7 C 14.34 g/m*3 38.7 C 1.6 km/h
813 24-07-2019 19:40:00 38.4 C 14.59 g/m*3 38.4 C 0 km/h
814 24-07-2019 19:45:00 38.2 C 13.98 g/m*3 38.2 C 0 km/h
815 24-07-2019 19:50:00 37.9 C 14.23 g/m*3 37.9 C 1.6 km/h
816 24-07-2019 19:55:00 37.6 C 14.01 g/m*3 37.6 C 1.6 km/h
817 24-07-2019 20:00:00 37.1 C 14.98 g/m*3 37.1 C 0 km/h
818 24-07-2019 20:05:00 36.4 C 14.03 g/m*3 36.4 C 0 km/h
819 24-07-2019 20:10:00 35.6 C 13.87 g/m*3 35.6 C 0 km/h
820 24-07-2019 20:15:00 34.8 C 13.69 g/m*3 34.8 C 1.6 km/h
821 24-07-2019 20:20:00 33.9 C 14.18 g/m*3 33.9 C 0 km/h
822 24-07-2019 20:25:00 33.1 C 14.31 g/m*3 33.1 C 0 km/h
823 24-07-2019 20:30:00 32.4 C 14.48 g/m*3 32.4 C 0 km/h
824 24-07-2019 20:35:00 31.7 C 14.62 g/m*3 31.7 C 1.6 km/h
825 24-07-2019 20:40:00 31.2 C 14.23 g/m*3 31.2 C 0 km/h
Sensor: Nr:Datum:Temp:Abs-Feuchte:Windchill:Wind:
Aussen-T/F 826 24-07-2019 20:45:00 30.8 C 14.25 g/m*3 30.8 C 0 km/h
827 24-07-2019 20:50:00 30.4 C 13.94 g/m*3 30.4 C 1.6 km/h
828 24-07-2019 20:55:00 30.2 C 14.1 g/m*3 30.2 C 0 km/h
829 24-07-2019 21:00:00 29.9 C 14.18 g/m*3 29.9 C 1.6 km/h
830 24-07-2019 21:05:00 29.7 C 14.02 g/m*3 29.7 C 0 km/h
831 24-07-2019 21:10:00 29.4 C 14.09 g/m*3 29.4 C 0 km/h
832 24-07-2019 21:15:00 29.2 C 13.94 g/m*3 29.2 C 0 km/h
833 24-07-2019 21:20:00 29 C 14.07 g/m*3 29 C 1.6 km/h
834 24-07-2019 21:25:00 28.8 C 13.92 g/m*3 28.8 C 1.6 km/h
835 24-07-2019 21:30:00 28.7 C 13.85 g/m*3 28.7 C 1.6 km/h
836 24-07-2019 21:35:00 28.5 C 13.97 g/m*3 28.5 C 1.6 km/h
837 24-07-2019 21:40:00 28.3 C 13.55 g/m*3 28.3 C 1.6 km/h
838 24-07-2019 21:45:00 28.2 C 13.75 g/m*3 28.2 C 1.6 km/h
839 24-07-2019 21:50:00 28.1 C 13.67 g/m*3 28.1 C 1.6 km/h
840 24-07-2019 21:55:00 28.1 C 13.67 g/m*3 28.1 C 1.6 km/h
841 24-07-2019 22:00:00 27.9 C 13.52 g/m*3 27.9 C 1.6 km/h
842 24-07-2019 22:05:00 27.8 C 13.72 g/m*3 27.8 C 1.6 km/h
843 24-07-2019 22:10:00 27.8 C 13.72 g/m*3 27.8 C 1.6 km/h
844 24-07-2019 22:15:00 27.7 C 13.64 g/m*3 27.7 C 0 km/h
845 24-07-2019 22:20:00 27.6 C 13.57 g/m*3 27.6 C 1.6 km/h
846 24-07-2019 22:25:00 27.4 C 13.68 g/m*3 27.4 C 1.6 km/h
847 24-07-2019 22:30:00 27.3 C 13.61 g/m*3 27.3 C 0 km/h
848 24-07-2019 22:35:00 27.2 C 13.79 g/m*3 27.2 C 0 km/h
849 24-07-2019 22:40:00 27.1 C 13.72 g/m*3 27.1 C 0 km/h
850 24-07-2019 22:45:00 27 C 13.64 g/m*3 27 C 0 km/h
Sensor: Nr:Datum:Temp:Abs-Feuchte:Windchill:Wind:
Aussen-T/F 851 24-07-2019 22:50:00 26.9 C 13.56 g/m*3 26.9 C 0 km/h
852 24-07-2019 22:55:00 26.8 C 13.74 g/m*3 26.8 C 0 km/h
853 24-07-2019 23:00:00 26.8 C 13.74 g/m*3 26.8 C 0 km/h
854 24-07-2019 23:05:00 26.6 C 13.84 g/m*3 26.6 C 0 km/h
855 24-07-2019 23:10:00 26.4 C 13.94 g/m*3 26.4 C 0 km/h
856 24-07-2019 23:15:00 26.2 C 14.03 g/m*3 26.2 C 0 km/h
857 24-07-2019 23:20:00 25.9 C 14.04 g/m*3 25.9 C 0 km/h
858 24-07-2019 23:25:00 25.7 C 13.89 g/m*3 25.7 C 0 km/h
859 24-07-2019 23:30:00 25.4 C 13.65 g/m*3 25.4 C 0 km/h
860 24-07-2019 23:35:00 25.2 C 13.5 g/m*3 25.2 C 0 km/h
861 24-07-2019 23:40:00 25 C 13.81 g/m*3 25 C 0 km/h
862 24-07-2019 23:45:00 24.8 C 13.88 g/m*3 24.8 C 0 km/h
863 24-07-2019 23:50:00 24.6 C 13.95 g/m*3 24.6 C 0 km/h
864 24-07-2019 23:55:00 24.4 C 14.02 g/m*3 24.4 C 0 km/h
865 25-07-2019 00:00:00 24.3 C 13.72 g/m*3 24.3 C 0 km/h
866 25-07-2019 00:05:00 24 C 13.27 g/m*3 24 C 0 km/h
867 25-07-2019 00:10:00 23.9 C 13.63 g/m*3 23.9 C 0 km/h
868 25-07-2019 00:15:00 23.9 C 13.63 g/m*3 23.9 C 0 km/h
869 25-07-2019 00:20:00 23.8 C 13.55 g/m*3 23.8 C 0 km/h
870 25-07-2019 00:25:00 23.7 C 13.26 g/m*3 23.7 C 0 km/h
871 25-07-2019 00:30:00 23.6 C 13.19 g/m*3 23.6 C 0 km/h
872 25-07-2019 00:35:00 23.6 C 13.61 g/m*3 23.6 C 0 km/h
873 25-07-2019 00:40:00 23.4 C 13.46 g/m*3 23.4 C 0 km/h
874 25-07-2019 00:45:00 23.3 C 13.17 g/m*3 23.3 C 0 km/h
875 25-07-2019 00:50:00 23.4 C 13.46 g/m*3 23.4 C 0 km/h
Sensor: Nr:Datum:Temp:Abs-Feuchte:Windchill:Wind:
Aussen-T/F 876 25-07-2019 00:55:00 23.3 C 13.8 g/m*3 23.3 C 0 km/h
877 25-07-2019 01:00:00 23.2 C 13.51 g/m*3 23.2 C 0 km/h
878 25-07-2019 01:05:00 23.1 C 13.44 g/m*3 23.1 C 0 km/h
879 25-07-2019 01:10:00 22.9 C 13.49 g/m*3 22.9 C 0 km/h
880 25-07-2019 01:15:00 22.7 C 13.33 g/m*3 22.7 C 0 km/h
881 25-07-2019 01:20:00 22.6 C 13.46 g/m*3 22.6 C 0 km/h
882 25-07-2019 01:25:00 22.4 C 13.11 g/m*3 22.4 C 0 km/h
883 25-07-2019 01:30:00 22.3 C 13.23 g/m*3 22.3 C 0 km/h
884 25-07-2019 01:35:00 22.3 C 12.83 g/m*3 22.3 C 0 km/h
885 25-07-2019 01:40:00 22.3 C 13.43 g/m*3 22.3 C 0 km/h
886 25-07-2019 01:45:00 22.3 C 13.43 g/m*3 22.3 C 0 km/h
887 25-07-2019 01:50:00 22.2 C 13.35 g/m*3 22.2 C 0 km/h
888 25-07-2019 01:55:00 22.1 C 13.27 g/m*3 22.1 C 0 km/h
889 25-07-2019 02:00:00 22 C 13.39 g/m*3 22 C 0 km/h
890 25-07-2019 02:05:00 21.9 C 13.51 g/m*3 21.9 C 0 km/h
891 25-07-2019 02:10:00 21.8 C 13.43 g/m*3 21.8 C 0 km/h
892 25-07-2019 02:15:00 21.7 C 13.35 g/m*3 21.7 C 0 km/h
893 25-07-2019 02:20:00 21.7 C 13.35 g/m*3 21.7 C 0 km/h
894 25-07-2019 02:25:00 21.7 C 13.54 g/m*3 21.7 C 0 km/h
895 25-07-2019 02:30:00 21.6 C 13.28 g/m*3 21.6 C 0 km/h
896 25-07-2019 02:35:00 21.5 C 13.2 g/m*3 21.5 C 0 km/h
897 25-07-2019 02:40:00 21.4 C 13.31 g/m*3 21.4 C 0 km/h
898 25-07-2019 02:45:00 21.4 C 13.31 g/m*3 21.4 C 0 km/h
899 25-07-2019 02:50:00 21.3 C 13.42 g/m*3 21.3 C 0 km/h
900 25-07-2019 02:55:00 21.2 C 13.34 g/m*3 21.2 C 0 km/h
Sensor: Nr:Datum:Temp:Abs-Feuchte:Windchill:Wind:
Aussen-T/F 901 25-07-2019 03:00:00 21.2 C 13.34 g/m*3 21.2 C 0 km/h
902 25-07-2019 03:05:00 21.2 C 13.53 g/m*3 21.2 C 0 km/h
903 25-07-2019 03:10:00 21.2 C 13.53 g/m*3 21.2 C 0 km/h
904 25-07-2019 03:15:00 21.1 C 13.45 g/m*3 21.1 C 0 km/h
905 25-07-2019 03:20:00 20.9 C 13.48 g/m*3 20.9 C 0 km/h
906 25-07-2019 03:25:00 20.8 C 13.4 g/m*3 20.8 C 0 km/h
907 25-07-2019 03:30:00 20.8 C 13.4 g/m*3 20.8 C 0 km/h
908 25-07-2019 03:35:00 20.8 C 13.4 g/m*3 20.8 C 0 km/h
909 25-07-2019 03:40:00 20.8 C 13.4 g/m*3 20.8 C 0 km/h
910 25-07-2019 03:45:00 20.7 C 13.5 g/m*3 20.7 C 0 km/h
911 25-07-2019 03:50:00 20.6 C 13.42 g/m*3 20.6 C 0 km/h
912 25-07-2019 03:55:00 20.6 C 13.6 g/m*3 20.6 C 0 km/h
913 25-07-2019 04:00:00 20.4 C 13.44 g/m*3 20.4 C 0 km/h
914 25-07-2019 04:05:00 20.3 C 13.37 g/m*3 20.3 C 0 km/h
915 25-07-2019 04:10:00 20.2 C 13.46 g/m*3 20.2 C 0 km/h
916 25-07-2019 04:15:00 20.1 C 13.39 g/m*3 20.1 C 0 km/h
917 25-07-2019 04:20:00 19.9 C 13.4 g/m*3 19.9 C 0 km/h
918 25-07-2019 04:25:00 20.1 C 13.56 g/m*3 20.1 C 0 km/h
919 25-07-2019 04:30:00 20.1 C 13.56 g/m*3 20.1 C 0 km/h
920 25-07-2019 04:35:00 20.1 C 13.56 g/m*3 20.1 C 0 km/h
921 25-07-2019 04:40:00 20.1 C 13.56 g/m*3 20.1 C 0 km/h
922 25-07-2019 04:45:00 19.9 C 13.57 g/m*3 19.9 C 0 km/h
923 25-07-2019 04:50:00 19.9 C 13.57 g/m*3 19.9 C 0 km/h
924 25-07-2019 04:55:00 19.8 C 13.49 g/m*3 19.8 C 0 km/h
925 25-07-2019 05:00:00 19.7 C 13.41 g/m*3 19.7 C 0 km/h
Sensor: Nr:Datum:Temp:Abs-Feuchte:Windchill:Wind:
Aussen-T/F 926 25-07-2019 05:05:00 19.6 C 13.34 g/m*3 19.6 C 0 km/h
927 25-07-2019 05:10:00 19.6 C 13.51 g/m*3 19.6 C 0 km/h
928 25-07-2019 05:15:00 19.4 C 13.35 g/m*3 19.4 C 0 km/h
929 25-07-2019 05:20:00 19.4 C 13.35 g/m*3 19.4 C 0 km/h
930 25-07-2019 05:25:00 19.3 C 13.27 g/m*3 19.3 C 0 km/h
931 25-07-2019 05:30:00 19.3 C 13.27 g/m*3 19.3 C 0 km/h
932 25-07-2019 05:35:00 19.3 C 13.27 g/m*3 19.3 C 0 km/h
933 25-07-2019 05:40:00 19.2 C 13.19 g/m*3 19.2 C 0 km/h
934 25-07-2019 05:45:00 19.2 C 13.19 g/m*3 19.2 C 0 km/h
935 25-07-2019 05:50:00 19.2 C 13.36 g/m*3 19.2 C 0 km/h
936 25-07-2019 05:55:00 19.1 C 13.28 g/m*3 19.1 C 0 km/h
937 25-07-2019 06:00:00 19.1 C 13.44 g/m*3 19.1 C 0 km/h
938 25-07-2019 06:05:00 19.1 C 13.44 g/m*3 19.1 C 0 km/h
939 25-07-2019 06:10:00 19.1 C 13.44 g/m*3 19.1 C 0 km/h
940 25-07-2019 06:15:00 19.2 C 13.52 g/m*3 19.2 C 0 km/h
941 25-07-2019 06:20:00 19.2 C 13.52 g/m*3 19.2 C 0 km/h
942 25-07-2019 06:25:00 19.1 C 13.44 g/m*3 19.1 C 0 km/h
943 25-07-2019 06:30:00 19.2 C 13.52 g/m*3 19.2 C 0 km/h
944 25-07-2019 06:35:00 19.2 C 13.52 g/m*3 19.2 C 0 km/h
945 25-07-2019 06:40:00 19.2 C 13.52 g/m*3 19.2 C 0 km/h
946 25-07-2019 06:45:00 19.3 C 13.77 g/m*3 19.3 C 0 km/h
947 25-07-2019 06:50:00 19.3 C 13.77 g/m*3 19.3 C 0 km/h
948 25-07-2019 06:55:00 19.3 C 13.77 g/m*3 19.3 C 0 km/h
949 25-07-2019 07:00:00 19.3 C 13.77 g/m*3 19.3 C 0 km/h
950 25-07-2019 07:05:00 19.3 C 13.77 g/m*3 19.3 C 0 km/h
Sensor: Nr:Datum:Temp:Abs-Feuchte:Windchill:Wind:
Aussen-T/F 951 25-07-2019 07:10:00 19.4 C 14.01 g/m*3 19.4 C 0 km/h
952 25-07-2019 07:15:00 19.4 C 14.01 g/m*3 19.4 C 0 km/h
953 25-07-2019 07:20:00 19.4 C 14.01 g/m*3 19.4 C 0 km/h
954 25-07-2019 07:25:00 19.5 C 14.1 g/m*3 19.5 C 0 km/h
955 25-07-2019 07:30:00 19.6 C 14.18 g/m*3 19.6 C 0 km/h
956 25-07-2019 07:35:00 19.6 C 14.18 g/m*3 19.6 C 0 km/h
957 25-07-2019 07:40:00 19.7 C 14.26 g/m*3 19.7 C 0 km/h
958 25-07-2019 07:45:00 19.8 C 14.35 g/m*3 19.8 C 0 km/h
959 25-07-2019 07:50:00 19.8 C 14.35 g/m*3 19.8 C 0 km/h
960 25-07-2019 07:55:00 19.9 C 14.43 g/m*3 19.9 C 0 km/h
961 25-07-2019 08:00:00 20 C 14.34 g/m*3 20 C 0 km/h
962 25-07-2019 08:05:00 20.1 C 14.6 g/m*3 20.1 C 0 km/h
963 25-07-2019 08:10:00 20.2 C 14.51 g/m*3 20.2 C 0 km/h
964 25-07-2019 08:15:00 20.3 C 14.42 g/m*3 20.3 C 0 km/h
965 25-07-2019 08:20:00 20.5 C 14.77 g/m*3 20.5 C 0 km/h
966 25-07-2019 08:25:00 20.7 C 14.94 g/m*3 20.7 C 0 km/h
967 25-07-2019 08:30:00 20.8 C 15.03 g/m*3 20.8 C 0 km/h
968 25-07-2019 08:35:00 20.9 C 14.93 g/m*3 20.9 C 0 km/h
969 25-07-2019 08:40:00 21.1 C 15.29 g/m*3 21.1 C 0 km/h
970 25-07-2019 08:45:00 21.2 C 15.38 g/m*3 21.2 C 0 km/h
971 25-07-2019 08:50:00 21.4 C 15.37 g/m*3 21.4 C 0 km/h
972 25-07-2019 08:55:00 21.6 C 15.55 g/m*3 21.6 C 0 km/h
973 25-07-2019 09:00:00 21.7 C 15.45 g/m*3 21.7 C 0 km/h
974 25-07-2019 09:05:00 21.8 C 15.16 g/m*3 21.8 C 0 km/h
975 25-07-2019 09:10:00 22.1 C 15.81 g/m*3 22.1 C 0 km/h
Sensor: Nr:Datum:Temp:Abs-Feuchte:Windchill:Wind:
Aussen-T/F 976 25-07-2019 09:15:00 22.2 C 15.9 g/m*3 22.2 C 0 km/h
977 25-07-2019 09:20:00 22.3 C 15.4 g/m*3 22.3 C 0 km/h
978 25-07-2019 09:25:00 22.6 C 15.67 g/m*3 22.6 C 0 km/h
979 25-07-2019 09:30:00 22.8 C 15.65 g/m*3 22.8 C 0 km/h
980 25-07-2019 09:35:00 23.1 C 15.92 g/m*3 23.1 C 0 km/h
981 25-07-2019 09:40:00 23.3 C 15.68 g/m*3 23.3 C 0 km/h
982 25-07-2019 09:45:00 23.5 C 15.65 g/m*3 23.5 C 0 km/h
983 25-07-2019 09:50:00 23.7 C 15.4 g/m*3 23.7 C 0 km/h
984 25-07-2019 09:55:00 24 C 15.23 g/m*3 24 C 0 km/h
985 25-07-2019 10:00:00 24.3 C 15.49 g/m*3 24.3 C 0 km/h
986 25-07-2019 10:05:00 24.6 C 15.98 g/m*3 24.6 C 0 km/h
987 25-07-2019 10:10:00 24.9 C 16.02 g/m*3 24.9 C 0 km/h
988 25-07-2019 10:15:00 25.1 C 15.97 g/m*3 25.1 C 0 km/h
989 25-07-2019 10:20:00 25.3 C 15.92 g/m*3 25.3 C 0 km/h
990 25-07-2019 10:25:00 25.6 C 16.43 g/m*3 25.6 C 0 km/h
991 25-07-2019 10:30:00 25.9 C 16.22 g/m*3 25.9 C 0 km/h
992 25-07-2019 10:35:00 26.2 C 16 g/m*3 26.2 C 0 km/h
993 25-07-2019 10:40:00 26.6 C 15.86 g/m*3 26.6 C 0 km/h
994 25-07-2019 10:45:00 26.9 C 15.87 g/m*3 26.9 C 0 km/h
995 25-07-2019 10:50:00 27.2 C 16.39 g/m*3 27.2 C 0 km/h
996 25-07-2019 10:55:00 27.5 C 16.67 g/m*3 27.5 C 0 km/h
997 25-07-2019 11:00:00 27.8 C 16.41 g/m*3 27.8 C 0 km/h
998 25-07-2019 11:05:00 28.2 C 16.5 g/m*3 28.2 C 0 km/h
999 25-07-2019 11:10:00 28.6 C 15.74 g/m*3 28.6 C 1.6 km/h
1000 25-07-2019 11:15:00 29.1 C 16.75 g/m*3 29.1 C 0 km/h
Sensor: Nr:Datum:Temp:Abs-Feuchte:Windchill:Wind:
Aussen-T/F 1001 25-07-2019 11:20:00 29.4 C 15.85 g/m*3 29.4 C 0 km/h
1002 25-07-2019 11:25:00 29.8 C 16.5 g/m*3 29.8 C 0 km/h
1003 25-07-2019 11:30:00 30.1 C 16.46 g/m*3 30.1 C 3.2 km/h
1004 25-07-2019 11:35:00 30.5 C 16.51 g/m*3 30.5 C 3.2 km/h
1005 25-07-2019 11:40:00 30.8 C 15.83 g/m*3 30.8 C 3.2 km/h
1006 25-07-2019 11:45:00 31.2 C 15.53 g/m*3 31.2 C 1.6 km/h
1007 25-07-2019 11:50:00 31.6 C 15.53 g/m*3 31.6 C 3.2 km/h
1008 25-07-2019 11:55:00 32.1 C 14.93 g/m*3 32.1 C 4.8 km/h
1009 25-07-2019 12:00:00 32.6 C 14.29 g/m*3 32.6 C 4.8 km/h
1010 25-07-2019 12:05:00 33 C 14.24 g/m*3 33 C 3.2 km/h
1011 25-07-2019 12:10:00 33.4 C 13.82 g/m*3 33.4 C 4.8 km/h
1012 25-07-2019 12:15:00 33.8 C 14.11 g/m*3 33.8 C 1.6 km/h
1013 25-07-2019 12:20:00 34.3 C 13.34 g/m*3 34.3 C 11.3 km/h
1014 25-07-2019 12:25:00 34.7 C 13.62 g/m*3 34.7 C 8.1 km/h
1015 25-07-2019 12:30:00 34.9 C 13.76 g/m*3 34.9 C 9.7 km/h
1016 25-07-2019 12:35:00 35.2 C 13.18 g/m*3 35.2 C 11.3 km/h
1017 25-07-2019 12:40:00 35.3 C 13.25 g/m*3 35.3 C 9.7 km/h
1018 25-07-2019 12:45:00 35.5 C 13.39 g/m*3 35.5 C 9.7 km/h
1019 25-07-2019 12:50:00 35.7 C 13.53 g/m*3 35.7 C 9.7 km/h
1020 25-07-2019 12:55:00 35.9 C 12.84 g/m*3 35.9 C 12.9 km/h
1021 25-07-2019 13:00:00 36 C 13.32 g/m*3 36 C 12.9 km/h
1022 25-07-2019 13:05:00 36.1 C 13.39 g/m*3 36.1 C 11.3 km/h
1023 25-07-2019 13:10:00 36.2 C 13.46 g/m*3 36.2 C 11.3 km/h
1024 25-07-2019 13:15:00 36.3 C 13.53 g/m*3 36.3 C 8.1 km/h
1025 25-07-2019 13:20:00 36.3 C 12.69 g/m*3 36.3 C 8.1 km/h
Sensor: Nr:Datum:Temp:Abs-Feuchte:Windchill:Wind:
Aussen-T/F 1026 25-07-2019 13:25:00 36.4 C 13.18 g/m*3 36.4 C 6.4 km/h
1027 25-07-2019 13:30:00 36.4 C 13.18 g/m*3 36.4 C 8.1 km/h
1028 25-07-2019 13:35:00 36.6 C 13.31 g/m*3 36.6 C 8.1 km/h
1029 25-07-2019 13:40:00 36.7 C 13.38 g/m*3 36.7 C 9.7 km/h
1030 25-07-2019 13:45:00 36.8 C 13.02 g/m*3 36.8 C 8.1 km/h
1031 25-07-2019 13:50:00 36.9 C 13.52 g/m*3 36.9 C 8.1 km/h
1032 25-07-2019 13:55:00 36.9 C 12.65 g/m*3 36.9 C 8.1 km/h
1033 25-07-2019 14:00:00 36.9 C 13.08 g/m*3 36.9 C 8.1 km/h
1034 25-07-2019 14:05:00 37.1 C 13.22 g/m*3 37.1 C 4.8 km/h
1035 25-07-2019 14:10:00 37.2 C 12.84 g/m*3 37.2 C 14.5 km/h
1036 25-07-2019 14:15:00 37.3 C 13.35 g/m*3 37.3 C 14.5 km/h
1037 25-07-2019 14:20:00 37.4 C 12.97 g/m*3 37.4 C 8.1 km/h
1038 25-07-2019 14:25:00 37.4 C 12.08 g/m*3 37.4 C 6.4 km/h
1039 25-07-2019 14:30:00 37.4 C 13.42 g/m*3 37.4 C 4.8 km/h
1040 25-07-2019 14:35:00 37.6 C 12.66 g/m*3 37.6 C 6.4 km/h
1041 25-07-2019 14:40:00 37.6 C 13.11 g/m*3 37.6 C 6.4 km/h
1042 25-07-2019 14:45:00 37.7 C 12.27 g/m*3 37.7 C 6.4 km/h
1043 25-07-2019 14:50:00 37.7 C 13.17 g/m*3 37.7 C 6.4 km/h
1044 25-07-2019 14:55:00 37.8 C 12.79 g/m*3 37.8 C 6.4 km/h
1045 25-07-2019 15:00:00 37.9 C 12.85 g/m*3 37.9 C 8.1 km/h
1046 25-07-2019 15:05:00 38.2 C 13.05 g/m*3 38.2 C 6.4 km/h
1047 25-07-2019 15:10:00 38.3 C 13.11 g/m*3 38.3 C 4.8 km/h
1048 25-07-2019 15:15:00 38.5 C 12.77 g/m*3 38.5 C 12.9 km/h
1049 25-07-2019 15:20:00 38.7 C 12.43 g/m*3 38.7 C 9.7 km/h
1050 25-07-2019 15:25:00 38.8 C 12.49 g/m*3 38.8 C 6.4 km/h
Sensor: Nr:Datum:Temp:Abs-Feuchte:Windchill:Wind:
Aussen-T/F 1051 25-07-2019 15:30:00 38.9 C 12.55 g/m*3 38.9 C 12.9 km/h
1052 25-07-2019 15:35:00 38.7 C 12.43 g/m*3 38.7 C 9.7 km/h
1053 25-07-2019 15:40:00 38.8 C 12.49 g/m*3 38.8 C 11.3 km/h
1054 25-07-2019 15:45:00 39.2 C 12.25 g/m*3 39.2 C 11.3 km/h
1055 25-07-2019 15:50:00 39.6 C 13 g/m*3 39.6 C 6.4 km/h
1056 25-07-2019 15:55:00 39.9 C 12.19 g/m*3 39.9 C 8.1 km/h
1057 25-07-2019 16:00:00 40.1 C 11.8 g/m*3 40.1 C 6.4 km/h
1058 25-07-2019 16:05:00 40.2 C 12.37 g/m*3 40.2 C 11.3 km/h
1059 25-07-2019 16:10:00 40.2 C 12.89 g/m*3 40.2 C 8.1 km/h
1060 25-07-2019 16:15:00 40.3 C 11.91 g/m*3 40.3 C 9.7 km/h
1061 25-07-2019 16:20:00 40.4 C 12.49 g/m*3 40.4 C 11.3 km/h
1062 25-07-2019 16:25:00 40.4 C 13.01 g/m*3 40.4 C 11.3 km/h
1063 25-07-2019 16:30:00 40.4 C 11.97 g/m*3 40.4 C 17.7 km/h
1064 25-07-2019 16:35:00 40.3 C 11.91 g/m*3 40.3 C 17.7 km/h
1065 25-07-2019 16:40:00 40 C 11.74 g/m*3 40 C 12.9 km/h
1066 25-07-2019 16:45:00 39.9 C 11.68 g/m*3 39.9 C 16.1 km/h
1067 25-07-2019 16:50:00 39.9 C 12.69 g/m*3 39.9 C 8.1 km/h
1068 25-07-2019 16:55:00 39.7 C 11.56 g/m*3 39.7 C 12.9 km/h
1069 25-07-2019 17:00:00 39.8 C 12.12 g/m*3 39.8 C 9.7 km/h
1070 25-07-2019 17:05:00 39.9 C 12.19 g/m*3 39.9 C 11.3 km/h
1071 25-07-2019 17:10:00 40.3 C 11.91 g/m*3 40.3 C 11.3 km/h
1072 25-07-2019 17:15:00 40.3 C 11.4 g/m*3 40.3 C 12.9 km/h
1073 25-07-2019 17:20:00 40.1 C 11.28 g/m*3 40.1 C 14.5 km/h
1074 25-07-2019 17:25:00 39.9 C 11.17 g/m*3 39.9 C 17.7 km/h
1075 25-07-2019 17:30:00 39.6 C 11 g/m*3 39.6 C 20.9 km/h
Sensor: Nr:Datum:Temp:Abs-Feuchte:Windchill:Wind:
Aussen-T/F 1076 25-07-2019 17:35:00 39.5 C 10.95 g/m*3 39.5 C 20.9 km/h
1077 25-07-2019 17:40:00 39.5 C 10.95 g/m*3 39.5 C 9.7 km/h
1078 25-07-2019 17:45:00 39.5 C 10.95 g/m*3 39.5 C 14.5 km/h
1079 25-07-2019 17:50:00 39.6 C 11.5 g/m*3 39.6 C 9.7 km/h
1080 25-07-2019 17:55:00 39.7 C 11.56 g/m*3 39.7 C 6.4 km/h
1081 25-07-2019 18:00:00 39.6 C 11.5 g/m*3 39.6 C 9.7 km/h
1082 25-07-2019 18:05:00 39.4 C 11.39 g/m*3 39.4 C 8.1 km/h
1083 25-07-2019 18:10:00 39.4 C 10.89 g/m*3 39.4 C 9.7 km/h
1084 25-07-2019 18:15:00 39.4 C 11.39 g/m*3 39.4 C 8.1 km/h
1085 25-07-2019 18:20:00 39.3 C 10.84 g/m*3 39.3 C 17.7 km/h
1086 25-07-2019 18:25:00 39.3 C 11.33 g/m*3 39.3 C 9.7 km/h
1087 25-07-2019 18:30:00 39.2 C 11.27 g/m*3 39.2 C 9.7 km/h
1088 25-07-2019 18:35:00 39.1 C 11.22 g/m*3 39.1 C 8.1 km/h
1089 25-07-2019 18:40:00 38.8 C 11.05 g/m*3 38.8 C 12.9 km/h
1090 25-07-2019 18:45:00 38.6 C 11.41 g/m*3 38.6 C 8.1 km/h
1091 25-07-2019 18:50:00 38.6 C 11.41 g/m*3 38.6 C 11.3 km/h
1092 25-07-2019 18:55:00 38.4 C 13.65 g/m*3 38.4 C 8.1 km/h
1093 25-07-2019 19:00:00 38.3 C 11.71 g/m*3 38.3 C 8.1 km/h
1094 25-07-2019 19:05:00 38.2 C 14.45 g/m*3 38.2 C 1.6 km/h
1095 25-07-2019 19:10:00 38 C 12.92 g/m*3 38 C 9.7 km/h
1096 25-07-2019 19:15:00 37.8 C 15.07 g/m*3 37.8 C 1.6 km/h
1097 25-07-2019 19:20:00 37.4 C 14.32 g/m*3 37.4 C 0 km/h
1098 25-07-2019 19:25:00 37 C 14.46 g/m*3 37 C 0 km/h
1099 25-07-2019 19:30:00 36.6 C 14.17 g/m*3 36.6 C 0 km/h
1100 25-07-2019 19:35:00 36.2 C 14.72 g/m*3 36.2 C 1.6 km/h
Sensor: Nr:Datum:Temp:Abs-Feuchte:Windchill:Wind:
Aussen-T/F 1101 25-07-2019 19:40:00 35.7 C 14.76 g/m*3 35.7 C 0 km/h
1102 25-07-2019 19:45:00 35.3 C 15.66 g/m*3 35.3 C 0 km/h
1103 25-07-2019 19:50:00 34.9 C 14.94 g/m*3 34.9 C 0 km/h
1104 25-07-2019 19:55:00 34.6 C 14.71 g/m*3 34.6 C 0 km/h
1105 25-07-2019 20:00:00 34.3 C 15.63 g/m*3 34.3 C 0 km/h
1106 25-07-2019 20:05:00 33.9 C 15.3 g/m*3 33.9 C 0 km/h
1107 25-07-2019 20:10:00 33.7 C 14.77 g/m*3 33.7 C 0 km/h
1108 25-07-2019 20:15:00 33.4 C 14.54 g/m*3 33.4 C 0 km/h
1109 25-07-2019 20:20:00 33.2 C 15.11 g/m*3 33.2 C 0 km/h
1110 25-07-2019 20:25:00 32.9 C 14.52 g/m*3 32.9 C 0 km/h
1111 25-07-2019 20:30:00 32.7 C 14.72 g/m*3 32.7 C 0 km/h
1112 25-07-2019 20:35:00 32.4 C 14.48 g/m*3 32.4 C 0 km/h
1113 25-07-2019 20:40:00 32.2 C 14.67 g/m*3 32.2 C 0 km/h
1114 25-07-2019 20:45:00 31.9 C 14.44 g/m*3 31.9 C 0 km/h
1115 25-07-2019 20:50:00 31.7 C 14.62 g/m*3 31.7 C 0 km/h
1116 25-07-2019 20:55:00 31.5 C 14.13 g/m*3 31.5 C 0 km/h
1117 25-07-2019 21:00:00 31.3 C 14.31 g/m*3 31.3 C 0 km/h
1118 25-07-2019 21:05:00 31.1 C 14.16 g/m*3 31.1 C 1.6 km/h
1119 25-07-2019 21:10:00 30.9 C 14.32 g/m*3 30.9 C 1.6 km/h
1120 25-07-2019 21:15:00 30.7 C 13.86 g/m*3 30.7 C 1.6 km/h
1121 25-07-2019 21:20:00 30.5 C 13.71 g/m*3 30.5 C 1.6 km/h
1122 25-07-2019 21:25:00 30.3 C 13.87 g/m*3 30.3 C 1.6 km/h
1123 25-07-2019 21:30:00 30.2 C 13.79 g/m*3 30.2 C 1.6 km/h
1124 25-07-2019 21:35:00 30.1 C 13.72 g/m*3 30.1 C 1.6 km/h
1125 25-07-2019 21:40:00 29.9 C 13.57 g/m*3 29.9 C 1.6 km/h
Sensor: Nr:Datum:Temp:Abs-Feuchte:Windchill:Wind:
Aussen-T/F 1126 25-07-2019 21:45:00 29.8 C 13.5 g/m*3 29.8 C 1.6 km/h
1127 25-07-2019 21:50:00 29.7 C 13.43 g/m*3 29.7 C 1.6 km/h
1128 25-07-2019 21:55:00 29.6 C 13.35 g/m*3 29.6 C 1.6 km/h
1129 25-07-2019 22:00:00 29.4 C 13.21 g/m*3 29.4 C 1.6 km/h
1130 25-07-2019 22:05:00 29.3 C 13.43 g/m*3 29.3 C 1.6 km/h
1131 25-07-2019 22:10:00 29.2 C 13.36 g/m*3 29.2 C 1.6 km/h
1132 25-07-2019 22:15:00 29.1 C 13.57 g/m*3 29.1 C 0 km/h
1133 25-07-2019 22:20:00 28.9 C 13.14 g/m*3 28.9 C 1.6 km/h
1134 25-07-2019 22:25:00 28.8 C 13.64 g/m*3 28.8 C 0 km/h
1135 25-07-2019 22:30:00 28.7 C 13.56 g/m*3 28.7 C 1.6 km/h
1136 25-07-2019 22:35:00 28.5 C 13.42 g/m*3 28.5 C 1.6 km/h
1137 25-07-2019 22:40:00 28.4 C 13.34 g/m*3 28.4 C 0 km/h
1138 25-07-2019 22:45:00 28.3 C 13.27 g/m*3 28.3 C 1.6 km/h
1139 25-07-2019 22:50:00 28.3 C 13.55 g/m*3 28.3 C 1.6 km/h
1140 25-07-2019 22:55:00 28.2 C 13.2 g/m*3 28.2 C 0 km/h
1141 25-07-2019 23:00:00 28.1 C 13.4 g/m*3 28.1 C 1.6 km/h
1142 25-07-2019 23:05:00 28 C 13.05 g/m*3 28 C 1.6 km/h
1143 25-07-2019 23:10:00 27.9 C 13.25 g/m*3 27.9 C 1.6 km/h
1144 25-07-2019 23:15:00 27.8 C 12.91 g/m*3 27.8 C 1.6 km/h
1145 25-07-2019 23:20:00 27.8 C 13.18 g/m*3 27.8 C 1.6 km/h
1146 25-07-2019 23:25:00 27.7 C 13.37 g/m*3 27.7 C 0 km/h
1147 25-07-2019 23:30:00 27.6 C 13.04 g/m*3 27.6 C 0 km/h
1148 25-07-2019 23:35:00 27.4 C 13.16 g/m*3 27.4 C 0 km/h
1149 25-07-2019 23:40:00 27.3 C 13.08 g/m*3 27.3 C 1.6 km/h
1150 25-07-2019 23:45:00 27.2 C 13.01 g/m*3 27.2 C 0 km/h
Sensor: Nr:Datum:Temp:Abs-Feuchte:Windchill:Wind:
Aussen-T/F 1151 25-07-2019 23:50:00 27.1 C 13.2 g/m*3 27.1 C 0 km/h
1152 25-07-2019 23:55:00 26.9 C 13.56 g/m*3 26.9 C 1.6 km/h
1153 26-07-2019 00:00:00 26.8 C 13.49 g/m*3 26.8 C 0 km/h
1154 26-07-2019 00:05:00 26.7 C 13.42 g/m*3 26.7 C 0 km/h
1155 26-07-2019 00:10:00 26.5 C 13.02 g/m*3 26.5 C 0 km/h
1156 26-07-2019 00:15:00 26.4 C 13.19 g/m*3 26.4 C 0 km/h
1157 26-07-2019 00:20:00 26.3 C 13.12 g/m*3 26.3 C 0 km/h
1158 26-07-2019 00:25:00 26.2 C 13.29 g/m*3 26.2 C 0 km/h
1159 26-07-2019 00:30:00 26.1 C 13.22 g/m*3 26.1 C 0 km/h
1160 26-07-2019 00:35:00 26 C 12.9 g/m*3 26 C 0 km/h
1161 26-07-2019 00:40:00 25.9 C 13.07 g/m*3 25.9 C 0 km/h
1162 26-07-2019 00:45:00 25.9 C 13.07 g/m*3 25.9 C 0 km/h
1163 26-07-2019 00:50:00 25.8 C 13 g/m*3 25.8 C 0 km/h
1164 26-07-2019 00:55:00 25.7 C 12.93 g/m*3 25.7 C 0 km/h
1165 26-07-2019 01:00:00 25.6 C 12.86 g/m*3 25.6 C 0 km/h
1166 26-07-2019 01:05:00 25.5 C 13.02 g/m*3 25.5 C 0 km/h
1167 26-07-2019 01:10:00 25.4 C 12.71 g/m*3 25.4 C 0 km/h
1168 26-07-2019 01:15:00 25.3 C 13.11 g/m*3 25.3 C 0 km/h
1169 26-07-2019 01:20:00 25.2 C 13.04 g/m*3 25.2 C 0 km/h
1170 26-07-2019 01:25:00 25.2 C 13.27 g/m*3 25.2 C 0 km/h
1171 26-07-2019 01:30:00 25.1 C 12.96 g/m*3 25.1 C 0 km/h
1172 26-07-2019 01:35:00 24.9 C 13.28 g/m*3 24.9 C 0 km/h
1173 26-07-2019 01:40:00 24.8 C 13.43 g/m*3 24.8 C 0 km/h
1174 26-07-2019 01:45:00 24.6 C 13.5 g/m*3 24.6 C 0 km/h
1175 26-07-2019 01:50:00 24.3 C 13.28 g/m*3 24.3 C 0 km/h
Sensor: Nr:Datum:Temp:Abs-Feuchte:Windchill:Wind:
Aussen-T/F 1176 26-07-2019 01:55:00 24.1 C 13.13 g/m*3 24.1 C 0 km/h
1177 26-07-2019 02:00:00 23.8 C 13.34 g/m*3 23.8 C 0 km/h
1178 26-07-2019 02:05:00 23.6 C 13.61 g/m*3 23.6 C 0 km/h
1179 26-07-2019 02:10:00 23.3 C 13.59 g/m*3 23.3 C 0 km/h
1180 26-07-2019 02:15:00 23 C 13.57 g/m*3 23 C 0 km/h
1181 26-07-2019 02:20:00 22.8 C 13.61 g/m*3 22.8 C 0 km/h
1182 26-07-2019 02:25:00 22.6 C 13.66 g/m*3 22.6 C 0 km/h
1183 26-07-2019 02:30:00 22.3 C 13.62 g/m*3 22.3 C 0 km/h
1184 26-07-2019 02:35:00 22.2 C 13.55 g/m*3 22.2 C 0 km/h
1185 26-07-2019 02:40:00 21.9 C 13.31 g/m*3 21.9 C 0 km/h
1186 26-07-2019 02:45:00 21.7 C 12.97 g/m*3 21.7 C 0 km/h
1187 26-07-2019 02:50:00 21.6 C 13.09 g/m*3 21.6 C 0 km/h
1188 26-07-2019 02:55:00 21.4 C 12.75 g/m*3 21.4 C 0 km/h
1189 26-07-2019 03:00:00 21.3 C 13.05 g/m*3 21.3 C 0 km/h
1190 26-07-2019 03:05:00 21.2 C 13.16 g/m*3 21.2 C 0 km/h
1191 26-07-2019 03:10:00 21.2 C 13.16 g/m*3 21.2 C 0 km/h
1192 26-07-2019 03:15:00 21.1 C 12.9 g/m*3 21.1 C 0 km/h
1193 26-07-2019 03:20:00 21.1 C 13.08 g/m*3 21.1 C 0 km/h
1194 26-07-2019 03:25:00 21 C 13.01 g/m*3 21 C 0 km/h
1195 26-07-2019 03:30:00 21 C 13.19 g/m*3 21 C 0 km/h
1196 26-07-2019 03:35:00 20.9 C 13.11 g/m*3 20.9 C 0 km/h
1197 26-07-2019 03:40:00 20.8 C 13.04 g/m*3 20.8 C 0 km/h
1198 26-07-2019 03:45:00 20.8 C 13.04 g/m*3 20.8 C 0 km/h
1199 26-07-2019 03:50:00 20.8 C 13.4 g/m*3 20.8 C 0 km/h
1200 26-07-2019 03:55:00 20.7 C 13.32 g/m*3 20.7 C 0 km/h
Sensor: Nr:Datum:Temp:Abs-Feuchte:Windchill:Wind:
Aussen-T/F 1201 26-07-2019 04:00:00 20.7 C 13.32 g/m*3 20.7 C 0 km/h
1202 26-07-2019 04:05:00 20.6 C 13.42 g/m*3 20.6 C 0 km/h
1203 26-07-2019 04:10:00 20.4 C 13.27 g/m*3 20.4 C 0 km/h
1204 26-07-2019 04:15:00 20.3 C 13.19 g/m*3 20.3 C 0 km/h
1205 26-07-2019 04:20:00 20.3 C 13.37 g/m*3 20.3 C 0 km/h
1206 26-07-2019 04:25:00 20.2 C 13.46 g/m*3 20.2 C 0 km/h
1207 26-07-2019 04:30:00 20.1 C 13.39 g/m*3 20.1 C 0 km/h
1208 26-07-2019 04:35:00 19.9 C 13.23 g/m*3 19.9 C 0 km/h
1209 26-07-2019 04:40:00 19.9 C 13.4 g/m*3 19.9 C 0 km/h
1210 26-07-2019 04:45:00 19.8 C 13.32 g/m*3 19.8 C 0 km/h
1211 26-07-2019 04:50:00 19.7 C 13.25 g/m*3 19.7 C 0 km/h
1212 26-07-2019 04:55:00 19.6 C 13.34 g/m*3 19.6 C 0 km/h
1213 26-07-2019 05:00:00 19.6 C 13.34 g/m*3 19.6 C 0 km/h
1214 26-07-2019 05:05:00 19.5 C 13.09 g/m*3 19.5 C 0 km/h
1215 26-07-2019 05:10:00 19.4 C 13.01 g/m*3 19.4 C 0 km/h
1216 26-07-2019 05:15:00 19.3 C 12.94 g/m*3 19.3 C 0 km/h
1217 26-07-2019 05:20:00 19.3 C 13.1 g/m*3 19.3 C 0 km/h
1218 26-07-2019 05:25:00 19.3 C 12.94 g/m*3 19.3 C 0 km/h
1219 26-07-2019 05:30:00 19.3 C 13.27 g/m*3 19.3 C 0 km/h
1220 26-07-2019 05:35:00 19.3 C 13.27 g/m*3 19.3 C 0 km/h
1221 26-07-2019 05:40:00 19.2 C 13.19 g/m*3 19.2 C 0 km/h
1222 26-07-2019 05:45:00 19.2 C 13.19 g/m*3 19.2 C 0 km/h
1223 26-07-2019 05:50:00 19.1 C 12.95 g/m*3 19.1 C 0 km/h
1224 26-07-2019 05:55:00 19 C 12.87 g/m*3 19 C 0 km/h
1225 26-07-2019 06:00:00 18.9 C 12.96 g/m*3 18.9 C 0 km/h
Sensor: Nr:Datum:Temp:Abs-Feuchte:Windchill:Wind:
Aussen-T/F 1226 26-07-2019 06:05:00 19 C 12.87 g/m*3 19 C 0 km/h
1227 26-07-2019 06:10:00 19 C 12.87 g/m*3 19 C 0 km/h
1228 26-07-2019 06:15:00 18.9 C 12.96 g/m*3 18.9 C 0 km/h
1229 26-07-2019 06:20:00 18.9 C 12.96 g/m*3 18.9 C 0 km/h
1230 26-07-2019 06:25:00 18.9 C 12.96 g/m*3 18.9 C 0 km/h
1231 26-07-2019 06:30:00 18.9 C 12.96 g/m*3 18.9 C 0 km/h
1232 26-07-2019 06:35:00 18.9 C 13.12 g/m*3 18.9 C 0 km/h
1233 26-07-2019 06:40:00 18.9 C 13.12 g/m*3 18.9 C 0 km/h
1234 26-07-2019 06:45:00 19 C 13.2 g/m*3 19 C 0 km/h
1235 26-07-2019 06:50:00 19.1 C 13.28 g/m*3 19.1 C 0 km/h
1236 26-07-2019 06:55:00 19.1 C 13.44 g/m*3 19.1 C 0 km/h
1237 26-07-2019 07:00:00 19.2 C 13.69 g/m*3 19.2 C 0 km/h
1238 26-07-2019 07:05:00 19.3 C 13.77 g/m*3 19.3 C 0 km/h
1239 26-07-2019 07:10:00 19.3 C 13.77 g/m*3 19.3 C 0 km/h
1240 26-07-2019 07:15:00 19.4 C 13.85 g/m*3 19.4 C 0 km/h
1241 26-07-2019 07:20:00 19.4 C 13.68 g/m*3 19.4 C 0 km/h
1242 26-07-2019 07:25:00 19.5 C 13.93 g/m*3 19.5 C 0 km/h
1243 26-07-2019 07:30:00 19.6 C 14.01 g/m*3 19.6 C 0 km/h
1244 26-07-2019 07:35:00 19.7 C 14.09 g/m*3 19.7 C 0 km/h
1245 26-07-2019 07:40:00 19.8 C 14.18 g/m*3 19.8 C 0 km/h
1246 26-07-2019 07:45:00 19.9 C 14.09 g/m*3 19.9 C 0 km/h
1247 26-07-2019 07:50:00 20.1 C 14.08 g/m*3 20.1 C 0 km/h
1248 26-07-2019 07:55:00 20.2 C 14.16 g/m*3 20.2 C 0 km/h
1249 26-07-2019 08:00:00 20.4 C 14.33 g/m*3 20.4 C 0 km/h
1250 26-07-2019 08:05:00 20.5 C 14.59 g/m*3 20.5 C 0 km/h
Sensor: Nr:Datum:Temp:Abs-Feuchte:Windchill:Wind:
Aussen-T/F 1251 26-07-2019 08:10:00 20.6 C 14.5 g/m*3 20.6 C 0 km/h
1252 26-07-2019 08:15:00 20.7 C 14.76 g/m*3 20.7 C 0 km/h
1253 26-07-2019 08:20:00 20.8 C 14.67 g/m*3 20.8 C 0 km/h
1254 26-07-2019 08:25:00 20.9 C 14.57 g/m*3 20.9 C 0 km/h
1255 26-07-2019 08:30:00 21.1 C 14.56 g/m*3 21.1 C 0 km/h
1256 26-07-2019 08:35:00 21.3 C 14.73 g/m*3 21.3 C 0 km/h
1257 26-07-2019 08:40:00 21.5 C 14.71 g/m*3 21.5 C 0 km/h
1258 26-07-2019 08:45:00 21.7 C 15.07 g/m*3 21.7 C 0 km/h
1259 26-07-2019 08:50:00 21.9 C 15.44 g/m*3 21.9 C 0 km/h
1260 26-07-2019 08:55:00 21.9 C 15.05 g/m*3 21.9 C 0 km/h
1261 26-07-2019 09:00:00 22.1 C 14.84 g/m*3 22.1 C 0 km/h
1262 26-07-2019 09:05:00 22.3 C 15.01 g/m*3 22.3 C 0 km/h
1263 26-07-2019 09:10:00 22.4 C 14.7 g/m*3 22.4 C 0 km/h
1264 26-07-2019 09:15:00 22.7 C 14.75 g/m*3 22.7 C 0 km/h
1265 26-07-2019 09:20:00 22.9 C 15.12 g/m*3 22.9 C 0 km/h
1266 26-07-2019 09:25:00 23.1 C 14.47 g/m*3 23.1 C 0 km/h
1267 26-07-2019 09:30:00 23.4 C 14.72 g/m*3 23.4 C 1.6 km/h
1268 26-07-2019 09:35:00 23.7 C 14.33 g/m*3 23.7 C 0 km/h
1269 26-07-2019 09:40:00 24.2 C 14.74 g/m*3 24.2 C 1.6 km/h
1270 26-07-2019 09:45:00 24.6 C 14.85 g/m*3 24.6 C 0 km/h
1271 26-07-2019 09:50:00 25 C 13.35 g/m*3 25 C 4.8 km/h
1272 26-07-2019 09:55:00 25.7 C 14.36 g/m*3 25.7 C 4.8 km/h
1273 26-07-2019 10:00:00 25.9 C 14.53 g/m*3 25.9 C 1.6 km/h
1274 26-07-2019 10:05:00 26.3 C 14.36 g/m*3 26.3 C 8.1 km/h
1275 26-07-2019 10:10:00 26.4 C 14.19 g/m*3 26.4 C 1.6 km/h
Sensor: Nr:Datum:Temp:Abs-Feuchte:Windchill:Wind:
Aussen-T/F 1276 26-07-2019 10:15:00 26.8 C 14 g/m*3 26.8 C 6.4 km/h
1277 26-07-2019 10:20:00 27.2 C 14.05 g/m*3 27.2 C 4.8 km/h
1278 26-07-2019 10:25:00 27.6 C 12.77 g/m*3 27.6 C 6.4 km/h
1279 26-07-2019 10:30:00 28.4 C 12.79 g/m*3 28.4 C 9.7 km/h
1280 26-07-2019 10:35:00 29.1 C 13.28 g/m*3 29.1 C 9.7 km/h
1281 26-07-2019 10:40:00 29.6 C 13.06 g/m*3 29.6 C 9.7 km/h
1282 26-07-2019 10:45:00 30.1 C 13.11 g/m*3 30.1 C 9.7 km/h
1283 26-07-2019 10:50:00 30.5 C 13.08 g/m*3 30.5 C 6.4 km/h
1284 26-07-2019 10:55:00 30.8 C 12.98 g/m*3 30.8 C 6.4 km/h
1285 26-07-2019 11:00:00 31 C 12.48 g/m*3 31 C 6.4 km/h
1286 26-07-2019 11:05:00 31.2 C 12.62 g/m*3 31.2 C 4.8 km/h
1287 26-07-2019 11:10:00 31.4 C 13.41 g/m*3 31.4 C 3.2 km/h
1288 26-07-2019 11:15:00 31.5 C 13.15 g/m*3 31.5 C 3.2 km/h
1289 26-07-2019 11:20:00 31.7 C 12.96 g/m*3 31.7 C 6.4 km/h
1290 26-07-2019 11:25:00 31.9 C 13.43 g/m*3 31.9 C 6.4 km/h
1291 26-07-2019 11:30:00 32.1 C 12.9 g/m*3 32.1 C 1.6 km/h
1292 26-07-2019 11:35:00 32.3 C 13.72 g/m*3 32.3 C 3.2 km/h
1293 26-07-2019 11:40:00 32.6 C 13.59 g/m*3 32.6 C 4.8 km/h
1294 26-07-2019 11:45:00 32.8 C 13.03 g/m*3 32.8 C 3.2 km/h
1295 26-07-2019 11:50:00 32.9 C 13.1 g/m*3 32.9 C 6.4 km/h
1296 26-07-2019 11:55:00 33.2 C 13.31 g/m*3 33.2 C 3.2 km/h
1297 26-07-2019 12:00:00 33.4 C 13.09 g/m*3 33.4 C 4.8 km/h
1298 26-07-2019 12:05:00 33.6 C 12.86 g/m*3 33.6 C 6.4 km/h
1299 26-07-2019 12:10:00 33.7 C 13.67 g/m*3 33.7 C 6.4 km/h
1300 26-07-2019 12:15:00 33.8 C 13 g/m*3 33.8 C 9.7 km/h
Sensor: Nr:Datum:Temp:Abs-Feuchte:Windchill:Wind:
Aussen-T/F 1301 26-07-2019 12:20:00 34.1 C 13.2 g/m*3 34.1 C 8.1 km/h
1302 26-07-2019 12:25:00 34.2 C 13.65 g/m*3 34.2 C 6.4 km/h
1303 26-07-2019 12:30:00 34.3 C 12.96 g/m*3 34.3 C 6.4 km/h
1304 26-07-2019 12:35:00 34.5 C 13.1 g/m*3 34.5 C 9.7 km/h
1305 26-07-2019 12:40:00 34.8 C 13.3 g/m*3 34.8 C 12.9 km/h
1306 26-07-2019 12:45:00 35.1 C 13.11 g/m*3 35.1 C 12.9 km/h
1307 26-07-2019 12:50:00 35.3 C 13.25 g/m*3 35.3 C 11.3 km/h
1308 26-07-2019 12:55:00 35.4 C 12.92 g/m*3 35.4 C 11.3 km/h
1309 26-07-2019 13:00:00 35.5 C 12.98 g/m*3 35.5 C 12.9 km/h
1310 26-07-2019 13:05:00 35.6 C 12.64 g/m*3 35.6 C 12.9 km/h
1311 26-07-2019 13:10:00 35.7 C 12.71 g/m*3 35.7 C 9.7 km/h
1312 26-07-2019 13:15:00 35.7 C 13.12 g/m*3 35.7 C 8.1 km/h
1313 26-07-2019 13:20:00 35.8 C 13.19 g/m*3 35.8 C 6.4 km/h
1314 26-07-2019 13:25:00 35.8 C 12.77 g/m*3 35.8 C 8.1 km/h
1315 26-07-2019 13:30:00 35.9 C 12.43 g/m*3 35.9 C 9.7 km/h
1316 26-07-2019 13:35:00 36.1 C 12.97 g/m*3 36.1 C 8.1 km/h
1317 26-07-2019 13:40:00 36.2 C 13.04 g/m*3 36.2 C 11.3 km/h
1318 26-07-2019 13:45:00 36.4 C 13.18 g/m*3 36.4 C 9.7 km/h
1319 26-07-2019 13:50:00 36.6 C 12.88 g/m*3 36.6 C 9.7 km/h
1320 26-07-2019 13:55:00 36.8 C 12.58 g/m*3 36.8 C 8.1 km/h
1321 26-07-2019 14:00:00 36.9 C 12.65 g/m*3 36.9 C 9.7 km/h
1322 26-07-2019 14:05:00 36.9 C 12.21 g/m*3 36.9 C 9.7 km/h
1323 26-07-2019 14:10:00 36.8 C 12.15 g/m*3 36.8 C 8.1 km/h
1324 26-07-2019 14:15:00 36.9 C 12.21 g/m*3 36.9 C 4.8 km/h
1325 26-07-2019 14:20:00 37.1 C 12.78 g/m*3 37.1 C 6.4 km/h
Sensor: Nr:Datum:Temp:Abs-Feuchte:Windchill:Wind:
Aussen-T/F 1326 26-07-2019 14:25:00 37.4 C 12.08 g/m*3 37.4 C 11.3 km/h
1327 26-07-2019 14:30:00 37.6 C 11.75 g/m*3 37.6 C 8.1 km/h
1328 26-07-2019 14:35:00 37.8 C 11.87 g/m*3 37.8 C 6.4 km/h
1329 26-07-2019 14:40:00 37.8 C 11.87 g/m*3 37.8 C 6.4 km/h
1330 26-07-2019 14:45:00 37.7 C 10.9 g/m*3 37.7 C 6.4 km/h
1331 26-07-2019 14:50:00 37.7 C 11.81 g/m*3 37.7 C 3.2 km/h
1332 26-07-2019 14:55:00 37.7 C 10.9 g/m*3 37.7 C 4.8 km/h
1333 26-07-2019 15:00:00 38.1 C 11.59 g/m*3 38.1 C 6.4 km/h
1334 26-07-2019 15:05:00 38.3 C 11.71 g/m*3 38.3 C 11.3 km/h
1335 26-07-2019 15:10:00 38.6 C 11.41 g/m*3 38.6 C 9.7 km/h
1336 26-07-2019 15:15:00 38.7 C 11.95 g/m*3 38.7 C 8.1 km/h
1337 26-07-2019 15:20:00 38.3 C 12.65 g/m*3 38.3 C 27.4 km/h
1338 26-07-2019 15:25:00 37.3 C 13.35 g/m*3 37.3 C 19.3 km/h
1339 26-07-2019 15:30:00 36.8 C 13.02 g/m*3 36.8 C 9.7 km/h
1340 26-07-2019 15:35:00 36.3 C 13.11 g/m*3 36.3 C 14.5 km/h
1341 26-07-2019 15:40:00 35.9 C 12.84 g/m*3 35.9 C 16.1 km/h
1342 26-07-2019 15:45:00 35.6 C 13.05 g/m*3 35.6 C 12.9 km/h
1343 26-07-2019 15:50:00 35.7 C 12.3 g/m*3 35.7 C 14.5 km/h
1344 26-07-2019 15:55:00 35.6 C 12.23 g/m*3 35.6 C 12.9 km/h
1345 26-07-2019 16:00:00 35.4 C 12.51 g/m*3 35.4 C 11.3 km/h
1346 26-07-2019 16:05:00 35.3 C 12.85 g/m*3 35.3 C 8.1 km/h
1347 26-07-2019 16:10:00 35.4 C 12.92 g/m*3 35.4 C 6.4 km/h
1348 26-07-2019 16:15:00 35.4 C 12.51 g/m*3 35.4 C 6.4 km/h
1349 26-07-2019 16:20:00 35.5 C 12.98 g/m*3 35.5 C 3.2 km/h
1350 26-07-2019 16:25:00 35.6 C 15.09 g/m*3 35.6 C 0 km/h
Sensor: Nr:Datum:Temp:Abs-Feuchte:Windchill:Wind:
Aussen-T/F 1351 26-07-2019 16:30:00 35.6 C 15.91 g/m*3 35.6 C 1.6 km/h
1352 26-07-2019 16:35:00 35.6 C 16.31 g/m*3 35.6 C 0 km/h
1353 26-07-2019 16:40:00 35.3 C 12.85 g/m*3 35.3 C 11.3 km/h
1354 26-07-2019 16:45:00 34.9 C 13.37 g/m*3 34.9 C 8.1 km/h
1355 26-07-2019 16:50:00 34.8 C 13.69 g/m*3 34.8 C 3.2 km/h
1356 26-07-2019 16:55:00 34.6 C 12.78 g/m*3 34.6 C 9.7 km/h
1357 26-07-2019 17:00:00 34.2 C 13.27 g/m*3 34.2 C 12.9 km/h
1358 26-07-2019 17:05:00 34.1 C 15.84 g/m*3 34.1 C 0 km/h
1359 26-07-2019 17:10:00 33.5 C 14.25 g/m*3 33.5 C 8.1 km/h
1360 26-07-2019 17:15:00 32.9 C 14.16 g/m*3 32.9 C 8.1 km/h
1361 26-07-2019 17:20:00 32.6 C 14.64 g/m*3 32.6 C 3.2 km/h
1362 26-07-2019 17:25:00 32.4 C 15.17 g/m*3 32.4 C 0 km/h
1363 26-07-2019 17:30:00 32.2 C 15.35 g/m*3 32.2 C 6.4 km/h
1364 26-07-2019 17:35:00 31.9 C 15.45 g/m*3 31.9 C 4.8 km/h
1365 26-07-2019 17:40:00 31.8 C 14.36 g/m*3 31.8 C 9.7 km/h
1366 26-07-2019 17:45:00 31.7 C 14.62 g/m*3 31.7 C 4.8 km/h
1367 26-07-2019 17:50:00 31.4 C 14.71 g/m*3 31.4 C 8.1 km/h
1368 26-07-2019 17:55:00 31.3 C 14.31 g/m*3 31.3 C 6.4 km/h
1369 26-07-2019 18:00:00 31.2 C 14.56 g/m*3 31.2 C 3.2 km/h
1370 26-07-2019 18:05:00 31.1 C 14.48 g/m*3 31.1 C 6.4 km/h
1371 26-07-2019 18:10:00 30.9 C 14.01 g/m*3 30.9 C 6.4 km/h
1372 26-07-2019 18:15:00 30.9 C 14.01 g/m*3 30.9 C 9.7 km/h
1373 26-07-2019 18:20:00 30.8 C 13.93 g/m*3 30.8 C 14.5 km/h
1374 26-07-2019 18:25:00 30.7 C 14.17 g/m*3 30.7 C 16.1 km/h
1375 26-07-2019 18:30:00 30.6 C 14.09 g/m*3 30.6 C 11.3 km/h
Sensor: Nr:Datum:Temp:Abs-Feuchte:Windchill:Wind:
Aussen-T/F 1376 26-07-2019 18:35:00 30.3 C 14.18 g/m*3 30.3 C 6.4 km/h
1377 26-07-2019 18:40:00 30.1 C 14.02 g/m*3 30.1 C 12.9 km/h
1378 26-07-2019 18:45:00 29.7 C 13.72 g/m*3 29.7 C 11.3 km/h
1379 26-07-2019 18:50:00 29.6 C 14.24 g/m*3 29.6 C 6.4 km/h
1380 26-07-2019 18:55:00 29.4 C 14.09 g/m*3 29.4 C 9.7 km/h
1381 26-07-2019 19:00:00 29.3 C 14.31 g/m*3 29.3 C 4.8 km/h
1382 26-07-2019 19:05:00 29.3 C 14.6 g/m*3 29.3 C 0 km/h
1383 26-07-2019 19:10:00 29.2 C 14.52 g/m*3 29.2 C 0 km/h
1384 26-07-2019 19:15:00 29.1 C 14.44 g/m*3 29.1 C 0 km/h
1385 26-07-2019 19:20:00 29.1 C 15.02 g/m*3 29.1 C 0 km/h
1386 26-07-2019 19:25:00 28.9 C 14.57 g/m*3 28.9 C 0 km/h
1387 26-07-2019 19:30:00 28.8 C 15.06 g/m*3 28.8 C 0 km/h
1388 26-07-2019 19:35:00 28.7 C 14.98 g/m*3 28.7 C 0 km/h
1389 26-07-2019 19:40:00 28.6 C 15.18 g/m*3 28.6 C 0 km/h
1390 26-07-2019 19:45:00 28.4 C 15.01 g/m*3 28.4 C 0 km/h
1391 26-07-2019 19:50:00 28.3 C 14.93 g/m*3 28.3 C 0 km/h
1392 26-07-2019 19:55:00 28.2 C 15.4 g/m*3 28.2 C 0 km/h
1393 26-07-2019 20:00:00 28.1 C 15.31 g/m*3 28.1 C 0 km/h
1394 26-07-2019 20:05:00 28 C 15.23 g/m*3 28 C 0 km/h
1395 26-07-2019 20:10:00 27.9 C 15.42 g/m*3 27.9 C 0 km/h
1396 26-07-2019 20:15:00 27.8 C 15.33 g/m*3 27.8 C 0 km/h
1397 26-07-2019 20:20:00 27.7 C 15.51 g/m*3 27.7 C 0 km/h
1398 26-07-2019 20:25:00 27.6 C 15.16 g/m*3 27.6 C 0 km/h
1399 26-07-2019 20:30:00 27.5 C 15.61 g/m*3 27.5 C 0 km/h
1400 26-07-2019 20:35:00 27.4 C 15 g/m*3 27.4 C 0 km/h
Sensor: Nr:Datum:Temp:Abs-Feuchte:Windchill:Wind:
Aussen-T/F 1401 26-07-2019 20:40:00 27.2 C 15.35 g/m*3 27.2 C 0 km/h
1402 26-07-2019 20:45:00 27.1 C 15.27 g/m*3 27.1 C 0 km/h
1403 26-07-2019 20:50:00 27.1 C 15.27 g/m*3 27.1 C 0 km/h
1404 26-07-2019 20:55:00 26.9 C 15.1 g/m*3 26.9 C 0 km/h
1405 26-07-2019 21:00:00 26.8 C 15.02 g/m*3 26.8 C 0 km/h
1406 26-07-2019 21:05:00 26.7 C 14.93 g/m*3 26.7 C 0 km/h
1407 26-07-2019 21:10:00 26.7 C 14.93 g/m*3 26.7 C 0 km/h
1408 26-07-2019 21:15:00 26.6 C 15.1 g/m*3 26.6 C 0 km/h
1409 26-07-2019 21:20:00 26.4 C 14.69 g/m*3 26.4 C 0 km/h
1410 26-07-2019 21:25:00 26.3 C 14.61 g/m*3 26.3 C 0 km/h
1411 26-07-2019 21:30:00 26.2 C 14.52 g/m*3 26.2 C 0 km/h
1412 26-07-2019 21:35:00 26.2 C 14.52 g/m*3 26.2 C 1.6 km/h
1413 26-07-2019 21:40:00 26.1 C 14.44 g/m*3 26.1 C 1.6 km/h
1414 26-07-2019 21:45:00 26.1 C 14.69 g/m*3 26.1 C 0 km/h
1415 26-07-2019 21:50:00 26 C 14.61 g/m*3 26 C 0 km/h
1416 26-07-2019 21:55:00 25.9 C 14.53 g/m*3 25.9 C 1.6 km/h
1417 26-07-2019 22:00:00 25.9 C 14.53 g/m*3 25.9 C 1.6 km/h
1418 26-07-2019 22:05:00 25.8 C 14.69 g/m*3 25.8 C 0 km/h
1419 26-07-2019 22:10:00 25.7 C 14.6 g/m*3 25.7 C 0 km/h
1420 26-07-2019 22:15:00 25.7 C 14.6 g/m*3 25.7 C 1.6 km/h
1421 26-07-2019 22:20:00 25.7 C 14.84 g/m*3 25.7 C 0 km/h
1422 26-07-2019 22:25:00 25.7 C 14.84 g/m*3 25.7 C 0 km/h
1423 26-07-2019 22:30:00 25.6 C 15 g/m*3 25.6 C 0 km/h
1424 26-07-2019 22:35:00 25.4 C 14.83 g/m*3 25.4 C 0 km/h
1425 26-07-2019 22:40:00 25.3 C 14.51 g/m*3 25.3 C 0 km/h
Sensor: Nr:Datum:Temp:Abs-Feuchte:Windchill:Wind:
Aussen-T/F 1426 26-07-2019 22:45:00 25.2 C 14.67 g/m*3 25.2 C 0 km/h
1427 26-07-2019 22:50:00 25.1 C 14.58 g/m*3 25.1 C 0 km/h
1428 26-07-2019 22:55:00 24.9 C 14.65 g/m*3 24.9 C 0 km/h
1429 26-07-2019 23:00:00 24.8 C 14.8 g/m*3 24.8 C 0 km/h
1430 26-07-2019 23:05:00 24.8 C 14.8 g/m*3 24.8 C 0 km/h
1431 26-07-2019 23:10:00 24.7 C 14.94 g/m*3 24.7 C 0 km/h
1432 26-07-2019 23:15:00 24.6 C 14.85 g/m*3 24.6 C 0 km/h
1433 26-07-2019 23:20:00 24.5 C 14.99 g/m*3 24.5 C 0 km/h
1434 26-07-2019 23:25:00 24.4 C 14.91 g/m*3 24.4 C 0 km/h
1435 26-07-2019 23:30:00 24.3 C 14.83 g/m*3 24.3 C 0 km/h
1436 26-07-2019 23:35:00 24.2 C 14.74 g/m*3 24.2 C 0 km/h
1437 26-07-2019 23:40:00 24.2 C 14.74 g/m*3 24.2 C 0 km/h
1438 26-07-2019 23:45:00 24.1 C 14.88 g/m*3 24.1 C 3.2 km/h
1439 26-07-2019 23:50:00 23.9 C 14.71 g/m*3 23.9 C 0 km/h
1440 26-07-2019 23:55:00 23.8 C 14.63 g/m*3 23.8 C 0 km/h
1441 27-07-2019 00:00:00 23.6 C 14.68 g/m*3 23.6 C 0 km/h
1442 27-07-2019 00:05:00 23.4 C 14.51 g/m*3 23.4 C 0 km/h
1443 27-07-2019 00:10:00 23.3 C 14.43 g/m*3 23.3 C 0 km/h
1444 27-07-2019 00:15:00 23.3 C 14.64 g/m*3 23.3 C 0 km/h
1445 27-07-2019 00:20:00 23.2 C 14.55 g/m*3 23.2 C 0 km/h
1446 27-07-2019 00:25:00 23.2 C 14.55 g/m*3 23.2 C 0 km/h
1447 27-07-2019 00:30:00 23.1 C 14.47 g/m*3 23.1 C 1.6 km/h
1448 27-07-2019 00:35:00 23.1 C 14.68 g/m*3 23.1 C 4.8 km/h
1449 27-07-2019 00:40:00 23 C 14.59 g/m*3 23 C 0 km/h
1450 27-07-2019 00:45:00 22.9 C 14.51 g/m*3 22.9 C 0 km/h
Sensor: Nr:Datum:Temp:Abs-Feuchte:Windchill:Wind:
Aussen-T/F 1451 27-07-2019 00:50:00 22.9 C 14.51 g/m*3 22.9 C 0 km/h
1452 27-07-2019 00:55:00 22.8 C 14.63 g/m*3 22.8 C 0 km/h
1453 27-07-2019 01:00:00 22.8 C 14.63 g/m*3 22.8 C 0 km/h
1454 27-07-2019 01:05:00 22.7 C 14.55 g/m*3 22.7 C 0 km/h
1455 27-07-2019 01:10:00 22.7 C 14.75 g/m*3 22.7 C 0 km/h
1456 27-07-2019 01:15:00 22.6 C 14.66 g/m*3 22.6 C 0 km/h
1457 27-07-2019 01:20:00 22.7 C 14.95 g/m*3 22.7 C 0 km/h
1458 27-07-2019 01:25:00 22.7 C 14.75 g/m*3 22.7 C 0 km/h
1459 27-07-2019 01:30:00 22.7 C 14.75 g/m*3 22.7 C 0 km/h
1460 27-07-2019 01:35:00 22.7 C 14.75 g/m*3 22.7 C 0 km/h
1461 27-07-2019 01:40:00 22.7 C 14.95 g/m*3 22.7 C 0 km/h
1462 27-07-2019 01:45:00 22.6 C 14.87 g/m*3 22.6 C 0 km/h
1463 27-07-2019 01:50:00 22.4 C 14.7 g/m*3 22.4 C 0 km/h
1464 27-07-2019 01:55:00 22.3 C 14.61 g/m*3 22.3 C 0 km/h
1465 27-07-2019 02:00:00 22.3 C 14.61 g/m*3 22.3 C 0 km/h
1466 27-07-2019 02:05:00 22.3 C 14.41 g/m*3 22.3 C 0 km/h
1467 27-07-2019 02:10:00 22.3 C 14.41 g/m*3 22.3 C 0 km/h
1468 27-07-2019 02:15:00 22.3 C 14.81 g/m*3 22.3 C 0 km/h
1469 27-07-2019 02:20:00 22.4 C 14.89 g/m*3 22.4 C 0 km/h
1470 27-07-2019 02:25:00 22.4 C 15.09 g/m*3 22.4 C 0 km/h
1471 27-07-2019 02:30:00 22.4 C 15.09 g/m*3 22.4 C 0 km/h
1472 27-07-2019 02:35:00 22.4 C 15.09 g/m*3 22.4 C 0 km/h
1473 27-07-2019 02:40:00 22.3 C 15.01 g/m*3 22.3 C 0 km/h
1474 27-07-2019 02:45:00 22.3 C 15.01 g/m*3 22.3 C 0 km/h
1475 27-07-2019 02:50:00 22.3 C 15.01 g/m*3 22.3 C 0 km/h
Sensor: Nr:Datum:Temp:Abs-Feuchte:Windchill:Wind:
Aussen-T/F 1476 27-07-2019 02:55:00 22.3 C 15.01 g/m*3 22.3 C 0 km/h
1477 27-07-2019 03:00:00 22.3 C 15.01 g/m*3 22.3 C 0 km/h
1478 27-07-2019 03:05:00 22.3 C 15.01 g/m*3 22.3 C 1.6 km/h
1479 27-07-2019 03:10:00 22.3 C 14.61 g/m*3 22.3 C 1.6 km/h
1480 27-07-2019 03:15:00 22.4 C 14.7 g/m*3 22.4 C 0 km/h
1481 27-07-2019 03:20:00 22.5 C 14.58 g/m*3 22.5 C 0 km/h
1482 27-07-2019 03:25:00 22.6 C 14.46 g/m*3 22.6 C 0 km/h
1483 27-07-2019 03:30:00 22.6 C 14.26 g/m*3 22.6 C 0 km/h
1484 27-07-2019 03:35:00 22.8 C 14.02 g/m*3 22.8 C 3.2 km/h
1485 27-07-2019 03:40:00 23.2 C 15.59 g/m*3 23.2 C 1.6 km/h
1486 27-07-2019 03:45:00 23.1 C 16.12 g/m*3 23.1 C 0 km/h
1487 27-07-2019 03:50:00 22.7 C 15.96 g/m*3 22.7 C 3.2 km/h
1488 27-07-2019 03:55:00 22.3 C 15.8 g/m*3 22.3 C 3.2 km/h
1489 27-07-2019 04:00:00 21.9 C 16.02 g/m*3 21.9 C 0 km/h
1490 27-07-2019 04:05:00 21.7 C 16.02 g/m*3 21.7 C 0 km/h
1491 27-07-2019 04:10:00 21.4 C 15.94 g/m*3 21.4 C 0 km/h
1492 27-07-2019 04:15:00 21.1 C 15.66 g/m*3 21.1 C 0 km/h
1493 27-07-2019 04:20:00 20.9 C 15.66 g/m*3 20.9 C 0 km/h
1494 27-07-2019 04:25:00 20.8 C 15.75 g/m*3 20.8 C 0 km/h
1495 27-07-2019 04:30:00 20.7 C 15.66 g/m*3 20.7 C 0 km/h
1496 27-07-2019 04:35:00 20.6 C 15.57 g/m*3 20.6 C 0 km/h
1497 27-07-2019 04:40:00 20.5 C 15.66 g/m*3 20.5 C 0 km/h
1498 27-07-2019 04:45:00 20.4 C 15.57 g/m*3 20.4 C 0 km/h
1499 27-07-2019 04:50:00 20.4 C 15.57 g/m*3 20.4 C 0 km/h
1500 27-07-2019 04:55:00 20.4 C 15.74 g/m*3 20.4 C 0 km/h
Sensor: Nr:Datum:Temp:Abs-Feuchte:Windchill:Wind:
Aussen-T/F 1501 27-07-2019 05:00:00 20.4 C 15.57 g/m*3 20.4 C 0 km/h
1502 27-07-2019 05:05:00 20.4 C 15.57 g/m*3 20.4 C 0 km/h
1503 27-07-2019 05:10:00 20.3 C 15.65 g/m*3 20.3 C 0 km/h
1504 27-07-2019 05:15:00 20.3 C 15.65 g/m*3 20.3 C 0 km/h
1505 27-07-2019 05:20:00 20.3 C 15.65 g/m*3 20.3 C 0 km/h
1506 27-07-2019 05:25:00 20.3 C 15.65 g/m*3 20.3 C 0 km/h
1507 27-07-2019 05:30:00 20.2 C 15.56 g/m*3 20.2 C 0 km/h
1508 27-07-2019 05:35:00 20.3 C 15.65 g/m*3 20.3 C 0 km/h
1509 27-07-2019 05:40:00 20.2 C 15.56 g/m*3 20.2 C 0 km/h
1510 27-07-2019 05:45:00 20.2 C 15.56 g/m*3 20.2 C 0 km/h
1511 27-07-2019 05:50:00 20.2 C 15.56 g/m*3 20.2 C 0 km/h
1512 27-07-2019 05:55:00 20.2 C 15.39 g/m*3 20.2 C 0 km/h
1513 27-07-2019 06:00:00 20.2 C 15.39 g/m*3 20.2 C 0 km/h
1514 27-07-2019 06:05:00 20.3 C 15.65 g/m*3 20.3 C 0 km/h
1515 27-07-2019 06:10:00 20.3 C 15.48 g/m*3 20.3 C 0 km/h
1516 27-07-2019 06:15:00 20.3 C 15.65 g/m*3 20.3 C 0 km/h
1517 27-07-2019 06:20:00 20.3 C 15.48 g/m*3 20.3 C 0 km/h
1518 27-07-2019 06:25:00 20.4 C 15.74 g/m*3 20.4 C 0 km/h
1519 27-07-2019 06:30:00 20.6 C 15.93 g/m*3 20.6 C 3.2 km/h
1520 27-07-2019 06:35:00 20.7 C 16.02 g/m*3 20.7 C 0 km/h
1521 27-07-2019 06:40:00 20.7 C 15.84 g/m*3 20.7 C 0 km/h
1522 27-07-2019 06:45:00 20.8 C 15.93 g/m*3 20.8 C 0 km/h
1523 27-07-2019 06:50:00 20.8 C 16.12 g/m*3 20.8 C 0 km/h
1524 27-07-2019 06:55:00 20.9 C 16.21 g/m*3 20.9 C 0 km/h
1525 27-07-2019 07:00:00 20.9 C 16.21 g/m*3 20.9 C 0 km/h
Sensor: Nr:Datum:Temp:Abs-Feuchte:Windchill:Wind:
Aussen-T/F 1526 27-07-2019 07:05:00 21 C 16.3 g/m*3 21 C 0 km/h
1527 27-07-2019 07:10:00 20.9 C 16.03 g/m*3 20.9 C 0 km/h
1528 27-07-2019 07:15:00 21 C 16.3 g/m*3 21 C 0 km/h
1529 27-07-2019 07:20:00 21.1 C 16.21 g/m*3 21.1 C 0 km/h
1530 27-07-2019 07:25:00 21.2 C 16.31 g/m*3 21.2 C 0 km/h
1531 27-07-2019 07:30:00 21.3 C 16.59 g/m*3 21.3 C 0 km/h
1532 27-07-2019 07:35:00 21.4 C 16.69 g/m*3 21.4 C 0 km/h
1533 27-07-2019 07:40:00 21.4 C 16.5 g/m*3 21.4 C 0 km/h
1534 27-07-2019 07:45:00 21.5 C 16.59 g/m*3 21.5 C 0 km/h
1535 27-07-2019 07:50:00 21.6 C 16.5 g/m*3 21.6 C 0 km/h
1536 27-07-2019 07:55:00 21.7 C 16.41 g/m*3 21.7 C 0 km/h
1537 27-07-2019 08:00:00 21.8 C 16.5 g/m*3 21.8 C 0 km/h
1538 27-07-2019 08:05:00 21.9 C 16.6 g/m*3 21.9 C 0 km/h
1539 27-07-2019 08:10:00 22.1 C 16.79 g/m*3 22.1 C 1.6 km/h
1540 27-07-2019 08:15:00 22.1 C 16.4 g/m*3 22.1 C 0 km/h
1541 27-07-2019 08:20:00 22.2 C 16.3 g/m*3 22.2 C 1.6 km/h
1542 27-07-2019 08:25:00 22.3 C 16.19 g/m*3 22.3 C 0 km/h
1543 27-07-2019 08:30:00 22.5 C 16.18 g/m*3 22.5 C 3.2 km/h
1544 27-07-2019 08:35:00 22.8 C 16.26 g/m*3 22.8 C 1.6 km/h
1545 27-07-2019 08:40:00 23 C 16.03 g/m*3 23 C 4.8 km/h
1546 27-07-2019 08:45:00 23.2 C 16.22 g/m*3 23.2 C 1.6 km/h
1547 27-07-2019 08:50:00 23.4 C 16.19 g/m*3 23.4 C 3.2 km/h
1548 27-07-2019 08:55:00 23.6 C 16.16 g/m*3 23.6 C 1.6 km/h
1549 27-07-2019 09:00:00 23.8 C 16.35 g/m*3 23.8 C 1.6 km/h
1550 27-07-2019 09:05:00 24.1 C 16.63 g/m*3 24.1 C 4.8 km/h
Sensor: Nr:Datum:Temp:Abs-Feuchte:Windchill:Wind:
Aussen-T/F 1551 27-07-2019 09:10:00 24.3 C 16.82 g/m*3 24.3 C 3.2 km/h
1552 27-07-2019 09:15:00 24.4 C 16.47 g/m*3 24.4 C 1.6 km/h
1553 27-07-2019 09:20:00 24.6 C 16.43 g/m*3 24.6 C 0 km/h
1554 27-07-2019 09:25:00 24.8 C 16.62 g/m*3 24.8 C 1.6 km/h
1555 27-07-2019 09:30:00 24.9 C 16.71 g/m*3 24.9 C 4.8 km/h
1556 27-07-2019 09:35:00 25.1 C 16.9 g/m*3 25.1 C 3.2 km/h
1557 27-07-2019 09:40:00 25.1 C 16.67 g/m*3 25.1 C 6.4 km/h
1558 27-07-2019 09:45:00 25.2 C 16.76 g/m*3 25.2 C 6.4 km/h
1559 27-07-2019 09:50:00 25.2 C 16.76 g/m*3 25.2 C 4.8 km/h
1560 27-07-2019 09:55:00 25.2 C 16.76 g/m*3 25.2 C 4.8 km/h
1561 27-07-2019 10:00:00 25.2 C 16.76 g/m*3 25.2 C 6.4 km/h
1562 27-07-2019 10:05:00 25.3 C 16.62 g/m*3 25.3 C 8.1 km/h
1563 27-07-2019 10:10:00 25.3 C 16.62 g/m*3 25.3 C 9.7 km/h
1564 27-07-2019 10:15:00 25.3 C 18.73 g/m*3 25.3 C 6.4 km/h
1565 27-07-2019 10:20:00 25 C 18.88 g/m*3 25 C 0 km/h
1566 27-07-2019 10:25:00 24.7 C 19.01 g/m*3 24.7 C 0 km/h
1567 27-07-2019 10:30:00 24.4 C 18.92 g/m*3 24.4 C 0 km/h
1568 27-07-2019 10:35:00 24.2 C 18.92 g/m*3 24.2 C 0 km/h
1569 27-07-2019 10:40:00 24.1 C 19.04 g/m*3 24.1 C 0 km/h
1570 27-07-2019 10:45:00 24.1 C 19.25 g/m*3 24.1 C 0 km/h
1571 27-07-2019 10:50:00 24.1 C 19.04 g/m*3 24.1 C 0 km/h
1572 27-07-2019 10:55:00 24 C 18.93 g/m*3 24 C 0 km/h
1573 27-07-2019 11:00:00 24 C 19.15 g/m*3 24 C 0 km/h
1574 27-07-2019 11:05:00 24.1 C 19.25 g/m*3 24.1 C 0 km/h
1575 27-07-2019 11:10:00 24.1 C 19.25 g/m*3 24.1 C 0 km/h
Sensor: Nr:Datum:Temp:Abs-Feuchte:Windchill:Wind:
Aussen-T/F 1576 27-07-2019 11:15:00 24.1 C 19.25 g/m*3 24.1 C 0 km/h
1577 27-07-2019 11:20:00 24.2 C 19.36 g/m*3 24.2 C 0 km/h
1578 27-07-2019 11:25:00 24.2 C 19.36 g/m*3 24.2 C 0 km/h
1579 27-07-2019 11:30:00 24.2 C 19.14 g/m*3 24.2 C 0 km/h
1580 27-07-2019 11:35:00 24 C 18.49 g/m*3 24 C 0 km/h
1581 27-07-2019 11:40:00 23.9 C 18.39 g/m*3 23.9 C 1.6 km/h
1582 27-07-2019 11:45:00 23.7 C 18.18 g/m*3 23.7 C 0 km/h
1583 27-07-2019 11:50:00 23.5 C 17.76 g/m*3 23.5 C 3.2 km/h
1584 27-07-2019 11:55:00 23.3 C 17.77 g/m*3 23.3 C 1.6 km/h
1585 27-07-2019 12:00:00 23.2 C 17.67 g/m*3 23.2 C 1.6 km/h
1586 27-07-2019 12:05:00 23.2 C 18.09 g/m*3 23.2 C 0 km/h
1587 27-07-2019 12:10:00 23.2 C 18.29 g/m*3 23.2 C 0 km/h
1588 27-07-2019 12:15:00 23.2 C 18.29 g/m*3 23.2 C 0 km/h
1589 27-07-2019 12:20:00 23.2 C 17.88 g/m*3 23.2 C 3.2 km/h
1590 27-07-2019 12:25:00 23.3 C 17.77 g/m*3 23.3 C 3.2 km/h
1591 27-07-2019 12:30:00 23.5 C 17.76 g/m*3 23.5 C 1.6 km/h
1592 27-07-2019 12:35:00 23.8 C 17.42 g/m*3 23.8 C 1.6 km/h
1593 27-07-2019 12:40:00 24.1 C 17.5 g/m*3 24.1 C 1.6 km/h
1594 27-07-2019 12:45:00 24.4 C 18.25 g/m*3 24.4 C 4.8 km/h
1595 27-07-2019 12:50:00 24.8 C 17.75 g/m*3 24.8 C 3.2 km/h
1596 27-07-2019 12:55:00 25.1 C 18.06 g/m*3 25.1 C 3.2 km/h
1597 27-07-2019 13:00:00 25.3 C 17.56 g/m*3 25.3 C 4.8 km/h
1598 27-07-2019 13:05:00 25.5 C 17.99 g/m*3 25.5 C 6.4 km/h
1599 27-07-2019 13:10:00 25.7 C 17.72 g/m*3 25.7 C 1.6 km/h
1600 27-07-2019 13:15:00 26 C 18.26 g/m*3 26 C 4.8 km/h
Sensor: Nr:Datum:Temp:Abs-Feuchte:Windchill:Wind:
Aussen-T/F 1601 27-07-2019 13:20:00 26.2 C 18.22 g/m*3 26.2 C 8.1 km/h
1602 27-07-2019 13:25:00 26.2 C 18.22 g/m*3 26.2 C 12.9 km/h
1603 27-07-2019 13:30:00 26.1 C 18.36 g/m*3 26.1 C 8.1 km/h
1604 27-07-2019 13:35:00 26.2 C 18.46 g/m*3 26.2 C 4.8 km/h
1605 27-07-2019 13:40:00 26.2 C 18.22 g/m*3 26.2 C 3.2 km/h
1606 27-07-2019 13:45:00 26.2 C 17.73 g/m*3 26.2 C 4.8 km/h
1607 27-07-2019 13:50:00 26.2 C 17.23 g/m*3 26.2 C 6.4 km/h
1608 27-07-2019 13:55:00 26.2 C 17.73 g/m*3 26.2 C 4.8 km/h
1609 27-07-2019 14:00:00 26.2 C 16.99 g/m*3 26.2 C 8.1 km/h
1610 27-07-2019 14:05:00 26.1 C 17.14 g/m*3 26.1 C 3.2 km/h
1611 27-07-2019 14:10:00 25.9 C 16.95 g/m*3 25.9 C 6.4 km/h
1612 27-07-2019 14:15:00 25.9 C 16.46 g/m*3 25.9 C 4.8 km/h
1613 27-07-2019 14:20:00 25.8 C 16.85 g/m*3 25.8 C 1.6 km/h
1614 27-07-2019 14:25:00 25.7 C 16.52 g/m*3 25.7 C 3.2 km/h
1615 27-07-2019 14:30:00 25.6 C 16.9 g/m*3 25.6 C 4.8 km/h
1616 27-07-2019 14:35:00 25.5 C 16.81 g/m*3 25.5 C 4.8 km/h
1617 27-07-2019 14:40:00 25.5 C 17.28 g/m*3 25.5 C 4.8 km/h
1618 27-07-2019 14:45:00 25.5 C 17.28 g/m*3 25.5 C 3.2 km/h
1619 27-07-2019 14:50:00 25.5 C 17.76 g/m*3 25.5 C 4.8 km/h
1620 27-07-2019 14:55:00 25.5 C 17.52 g/m*3 25.5 C 6.4 km/h
1621 27-07-2019 15:00:00 25.3 C 17.32 g/m*3 25.3 C 8.1 km/h
1622 27-07-2019 15:05:00 25.1 C 17.13 g/m*3 25.1 C 11.3 km/h
1623 27-07-2019 15:10:00 24.8 C 16.84 g/m*3 24.8 C 8.1 km/h
1624 27-07-2019 15:15:00 24.7 C 16.98 g/m*3 24.7 C 3.2 km/h
1625 27-07-2019 15:20:00 24.7 C 16.98 g/m*3 24.7 C 4.8 km/h
Sensor: Nr:Datum:Temp:Abs-Feuchte:Windchill:Wind:
Aussen-T/F 1626 27-07-2019 15:25:00 24.8 C 17.07 g/m*3 24.8 C 3.2 km/h
1627 27-07-2019 15:30:00 24.8 C 16.84 g/m*3 24.8 C 6.4 km/h
1628 27-07-2019 15:35:00 25 C 17.03 g/m*3 25 C 9.7 km/h
1629 27-07-2019 15:40:00 25.1 C 17.13 g/m*3 25.1 C 8.1 km/h
1630 27-07-2019 15:45:00 25.2 C 16.99 g/m*3 25.2 C 8.1 km/h
1631 27-07-2019 15:50:00 25.4 C 17.19 g/m*3 25.4 C 8.1 km/h
1632 27-07-2019 15:55:00 25.6 C 17.62 g/m*3 25.6 C 8.1 km/h
1633 27-07-2019 16:00:00 25.8 C 17.33 g/m*3 25.8 C 11.3 km/h
1634 27-07-2019 16:05:00 26.1 C 17.14 g/m*3 26.1 C 12.9 km/h
1635 27-07-2019 16:10:00 26.2 C 16.74 g/m*3 26.2 C 9.7 km/h
1636 27-07-2019 16:15:00 26.2 C 16.49 g/m*3 26.2 C 12.9 km/h
1637 27-07-2019 16:20:00 26.2 C 16.74 g/m*3 26.2 C 12.9 km/h
1638 27-07-2019 16:25:00 26.3 C 16.83 g/m*3 26.3 C 9.7 km/h
1639 27-07-2019 16:30:00 26.3 C 16.59 g/m*3 26.3 C 11.3 km/h
1640 27-07-2019 16:35:00 26.2 C 16.49 g/m*3 26.2 C 9.7 km/h
1641 27-07-2019 16:40:00 25.9 C 16.46 g/m*3 25.9 C 8.1 km/h
1642 27-07-2019 16:45:00 25.7 C 16.04 g/m*3 25.7 C 12.9 km/h
1643 27-07-2019 16:50:00 25.5 C 16.34 g/m*3 25.5 C 12.9 km/h
1644 27-07-2019 16:55:00 25.2 C 16.53 g/m*3 25.2 C 14.5 km/h
1645 27-07-2019 17:00:00 24.9 C 16.71 g/m*3 24.9 C 12.9 km/h
1646 27-07-2019 17:05:00 24.6 C 16.66 g/m*3 24.6 C 12.9 km/h
1647 27-07-2019 17:10:00 24.5 C 17.01 g/m*3 24.5 C 9.7 km/h
1648 27-07-2019 17:15:00 24.5 C 17.23 g/m*3 24.5 C 6.4 km/h
1649 27-07-2019 17:20:00 24.5 C 17.23 g/m*3 24.5 C 6.4 km/h
1650 27-07-2019 17:25:00 24.5 C 17.23 g/m*3 24.5 C 8.1 km/h
Sensor: Nr:Datum:Temp:Abs-Feuchte:Windchill:Wind:
Aussen-T/F 1651 27-07-2019 17:30:00 24.4 C 16.91 g/m*3 24.4 C 8.1 km/h
1652 27-07-2019 17:35:00 24.4 C 16.91 g/m*3 24.4 C 8.1 km/h
1653 27-07-2019 17:40:00 24.4 C 17.14 g/m*3 24.4 C 6.4 km/h
1654 27-07-2019 17:45:00 24.4 C 16.91 g/m*3 24.4 C 4.8 km/h
1655 27-07-2019 17:50:00 24.4 C 16.91 g/m*3 24.4 C 4.8 km/h
1656 27-07-2019 17:55:00 24.4 C 16.91 g/m*3 24.4 C 6.4 km/h
1657 27-07-2019 18:00:00 24.4 C 17.14 g/m*3 24.4 C 6.4 km/h
1658 27-07-2019 18:05:00 24.4 C 17.14 g/m*3 24.4 C 6.4 km/h
1659 27-07-2019 18:10:00 24.4 C 16.91 g/m*3 24.4 C 4.8 km/h
1660 27-07-2019 18:15:00 24.6 C 17.33 g/m*3 24.6 C 4.8 km/h
1661 27-07-2019 18:20:00 24.8 C 17.3 g/m*3 24.8 C 8.1 km/h
1662 27-07-2019 18:25:00 25.1 C 17.36 g/m*3 25.1 C 4.8 km/h
1663 27-07-2019 18:30:00 25.4 C 17.66 g/m*3 25.4 C 6.4 km/h
1664 27-07-2019 18:35:00 25.3 C 17.56 g/m*3 25.3 C 6.4 km/h
1665 27-07-2019 18:40:00 25.3 C 17.56 g/m*3 25.3 C 6.4 km/h
1666 27-07-2019 18:45:00 25.2 C 17.46 g/m*3 25.2 C 6.4 km/h
1667 27-07-2019 18:50:00 25.1 C 17.36 g/m*3 25.1 C 6.4 km/h
1668 27-07-2019 18:55:00 24.9 C 17.4 g/m*3 24.9 C 8.1 km/h
1669 27-07-2019 19:00:00 24.7 C 17.43 g/m*3 24.7 C 9.7 km/h
1670 27-07-2019 19:05:00 24.5 C 17.23 g/m*3 24.5 C 8.1 km/h
1671 27-07-2019 19:10:00 24.3 C 16.82 g/m*3 24.3 C 8.1 km/h
1672 27-07-2019 19:15:00 24.1 C 16.85 g/m*3 24.1 C 9.7 km/h
1673 27-07-2019 19:20:00 23.9 C 17.09 g/m*3 23.9 C 6.4 km/h
1674 27-07-2019 19:25:00 23.8 C 17.42 g/m*3 23.8 C 9.7 km/h
1675 27-07-2019 19:30:00 23.7 C 17.54 g/m*3 23.7 C 4.8 km/h
Sensor: Nr:Datum:Temp:Abs-Feuchte:Windchill:Wind:
Aussen-T/F 1676 27-07-2019 19:35:00 23.6 C 17.65 g/m*3 23.6 C 4.8 km/h
1677 27-07-2019 19:40:00 23.4 C 17.66 g/m*3 23.4 C 4.8 km/h
1678 27-07-2019 19:45:00 23.4 C 17.66 g/m*3 23.4 C 4.8 km/h
1679 27-07-2019 19:50:00 23.4 C 17.87 g/m*3 23.4 C 4.8 km/h
1680 27-07-2019 19:55:00 23.3 C 17.56 g/m*3 23.3 C 8.1 km/h
1681 27-07-2019 20:00:00 23.2 C 17.46 g/m*3 23.2 C 6.4 km/h
1682 27-07-2019 20:05:00 23.1 C 17.57 g/m*3 23.1 C 6.4 km/h
1683 27-07-2019 20:10:00 23.1 C 17.57 g/m*3 23.1 C 4.8 km/h
1684 27-07-2019 20:15:00 23 C 17.47 g/m*3 23 C 3.2 km/h
1685 27-07-2019 20:20:00 23 C 17.47 g/m*3 23 C 6.4 km/h
1686 27-07-2019 20:25:00 22.9 C 17.37 g/m*3 22.9 C 6.4 km/h
1687 27-07-2019 20:30:00 22.8 C 17.27 g/m*3 22.8 C 4.8 km/h
1688 27-07-2019 20:35:00 22.8 C 17.27 g/m*3 22.8 C 4.8 km/h
1689 27-07-2019 20:40:00 22.8 C 17.27 g/m*3 22.8 C 6.4 km/h
1690 27-07-2019 20:45:00 22.7 C 17.17 g/m*3 22.7 C 6.4 km/h
1691 27-07-2019 20:50:00 22.6 C 17.08 g/m*3 22.6 C 4.8 km/h
1692 27-07-2019 20:55:00 22.6 C 17.08 g/m*3 22.6 C 8.1 km/h
1693 27-07-2019 21:00:00 22.4 C 16.88 g/m*3 22.4 C 6.4 km/h
1694 27-07-2019 21:05:00 22.4 C 16.88 g/m*3 22.4 C 6.4 km/h
1695 27-07-2019 21:10:00 22.3 C 16.78 g/m*3 22.3 C 4.8 km/h
1696 27-07-2019 21:15:00 22.3 C 16.78 g/m*3 22.3 C 4.8 km/h
1697 27-07-2019 21:20:00 22.2 C 16.88 g/m*3 22.2 C 4.8 km/h
1698 27-07-2019 21:25:00 22.1 C 16.79 g/m*3 22.1 C 8.1 km/h
1699 27-07-2019 21:30:00 22.1 C 16.79 g/m*3 22.1 C 9.7 km/h
1700 27-07-2019 21:35:00 21.9 C 16.6 g/m*3 21.9 C 6.4 km/h
Sensor: Nr:Datum:Temp:Abs-Feuchte:Windchill:Wind:
Aussen-T/F 1701 27-07-2019 21:40:00 21.9 C 16.6 g/m*3 21.9 C 8.1 km/h
1702 27-07-2019 21:45:00 21.8 C 16.5 g/m*3 21.8 C 3.2 km/h
1703 27-07-2019 21:50:00 21.8 C 16.5 g/m*3 21.8 C 9.7 km/h
1704 27-07-2019 21:55:00 21.7 C 16.41 g/m*3 21.7 C 11.3 km/h
1705 27-07-2019 22:00:00 21.7 C 16.41 g/m*3 21.7 C 8.1 km/h
1706 27-07-2019 22:05:00 21.6 C 16.5 g/m*3 21.6 C 9.7 km/h
1707 27-07-2019 22:10:00 21.6 C 16.5 g/m*3 21.6 C 8.1 km/h
1708 27-07-2019 22:15:00 21.6 C 16.5 g/m*3 21.6 C 8.1 km/h
1709 27-07-2019 22:20:00 21.5 C 16.41 g/m*3 21.5 C 12.9 km/h
1710 27-07-2019 22:25:00 21.4 C 16.31 g/m*3 21.4 C 6.4 km/h
1711 27-07-2019 22:30:00 21.4 C 16.31 g/m*3 21.4 C 4.8 km/h
1712 27-07-2019 22:35:00 21.4 C 16.31 g/m*3 21.4 C 9.7 km/h
1713 27-07-2019 22:40:00 21.3 C 16.22 g/m*3 21.3 C 8.1 km/h
1714 27-07-2019 22:45:00 21.3 C 16.4 g/m*3 21.3 C 8.1 km/h
1715 27-07-2019 22:50:00 21.3 C 16.4 g/m*3 21.3 C 6.4 km/h
1716 27-07-2019 22:55:00 21.3 C 16.4 g/m*3 21.3 C 4.8 km/h
1717 27-07-2019 23:00:00 21.3 C 16.4 g/m*3 21.3 C 8.1 km/h
1718 27-07-2019 23:05:00 21.2 C 16.31 g/m*3 21.2 C 6.4 km/h
1719 27-07-2019 23:10:00 21.2 C 16.31 g/m*3 21.2 C 8.1 km/h
1720 27-07-2019 23:15:00 21.2 C 16.49 g/m*3 21.2 C 4.8 km/h
1721 27-07-2019 23:20:00 21.2 C 16.49 g/m*3 21.2 C 1.6 km/h
1722 27-07-2019 23:25:00 21.2 C 16.49 g/m*3 21.2 C 3.2 km/h
1723 27-07-2019 23:30:00 21.1 C 16.4 g/m*3 21.1 C 0 km/h
1724 27-07-2019 23:35:00 21.1 C 16.4 g/m*3 21.1 C 0 km/h
1725 27-07-2019 23:40:00 21.1 C 16.4 g/m*3 21.1 C 1.6 km/h
Sensor: Nr:Datum:Temp:Abs-Feuchte:Windchill:Wind:
Aussen-T/F 1726 27-07-2019 23:45:00 21.1 C 16.4 g/m*3 21.1 C 0 km/h
1727 27-07-2019 23:50:00 21 C 16.3 g/m*3 21 C 0 km/h
1728 27-07-2019 23:55:00 21 C 16.3 g/m*3 21 C 4.8 km/h
1729 28-07-2019 00:00:00 20.9 C 16.21 g/m*3 20.9 C 3.2 km/h
1730 28-07-2019 00:05:00 20.9 C 16.39 g/m*3 20.9 C 3.2 km/h
1731 28-07-2019 00:10:00 20.9 C 16.39 g/m*3 20.9 C 1.6 km/h
1732 28-07-2019 00:15:00 20.9 C 16.39 g/m*3 20.9 C 4.8 km/h
1733 28-07-2019 00:20:00 20.8 C 16.3 g/m*3 20.8 C 1.6 km/h
1734 28-07-2019 00:25:00 20.8 C 16.3 g/m*3 20.8 C 1.6 km/h
1735 28-07-2019 00:30:00 20.8 C 16.3 g/m*3 20.8 C 3.2 km/h
1736 28-07-2019 00:35:00 20.8 C 16.3 g/m*3 20.8 C 4.8 km/h
1737 28-07-2019 00:40:00 20.8 C 16.3 g/m*3 20.8 C 0 km/h
1738 28-07-2019 00:45:00 20.8 C 16.3 g/m*3 20.8 C 3.2 km/h
1739 28-07-2019 00:50:00 20.8 C 16.3 g/m*3 20.8 C 4.8 km/h
1740 28-07-2019 00:55:00 20.8 C 16.3 g/m*3 20.8 C 1.6 km/h
1741 28-07-2019 01:00:00 20.8 C 16.3 g/m*3 20.8 C 6.4 km/h
1742 28-07-2019 01:05:00 20.7 C 16.2 g/m*3 20.7 C 3.2 km/h
1743 28-07-2019 01:10:00 20.7 C 16.2 g/m*3 20.7 C 3.2 km/h
1744 28-07-2019 01:15:00 20.7 C 16.2 g/m*3 20.7 C 4.8 km/h
1745 28-07-2019 01:20:00 20.7 C 16.2 g/m*3 20.7 C 3.2 km/h
1746 28-07-2019 01:25:00 20.7 C 16.2 g/m*3 20.7 C 4.8 km/h
1747 28-07-2019 01:30:00 20.7 C 16.2 g/m*3 20.7 C 3.2 km/h
1748 28-07-2019 01:35:00 20.7 C 16.2 g/m*3 20.7 C 0 km/h
1749 28-07-2019 01:40:00 20.7 C 16.2 g/m*3 20.7 C 0 km/h
1750 28-07-2019 01:45:00 20.7 C 16.2 g/m*3 20.7 C 0 km/h
Sensor: Nr:Datum:Temp:Abs-Feuchte:Windchill:Wind:
Aussen-T/F 1751 28-07-2019 01:50:00 20.7 C 16.2 g/m*3 20.7 C 0 km/h
1752 28-07-2019 01:55:00 20.7 C 16.2 g/m*3 20.7 C 4.8 km/h
1753 28-07-2019 02:00:00 20.7 C 16.2 g/m*3 20.7 C 4.8 km/h
1754 28-07-2019 02:05:00 20.7 C 16.2 g/m*3 20.7 C 3.2 km/h
1755 28-07-2019 02:10:00 20.7 C 16.2 g/m*3 20.7 C 1.6 km/h
1756 28-07-2019 02:15:00 20.7 C 16.2 g/m*3 20.7 C 0 km/h
1757 28-07-2019 02:20:00 20.7 C 16.2 g/m*3 20.7 C 3.2 km/h
1758 28-07-2019 02:25:00 20.7 C 16.2 g/m*3 20.7 C 3.2 km/h
1759 28-07-2019 02:30:00 20.7 C 16.2 g/m*3 20.7 C 0 km/h
1760 28-07-2019 02:35:00 20.7 C 16.2 g/m*3 20.7 C 3.2 km/h
1761 28-07-2019 02:40:00 20.7 C 16.2 g/m*3 20.7 C 1.6 km/h
1762 28-07-2019 02:45:00 20.7 C 16.2 g/m*3 20.7 C 0 km/h
1763 28-07-2019 02:50:00 20.7 C 16.2 g/m*3 20.7 C 0 km/h
1764 28-07-2019 02:55:00 20.7 C 16.2 g/m*3 20.7 C 0 km/h
1765 28-07-2019 03:00:00 20.7 C 16.2 g/m*3 20.7 C 0 km/h
1766 28-07-2019 03:05:00 20.7 C 16.2 g/m*3 20.7 C 0 km/h
1767 28-07-2019 03:10:00 20.7 C 16.2 g/m*3 20.7 C 1.6 km/h
1768 28-07-2019 03:15:00 20.7 C 16.2 g/m*3 20.7 C 0 km/h
1769 28-07-2019 03:20:00 20.7 C 16.2 g/m*3 20.7 C 1.6 km/h
1770 28-07-2019 03:25:00 20.7 C 16.2 g/m*3 20.7 C 0 km/h
1771 28-07-2019 03:30:00 20.7 C 16.2 g/m*3 20.7 C 0 km/h
1772 28-07-2019 03:35:00 20.7 C 16.2 g/m*3 20.7 C 0 km/h
1773 28-07-2019 03:40:00 20.7 C 16.2 g/m*3 20.7 C 0 km/h
1774 28-07-2019 03:45:00 20.7 C 16.2 g/m*3 20.7 C 0 km/h
1775 28-07-2019 03:50:00 20.6 C 16.11 g/m*3 20.6 C 1.6 km/h
Sensor: Nr:Datum:Temp:Abs-Feuchte:Windchill:Wind:
Aussen-T/F 1776 28-07-2019 03:55:00 20.6 C 16.11 g/m*3 20.6 C 0 km/h
1777 28-07-2019 04:00:00 20.7 C 16.2 g/m*3 20.7 C 0 km/h
1778 28-07-2019 04:05:00 20.6 C 16.11 g/m*3 20.6 C 0 km/h
1779 28-07-2019 04:10:00 20.6 C 16.29 g/m*3 20.6 C 6.4 km/h
1780 28-07-2019 04:15:00 20.6 C 16.29 g/m*3 20.6 C 1.6 km/h
1781 28-07-2019 04:20:00 20.6 C 16.29 g/m*3 20.6 C 3.2 km/h
1782 28-07-2019 04:25:00 20.6 C 16.29 g/m*3 20.6 C 0 km/h
1783 28-07-2019 04:30:00 20.6 C 16.29 g/m*3 20.6 C 0 km/h
1784 28-07-2019 04:35:00 20.6 C 16.29 g/m*3 20.6 C 0 km/h
1785 28-07-2019 04:40:00 20.6 C 16.29 g/m*3 20.6 C 0 km/h
1786 28-07-2019 04:45:00 20.6 C 16.29 g/m*3 20.6 C 0 km/h
1787 28-07-2019 04:50:00 20.6 C 16.29 g/m*3 20.6 C 0 km/h
1788 28-07-2019 04:55:00 20.6 C 16.29 g/m*3 20.6 C 0 km/h
1789 28-07-2019 05:00:00 20.6 C 16.29 g/m*3 20.6 C 0 km/h
1790 28-07-2019 05:05:00 20.6 C 16.29 g/m*3 20.6 C 4.8 km/h
1791 28-07-2019 05:10:00 20.6 C 16.29 g/m*3 20.6 C 3.2 km/h
1792 28-07-2019 05:15:00 20.6 C 16.29 g/m*3 20.6 C 4.8 km/h
1793 28-07-2019 05:20:00 20.6 C 16.29 g/m*3 20.6 C 6.4 km/h
1794 28-07-2019 05:25:00 20.6 C 16.29 g/m*3 20.6 C 1.6 km/h
1795 28-07-2019 05:30:00 20.5 C 16.19 g/m*3 20.5 C 1.6 km/h
1796 28-07-2019 05:35:00 20.5 C 16.19 g/m*3 20.5 C 1.6 km/h
1797 28-07-2019 05:40:00 20.5 C 16.19 g/m*3 20.5 C 3.2 km/h
1798 28-07-2019 05:45:00 20.5 C 16.19 g/m*3 20.5 C 0 km/h
1799 28-07-2019 05:50:00 20.5 C 16.19 g/m*3 20.5 C 0 km/h
1800 28-07-2019 05:55:00 20.5 C 16.19 g/m*3 20.5 C 0 km/h
Sensor: Nr:Datum:Temp:Abs-Feuchte:Windchill:Wind:
Aussen-T/F 1801 28-07-2019 06:00:00 20.5 C 16.19 g/m*3 20.5 C 3.2 km/h
1802 28-07-2019 06:05:00 20.5 C 16.19 g/m*3 20.5 C 0 km/h
1803 28-07-2019 06:10:00 20.5 C 16.19 g/m*3 20.5 C 0 km/h
1804 28-07-2019 06:15:00 20.5 C 16.19 g/m*3 20.5 C 0 km/h
1805 28-07-2019 06:20:00 20.5 C 16.19 g/m*3 20.5 C 0 km/h
1806 28-07-2019 06:25:00 20.5 C 16.19 g/m*3 20.5 C 1.6 km/h
1807 28-07-2019 06:30:00 20.5 C 16.19 g/m*3 20.5 C 4.8 km/h
1808 28-07-2019 06:35:00 20.6 C 16.29 g/m*3 20.6 C 3.2 km/h
1809 28-07-2019 06:40:00 20.6 C 16.29 g/m*3 20.6 C 4.8 km/h
1810 28-07-2019 06:45:00 20.6 C 16.29 g/m*3 20.6 C 3.2 km/h
1811 28-07-2019 06:50:00 20.6 C 16.29 g/m*3 20.6 C 1.6 km/h
1812 28-07-2019 06:55:00 20.6 C 16.29 g/m*3 20.6 C 3.2 km/h
1813 28-07-2019 07:00:00 20.6 C 16.29 g/m*3 20.6 C 4.8 km/h
1814 28-07-2019 07:05:00 20.7 C 16.38 g/m*3 20.7 C 3.2 km/h
1815 28-07-2019 07:10:00 20.7 C 16.38 g/m*3 20.7 C 6.4 km/h
1816 28-07-2019 07:15:00 20.7 C 16.2 g/m*3 20.7 C 9.7 km/h
1817 28-07-2019 07:20:00 20.7 C 16.2 g/m*3 20.7 C 8.1 km/h
1818 28-07-2019 07:25:00 20.7 C 16.2 g/m*3 20.7 C 6.4 km/h
1819 28-07-2019 07:30:00 20.7 C 16.2 g/m*3 20.7 C 12.9 km/h
1820 28-07-2019 07:35:00 20.7 C 16.2 g/m*3 20.7 C 12.9 km/h
1821 28-07-2019 07:40:00 20.7 C 16.2 g/m*3 20.7 C 8.1 km/h
1822 28-07-2019 07:45:00 20.7 C 16.02 g/m*3 20.7 C 4.8 km/h
1823 28-07-2019 07:50:00 20.7 C 16.02 g/m*3 20.7 C 4.8 km/h
1824 28-07-2019 07:55:00 20.7 C 16.02 g/m*3 20.7 C 9.7 km/h
1825 28-07-2019 08:00:00 20.7 C 16.02 g/m*3 20.7 C 11.3 km/h
Sensor: Nr:Datum:Temp:Abs-Feuchte:Windchill:Wind:
Aussen-T/F 1826 28-07-2019 08:05:00 20.7 C 16.02 g/m*3 20.7 C 4.8 km/h
1827 28-07-2019 08:10:00 20.8 C 16.12 g/m*3 20.8 C 6.4 km/h
1828 28-07-2019 08:15:00 20.8 C 16.12 g/m*3 20.8 C 8.1 km/h
1829 28-07-2019 08:20:00 20.7 C 16.02 g/m*3 20.7 C 11.3 km/h
1830 28-07-2019 08:25:00 20.7 C 16.02 g/m*3 20.7 C 8.1 km/h
1831 28-07-2019 08:30:00 20.7 C 16.02 g/m*3 20.7 C 6.4 km/h
1832 28-07-2019 08:35:00 20.7 C 16.02 g/m*3 20.7 C 8.1 km/h
1833 28-07-2019 08:40:00 20.7 C 16.02 g/m*3 20.7 C 9.7 km/h
1834 28-07-2019 08:45:00 20.7 C 16.02 g/m*3 20.7 C 9.7 km/h
1835 28-07-2019 08:50:00 20.7 C 16.02 g/m*3 20.7 C 8.1 km/h
1836 28-07-2019 08:55:00 20.7 C 16.2 g/m*3 20.7 C 8.1 km/h
1837 28-07-2019 09:00:00 20.6 C 16.11 g/m*3 20.6 C 4.8 km/h
1838 28-07-2019 09:05:00 20.6 C 16.11 g/m*3 20.6 C 8.1 km/h
1839 28-07-2019 09:10:00 20.6 C 16.11 g/m*3 20.6 C 6.4 km/h
1840 28-07-2019 09:15:00 20.6 C 16.11 g/m*3 20.6 C 8.1 km/h
1841 28-07-2019 09:20:00 20.5 C 16.01 g/m*3 20.5 C 8.1 km/h
1842 28-07-2019 09:25:00 20.4 C 15.92 g/m*3 20.4 C 8.1 km/h
1843 28-07-2019 09:30:00 20.4 C 15.92 g/m*3 20.4 C 6.4 km/h
1844 28-07-2019 09:35:00 20.3 C 15.83 g/m*3 20.3 C 11.3 km/h
1845 28-07-2019 09:40:00 20.3 C 16 g/m*3 20.3 C 9.7 km/h
1846 28-07-2019 09:45:00 20.3 C 16 g/m*3 20.3 C 9.7 km/h
1847 28-07-2019 09:50:00 20.3 C 16 g/m*3 20.3 C 9.7 km/h
1848 28-07-2019 09:55:00 20.2 C 15.91 g/m*3 20.2 C 9.7 km/h
1849 28-07-2019 10:00:00 20.2 C 15.91 g/m*3 20.2 C 8.1 km/h
1850 28-07-2019 10:05:00 20.2 C 15.91 g/m*3 20.2 C 6.4 km/h
Sensor: Nr:Datum:Temp:Abs-Feuchte:Windchill:Wind:
Aussen-T/F 1851 28-07-2019 10:10:00 20.2 C 15.91 g/m*3 20.2 C 4.8 km/h
1852 28-07-2019 10:15:00 20.2 C 15.91 g/m*3 20.2 C 11.3 km/h
1853 28-07-2019 10:20:00 20.1 C 15.82 g/m*3 20.1 C 6.4 km/h
1854 28-07-2019 10:25:00 20.1 C 15.99 g/m*3 20.1 C 11.3 km/h
1855 28-07-2019 10:30:00 19.9 C 15.81 g/m*3 19.9 C 9.7 km/h
1856 28-07-2019 10:35:00 19.9 C 15.81 g/m*3 19.9 C 11.3 km/h
1857 28-07-2019 10:40:00 19.9 C 15.81 g/m*3 19.9 C 9.7 km/h
1858 28-07-2019 10:45:00 19.9 C 15.98 g/m*3 19.9 C 8.1 km/h
1859 28-07-2019 10:50:00 19.8 C 15.89 g/m*3 19.8 C 6.4 km/h
1860 28-07-2019 10:55:00 19.9 C 15.98 g/m*3 19.9 C 3.2 km/h
1861 28-07-2019 11:00:00 19.8 C 15.89 g/m*3 19.8 C 4.8 km/h
1862 28-07-2019 11:05:00 19.8 C 15.89 g/m*3 19.8 C 6.4 km/h
1863 28-07-2019 11:10:00 19.8 C 15.89 g/m*3 19.8 C 3.2 km/h
1864 28-07-2019 11:15:00 19.8 C 15.89 g/m*3 19.8 C 4.8 km/h
1865 28-07-2019 11:20:00 19.9 C 15.98 g/m*3 19.9 C 1.6 km/h
1866 28-07-2019 11:25:00 19.9 C 15.98 g/m*3 19.9 C 4.8 km/h
1867 28-07-2019 11:30:00 20.1 C 15.99 g/m*3 20.1 C 6.4 km/h
1868 28-07-2019 11:35:00 20.2 C 16.09 g/m*3 20.2 C 8.1 km/h
1869 28-07-2019 11:40:00 20.3 C 16 g/m*3 20.3 C 8.1 km/h
1870 28-07-2019 11:45:00 20.4 C 15.92 g/m*3 20.4 C 12.9 km/h
1871 28-07-2019 11:50:00 20.4 C 15.92 g/m*3 20.4 C 4.8 km/h
1872 28-07-2019 11:55:00 20.6 C 15.93 g/m*3 20.6 C 4.8 km/h
1873 28-07-2019 12:00:00 20.6 C 15.93 g/m*3 20.6 C 8.1 km/h
1874 28-07-2019 12:05:00 20.5 C 15.84 g/m*3 20.5 C 9.7 km/h
1875 28-07-2019 12:10:00 20.5 C 15.84 g/m*3 20.5 C 6.4 km/h
Sensor: Nr:Datum:Temp:Abs-Feuchte:Windchill:Wind:
Aussen-T/F 1876 28-07-2019 12:15:00 20.5 C 15.66 g/m*3 20.5 C 9.7 km/h
1877 28-07-2019 12:20:00 20.5 C 15.66 g/m*3 20.5 C 8.1 km/h
1878 28-07-2019 12:25:00 20.5 C 15.66 g/m*3 20.5 C 1.6 km/h
1879 28-07-2019 12:30:00 20.4 C 15.39 g/m*3 20.4 C 8.1 km/h
1880 28-07-2019 12:35:00 20.5 C 15.48 g/m*3 20.5 C 6.4 km/h
1881 28-07-2019 12:40:00 20.6 C 15.75 g/m*3 20.6 C 6.4 km/h
1882 28-07-2019 12:45:00 20.5 C 15.48 g/m*3 20.5 C 8.1 km/h
1883 28-07-2019 12:50:00 20.5 C 15.48 g/m*3 20.5 C 9.7 km/h
1884 28-07-2019 12:55:00 20.5 C 15.48 g/m*3 20.5 C 11.3 km/h
1885 28-07-2019 13:00:00 20.5 C 15.48 g/m*3 20.5 C 4.8 km/h
1886 28-07-2019 13:05:00 20.6 C 15.57 g/m*3 20.6 C 4.8 km/h
1887 28-07-2019 13:10:00 20.5 C 15.3 g/m*3 20.5 C 9.7 km/h
1888 28-07-2019 13:15:00 20.5 C 15.3 g/m*3 20.5 C 3.2 km/h
1889 28-07-2019 13:20:00 20.4 C 15.21 g/m*3 20.4 C 8.1 km/h
1890 28-07-2019 13:25:00 20.4 C 15.39 g/m*3 20.4 C 8.1 km/h
1891 28-07-2019 13:30:00 20.4 C 15.39 g/m*3 20.4 C 4.8 km/h
1892 28-07-2019 13:35:00 20.3 C 15.3 g/m*3 20.3 C 8.1 km/h
1893 28-07-2019 13:40:00 20.2 C 15.39 g/m*3 20.2 C 6.4 km/h
1894 28-07-2019 13:45:00 20.1 C 15.47 g/m*3 20.1 C 8.1 km/h
1895 28-07-2019 13:50:00 19.9 C 15.29 g/m*3 19.9 C 8.1 km/h
1896 28-07-2019 13:55:00 19.9 C 15.29 g/m*3 19.9 C 3.2 km/h
1897 28-07-2019 14:00:00 19.9 C 15.29 g/m*3 19.9 C 4.8 km/h
1898 28-07-2019 14:05:00 19.9 C 15.29 g/m*3 19.9 C 4.8 km/h
1899 28-07-2019 14:10:00 19.9 C 15.46 g/m*3 19.9 C 4.8 km/h
1900 28-07-2019 14:15:00 19.9 C 15.46 g/m*3 19.9 C 8.1 km/h
Sensor: Nr:Datum:Temp:Abs-Feuchte:Windchill:Wind:
Aussen-T/F 1901 28-07-2019 14:20:00 19.9 C 15.46 g/m*3 19.9 C 9.7 km/h
1902 28-07-2019 14:25:00 20 C 15.38 g/m*3 20 C 4.8 km/h
1903 28-07-2019 14:30:00 20.1 C 15.47 g/m*3 20.1 C 4.8 km/h
1904 28-07-2019 14:35:00 20.1 C 15.47 g/m*3 20.1 C 6.4 km/h
1905 28-07-2019 14:40:00 20.1 C 15.47 g/m*3 20.1 C 6.4 km/h
1906 28-07-2019 14:45:00 20.1 C 15.47 g/m*3 20.1 C 9.7 km/h
1907 28-07-2019 14:50:00 20 C 15.38 g/m*3 20 C 9.7 km/h
1908 28-07-2019 14:55:00 19.9 C 15.29 g/m*3 19.9 C 4.8 km/h
1909 28-07-2019 15:00:00 20 C 15.38 g/m*3 20 C 3.2 km/h
1910 28-07-2019 15:05:00 19.9 C 15.29 g/m*3 19.9 C 9.7 km/h
1911 28-07-2019 15:10:00 19.9 C 15.12 g/m*3 19.9 C 8.1 km/h
1912 28-07-2019 15:15:00 19.9 C 15.12 g/m*3 19.9 C 12.9 km/h
1913 28-07-2019 15:20:00 19.9 C 15.29 g/m*3 19.9 C 3.2 km/h
1914 28-07-2019 15:25:00 19.9 C 15.12 g/m*3 19.9 C 6.4 km/h
1915 28-07-2019 15:30:00 19.9 C 15.12 g/m*3 19.9 C 11.3 km/h
1916 28-07-2019 15:35:00 19.9 C 15.12 g/m*3 19.9 C 8.1 km/h
1917 28-07-2019 15:40:00 19.9 C 15.12 g/m*3 19.9 C 8.1 km/h
1918 28-07-2019 15:45:00 19.9 C 15.12 g/m*3 19.9 C 6.4 km/h
1919 28-07-2019 15:50:00 19.9 C 15.12 g/m*3 19.9 C 9.7 km/h
1920 28-07-2019 15:55:00 19.9 C 14.95 g/m*3 19.9 C 6.4 km/h
1921 28-07-2019 16:00:00 19.9 C 15.12 g/m*3 19.9 C 1.6 km/h
1922 28-07-2019 16:05:00 19.9 C 14.95 g/m*3 19.9 C 6.4 km/h
1923 28-07-2019 16:10:00 19.9 C 14.95 g/m*3 19.9 C 8.1 km/h
1924 28-07-2019 16:15:00 19.9 C 14.95 g/m*3 19.9 C 6.4 km/h
1925 28-07-2019 16:20:00 19.8 C 14.86 g/m*3 19.8 C 12.9 km/h
Sensor: Nr:Datum:Temp:Abs-Feuchte:Windchill:Wind:
Aussen-T/F 1926 28-07-2019 16:25:00 19.8 C 15.03 g/m*3 19.8 C 3.2 km/h
1927 28-07-2019 16:30:00 19.8 C 15.03 g/m*3 19.8 C 8.1 km/h
1928 28-07-2019 16:35:00 19.8 C 15.03 g/m*3 19.8 C 6.4 km/h
1929 28-07-2019 16:40:00 19.8 C 15.03 g/m*3 19.8 C 4.8 km/h
1930 28-07-2019 16:45:00 19.7 C 14.94 g/m*3 19.7 C 8.1 km/h
1931 28-07-2019 16:50:00 19.7 C 14.94 g/m*3 19.7 C 0 km/h
1932 28-07-2019 16:55:00 19.8 C 15.03 g/m*3 19.8 C 4.8 km/h
1933 28-07-2019 17:00:00 19.7 C 14.94 g/m*3 19.7 C 9.7 km/h
1934 28-07-2019 17:05:00 19.8 C 15.2 g/m*3 19.8 C 0 km/h
1935 28-07-2019 17:10:00 19.7 C 15.11 g/m*3 19.7 C 4.8 km/h
1936 28-07-2019 17:15:00 19.6 C 15.02 g/m*3 19.6 C 8.1 km/h
1937 28-07-2019 17:20:00 19.4 C 14.85 g/m*3 19.4 C 8.1 km/h
1938 28-07-2019 17:25:00 19.4 C 15.02 g/m*3 19.4 C 0 km/h
1939 28-07-2019 17:30:00 19.4 C 15.02 g/m*3 19.4 C 3.2 km/h
1940 28-07-2019 17:35:00 19.3 C 14.93 g/m*3 19.3 C 4.8 km/h
1941 28-07-2019 17:40:00 19.3 C 14.93 g/m*3 19.3 C 3.2 km/h
1942 28-07-2019 17:45:00 19.3 C 15.09 g/m*3 19.3 C 0 km/h
1943 28-07-2019 17:50:00 19.3 C 15.09 g/m*3 19.3 C 0 km/h
1944 28-07-2019 17:55:00 19.3 C 15.26 g/m*3 19.3 C 1.6 km/h
1945 28-07-2019 18:00:00 19.2 C 15.01 g/m*3 19.2 C 4.8 km/h
1946 28-07-2019 18:05:00 19.2 C 15.01 g/m*3 19.2 C 3.2 km/h
1947 28-07-2019 18:10:00 19.2 C 15.01 g/m*3 19.2 C 1.6 km/h
1948 28-07-2019 18:15:00 19.3 C 15.09 g/m*3 19.3 C 4.8 km/h
1949 28-07-2019 18:20:00 19.2 C 14.84 g/m*3 19.2 C 6.4 km/h
1950 28-07-2019 18:25:00 19.2 C 14.84 g/m*3 19.2 C 4.8 km/h
Sensor: Nr:Datum:Temp:Abs-Feuchte:Windchill:Wind:
Aussen-T/F 1951 28-07-2019 18:30:00 19.2 C 14.84 g/m*3 19.2 C 9.7 km/h
1952 28-07-2019 18:35:00 19.2 C 14.84 g/m*3 19.2 C 1.6 km/h
1953 28-07-2019 18:40:00 19.1 C 14.75 g/m*3 19.1 C 3.2 km/h
1954 28-07-2019 18:45:00 19.1 C 14.75 g/m*3 19.1 C 1.6 km/h
1955 28-07-2019 18:50:00 19.1 C 14.75 g/m*3 19.1 C 0 km/h
1956 28-07-2019 18:55:00 19.1 C 14.92 g/m*3 19.1 C 0 km/h
1957 28-07-2019 19:00:00 19.1 C 14.92 g/m*3 19.1 C 0 km/h
1958 28-07-2019 19:05:00 19.1 C 14.92 g/m*3 19.1 C 0 km/h
1959 28-07-2019 19:10:00 19 C 14.83 g/m*3 19 C 1.6 km/h
1960 28-07-2019 19:15:00 18.9 C 14.74 g/m*3 18.9 C 1.6 km/h
1961 28-07-2019 19:20:00 18.9 C 14.74 g/m*3 18.9 C 0 km/h
1962 28-07-2019 19:25:00 18.9 C 14.9 g/m*3 18.9 C 0 km/h
1963 28-07-2019 19:30:00 18.9 C 14.9 g/m*3 18.9 C 0 km/h
1964 28-07-2019 19:35:00 18.8 C 14.82 g/m*3 18.8 C 0 km/h
1965 28-07-2019 19:40:00 18.8 C 14.82 g/m*3 18.8 C 0 km/h
1966 28-07-2019 19:45:00 18.7 C 14.73 g/m*3 18.7 C 0 km/h
1967 28-07-2019 19:50:00 18.7 C 14.73 g/m*3 18.7 C 0 km/h
1968 28-07-2019 19:55:00 18.7 C 14.73 g/m*3 18.7 C 0 km/h
1969 28-07-2019 20:00:00 18.7 C 14.73 g/m*3 18.7 C 0 km/h
1970 28-07-2019 20:05:00 18.7 C 14.73 g/m*3 18.7 C 0 km/h
1971 28-07-2019 20:10:00 18.6 C 14.64 g/m*3 18.6 C 0 km/h
1972 28-07-2019 20:15:00 18.6 C 14.8 g/m*3 18.6 C 0 km/h
1973 28-07-2019 20:20:00 18.6 C 14.8 g/m*3 18.6 C 0 km/h
1974 28-07-2019 20:25:00 18.6 C 14.8 g/m*3 18.6 C 0 km/h
1975 28-07-2019 20:30:00 18.5 C 14.71 g/m*3 18.5 C 0 km/h
Sensor: Nr:Datum:Temp:Abs-Feuchte:Windchill:Wind:
Aussen-T/F 1976 28-07-2019 20:35:00 18.4 C 14.63 g/m*3 18.4 C 0 km/h
1977 28-07-2019 20:40:00 18.4 C 14.63 g/m*3 18.4 C 0 km/h
1978 28-07-2019 20:45:00 18.3 C 14.54 g/m*3 18.3 C 0 km/h
1979 28-07-2019 20:50:00 18.3 C 14.54 g/m*3 18.3 C 0 km/h
1980 28-07-2019 20:55:00 18.3 C 14.54 g/m*3 18.3 C 0 km/h
1981 28-07-2019 21:00:00 18.2 C 14.46 g/m*3 18.2 C 0 km/h
1982 28-07-2019 21:05:00 18.2 C 14.46 g/m*3 18.2 C 0 km/h
1983 28-07-2019 21:10:00 18.2 C 14.61 g/m*3 18.2 C 0 km/h
1984 28-07-2019 21:15:00 18.2 C 14.61 g/m*3 18.2 C 0 km/h
1985 28-07-2019 21:20:00 18.2 C 14.61 g/m*3 18.2 C 0 km/h
1986 28-07-2019 21:25:00 18.2 C 14.61 g/m*3 18.2 C 0 km/h
1987 28-07-2019 21:30:00 18.2 C 14.61 g/m*3 18.2 C 0 km/h
1988 28-07-2019 21:35:00 18.2 C 14.61 g/m*3 18.2 C 0 km/h
1989 28-07-2019 21:40:00 18.2 C 14.61 g/m*3 18.2 C 0 km/h
1990 28-07-2019 21:45:00 18.1 C 14.52 g/m*3 18.1 C 0 km/h
1991 28-07-2019 21:50:00 18.1 C 14.52 g/m*3 18.1 C 0 km/h
1992 28-07-2019 21:55:00 18.1 C 14.52 g/m*3 18.1 C 0 km/h
1993 28-07-2019 22:00:00 18.1 C 14.52 g/m*3 18.1 C 0 km/h
1994 28-07-2019 22:05:00 18.1 C 14.52 g/m*3 18.1 C 0 km/h
1995 28-07-2019 22:10:00 18 C 14.44 g/m*3 18 C 0 km/h
1996 28-07-2019 22:15:00 17.9 C 14.5 g/m*3 17.9 C 0 km/h
1997 28-07-2019 22:20:00 17.9 C 14.5 g/m*3 17.9 C 1.6 km/h
1998 28-07-2019 22:25:00 17.9 C 14.5 g/m*3 17.9 C 0 km/h
1999 28-07-2019 22:30:00 17.9 C 14.5 g/m*3 17.9 C 3.2 km/h
2000 28-07-2019 22:35:00 17.9 C 14.5 g/m*3 17.9 C 0 km/h
Sensor: Nr:Datum:Temp:Abs-Feuchte:Windchill:Wind:
Aussen-T/F 2001 28-07-2019 22:40:00 17.8 C 14.42 g/m*3 17.8 C 0 km/h
2002 28-07-2019 22:45:00 17.8 C 14.42 g/m*3 17.8 C 0 km/h
2003 28-07-2019 22:50:00 17.8 C 14.42 g/m*3 17.8 C 0 km/h
2004 28-07-2019 22:55:00 17.8 C 14.42 g/m*3 17.8 C 0 km/h
2005 28-07-2019 23:00:00 17.7 C 14.33 g/m*3 17.7 C 0 km/h
2006 28-07-2019 23:05:00 17.7 C 14.33 g/m*3 17.7 C 0 km/h
2007 28-07-2019 23:10:00 17.7 C 14.33 g/m*3 17.7 C 0 km/h
2008 28-07-2019 23:15:00 17.7 C 14.33 g/m*3 17.7 C 0 km/h
2009 28-07-2019 23:20:00 17.7 C 14.33 g/m*3 17.7 C 0 km/h
2010 28-07-2019 23:25:00 17.6 C 14.25 g/m*3 17.6 C 0 km/h
2011 28-07-2019 23:30:00 17.6 C 14.25 g/m*3 17.6 C 0 km/h
2012 28-07-2019 23:35:00 17.6 C 14.25 g/m*3 17.6 C 0 km/h
2013 28-07-2019 23:40:00 17.5 C 14.16 g/m*3 17.5 C 0 km/h
2014 28-07-2019 23:45:00 17.5 C 14.16 g/m*3 17.5 C 0 km/h
2015 28-07-2019 23:50:00 17.4 C 14.08 g/m*3 17.4 C 0 km/h
2016 28-07-2019 23:55:00 17.5 C 14.16 g/m*3 17.5 C 0 km/h
2017 29-07-2019 00:00:00 17.4 C 14.08 g/m*3 17.4 C 0 km/h
2018 29-07-2019 00:05:00 17.4 C 14.08 g/m*3 17.4 C 0 km/h
2019 29-07-2019 00:10:00 17.4 C 14.08 g/m*3 17.4 C 0 km/h
2020 29-07-2019 00:15:00 17.4 C 14.08 g/m*3 17.4 C 0 km/h
2021 29-07-2019 00:20:00 17.4 C 14.08 g/m*3 17.4 C 0 km/h
2022 29-07-2019 00:25:00 17.4 C 14.08 g/m*3 17.4 C 0 km/h
2023 29-07-2019 00:30:00 17.3 C 14 g/m*3 17.3 C 0 km/h
2024 29-07-2019 00:35:00 17.3 C 14 g/m*3 17.3 C 0 km/h
2025 29-07-2019 00:40:00 17.3 C 14 g/m*3 17.3 C 0 km/h
Sensor: Nr:Datum:Temp:Abs-Feuchte:Windchill:Wind:
Aussen-T/F 2026 29-07-2019 00:45:00 17.2 C 13.91 g/m*3 17.2 C 0 km/h
2027 29-07-2019 00:50:00 17.2 C 13.91 g/m*3 17.2 C 0 km/h
2028 29-07-2019 00:55:00 17.2 C 13.91 g/m*3 17.2 C 1.6 km/h
2029 29-07-2019 01:00:00 17.1 C 13.83 g/m*3 17.1 C 0 km/h
2030 29-07-2019 01:05:00 17.2 C 13.91 g/m*3 17.2 C 6.4 km/h
2031 29-07-2019 01:10:00 17.1 C 13.83 g/m*3 17.1 C 6.4 km/h
2032 29-07-2019 01:15:00 17.1 C 13.83 g/m*3 17.1 C 0 km/h
2033 29-07-2019 01:20:00 17.1 C 13.83 g/m*3 17.1 C 0 km/h
2034 29-07-2019 01:25:00 17.1 C 13.83 g/m*3 17.1 C 0 km/h
2035 29-07-2019 01:30:00 17.1 C 13.83 g/m*3 17.1 C 0 km/h
2036 29-07-2019 01:35:00 17.1 C 13.83 g/m*3 17.1 C 0 km/h
2037 29-07-2019 01:40:00 17.1 C 13.83 g/m*3 17.1 C 3.2 km/h
2038 29-07-2019 01:45:00 17.1 C 13.83 g/m*3 17.1 C 0 km/h
2039 29-07-2019 01:50:00 17.1 C 13.83 g/m*3 17.1 C 0 km/h
2040 29-07-2019 01:55:00 17.1 C 13.83 g/m*3 17.1 C 0 km/h
2041 29-07-2019 02:00:00 17.1 C 13.83 g/m*3 17.1 C 0 km/h
2042 29-07-2019 02:05:00 17 C 13.75 g/m*3 17 C 0 km/h
2043 29-07-2019 02:10:00 17 C 13.75 g/m*3 17 C 0 km/h
2044 29-07-2019 02:15:00 17 C 13.89 g/m*3 17 C 0 km/h
2045 29-07-2019 02:20:00 17 C 13.89 g/m*3 17 C 0 km/h
2046 29-07-2019 02:25:00 17 C 13.89 g/m*3 17 C 0 km/h
2047 29-07-2019 02:30:00 17 C 13.89 g/m*3 17 C 0 km/h
2048 29-07-2019 02:35:00 17 C 13.89 g/m*3 17 C 0 km/h
2049 29-07-2019 02:40:00 16.9 C 13.81 g/m*3 16.9 C 0 km/h
2050 29-07-2019 02:45:00 16.9 C 13.81 g/m*3 16.9 C 0 km/h
Sensor: Nr:Datum:Temp:Abs-Feuchte:Windchill:Wind:
Aussen-T/F 2051 29-07-2019 02:50:00 16.9 C 13.81 g/m*3 16.9 C 0 km/h
2052 29-07-2019 02:55:00 16.9 C 13.81 g/m*3 16.9 C 0 km/h
2053 29-07-2019 03:00:00 16.9 C 13.81 g/m*3 16.9 C 0 km/h
2054 29-07-2019 03:05:00 16.9 C 13.81 g/m*3 16.9 C 0 km/h
2055 29-07-2019 03:10:00 16.9 C 13.81 g/m*3 16.9 C 0 km/h
2056 29-07-2019 03:15:00 16.9 C 13.81 g/m*3 16.9 C 0 km/h
2057 29-07-2019 03:20:00 16.9 C 13.81 g/m*3 16.9 C 0 km/h
2058 29-07-2019 03:25:00 16.8 C 13.73 g/m*3 16.8 C 0 km/h
2059 29-07-2019 03:30:00 16.8 C 13.73 g/m*3 16.8 C 0 km/h
2060 29-07-2019 03:35:00 16.8 C 13.73 g/m*3 16.8 C 0 km/h
2061 29-07-2019 03:40:00 16.8 C 13.73 g/m*3 16.8 C 0 km/h
2062 29-07-2019 03:45:00 16.8 C 13.73 g/m*3 16.8 C 0 km/h
2063 29-07-2019 03:50:00 16.8 C 13.73 g/m*3 16.8 C 0 km/h
2064 29-07-2019 03:55:00 16.8 C 13.73 g/m*3 16.8 C 0 km/h
2065 29-07-2019 04:00:00 16.9 C 13.81 g/m*3 16.9 C 0 km/h
2066 29-07-2019 04:05:00 16.8 C 13.73 g/m*3 16.8 C 0 km/h
2067 29-07-2019 04:10:00 16.8 C 13.73 g/m*3 16.8 C 0 km/h
2068 29-07-2019 04:15:00 16.8 C 13.73 g/m*3 16.8 C 0 km/h
2069 29-07-2019 04:20:00 16.8 C 13.73 g/m*3 16.8 C 0 km/h
2070 29-07-2019 04:25:00 16.8 C 13.73 g/m*3 16.8 C 0 km/h
2071 29-07-2019 04:30:00 16.8 C 13.73 g/m*3 16.8 C 0 km/h
2072 29-07-2019 04:35:00 16.8 C 13.73 g/m*3 16.8 C 0 km/h
2073 29-07-2019 04:40:00 16.8 C 13.73 g/m*3 16.8 C 0 km/h
2074 29-07-2019 04:45:00 16.8 C 13.73 g/m*3 16.8 C 0 km/h
2075 29-07-2019 04:50:00 16.8 C 13.73 g/m*3 16.8 C 0 km/h
Sensor: Nr:Datum:Temp:Abs-Feuchte:Windchill:Wind:
Aussen-T/F 2076 29-07-2019 04:55:00 16.8 C 13.73 g/m*3 16.8 C 0 km/h
2077 29-07-2019 05:00:00 16.8 C 13.73 g/m*3 16.8 C 0 km/h
2078 29-07-2019 05:05:00 16.8 C 13.73 g/m*3 16.8 C 0 km/h
2079 29-07-2019 05:10:00 16.8 C 13.73 g/m*3 16.8 C 0 km/h
2080 29-07-2019 05:15:00 16.8 C 13.73 g/m*3 16.8 C 0 km/h
2081 29-07-2019 05:20:00 16.8 C 13.73 g/m*3 16.8 C 0 km/h
2082 29-07-2019 05:25:00 16.7 C 13.64 g/m*3 16.7 C 0 km/h
2083 29-07-2019 05:30:00 16.7 C 13.64 g/m*3 16.7 C 0 km/h
2084 29-07-2019 05:35:00 16.7 C 13.64 g/m*3 16.7 C 0 km/h
2085 29-07-2019 05:40:00 16.7 C 13.64 g/m*3 16.7 C 0 km/h
2086 29-07-2019 05:45:00 16.7 C 13.64 g/m*3 16.7 C 0 km/h
2087 29-07-2019 05:50:00 16.7 C 13.64 g/m*3 16.7 C 0 km/h
2088 29-07-2019 05:55:00 16.7 C 13.64 g/m*3 16.7 C 0 km/h
2089 29-07-2019 06:00:00 16.7 C 13.64 g/m*3 16.7 C 0 km/h
2090 29-07-2019 06:05:00 16.7 C 13.64 g/m*3 16.7 C 0 km/h
2091 29-07-2019 06:10:00 16.7 C 13.64 g/m*3 16.7 C 0 km/h
2092 29-07-2019 06:15:00 16.7 C 13.64 g/m*3 16.7 C 0 km/h
2093 29-07-2019 06:20:00 16.7 C 13.64 g/m*3 16.7 C 0 km/h
2094 29-07-2019 06:25:00 16.7 C 13.64 g/m*3 16.7 C 0 km/h
2095 29-07-2019 06:30:00 16.7 C 13.64 g/m*3 16.7 C 0 km/h
2096 29-07-2019 06:35:00 16.7 C 13.64 g/m*3 16.7 C 0 km/h
2097 29-07-2019 06:40:00 16.7 C 13.64 g/m*3 16.7 C 0 km/h
2098 29-07-2019 06:45:00 16.8 C 13.73 g/m*3 16.8 C 0 km/h
2099 29-07-2019 06:50:00 16.8 C 13.73 g/m*3 16.8 C 0 km/h
2100 29-07-2019 06:55:00 16.8 C 13.73 g/m*3 16.8 C 0 km/h
Sensor: Nr:Datum:Temp:Abs-Feuchte:Windchill:Wind:
Aussen-T/F 2101 29-07-2019 07:00:00 16.9 C 13.81 g/m*3 16.9 C 0 km/h
2102 29-07-2019 07:05:00 16.9 C 13.81 g/m*3 16.9 C 0 km/h
2103 29-07-2019 07:10:00 16.9 C 13.81 g/m*3 16.9 C 0 km/h
2104 29-07-2019 07:15:00 17 C 13.89 g/m*3 17 C 0 km/h
2105 29-07-2019 07:20:00 17.1 C 13.97 g/m*3 17.1 C 3.2 km/h
2106 29-07-2019 07:25:00 17.1 C 13.97 g/m*3 17.1 C 3.2 km/h
2107 29-07-2019 07:30:00 16.9 C 13.81 g/m*3 16.9 C 4.8 km/h
2108 29-07-2019 07:35:00 16.9 C 13.81 g/m*3 16.9 C 4.8 km/h
2109 29-07-2019 07:40:00 17 C 13.89 g/m*3 17 C 3.2 km/h
2110 29-07-2019 07:45:00 17 C 13.75 g/m*3 17 C 4.8 km/h
2111 29-07-2019 07:50:00 17.1 C 13.83 g/m*3 17.1 C 1.6 km/h
2112 29-07-2019 07:55:00 17.1 C 13.83 g/m*3 17.1 C 0 km/h
2113 29-07-2019 08:00:00 17.2 C 13.91 g/m*3 17.2 C 1.6 km/h
2114 29-07-2019 08:05:00 17.2 C 13.77 g/m*3 17.2 C 0 km/h
2115 29-07-2019 08:10:00 17.3 C 13.85 g/m*3 17.3 C 3.2 km/h
2116 29-07-2019 08:15:00 17.3 C 13.7 g/m*3 17.3 C 3.2 km/h
2117 29-07-2019 08:20:00 17.4 C 13.93 g/m*3 17.4 C 0 km/h
2118 29-07-2019 08:25:00 17.4 C 13.78 g/m*3 17.4 C 0 km/h
2119 29-07-2019 08:30:00 17.4 C 13.63 g/m*3 17.4 C 0 km/h
2120 29-07-2019 08:35:00 17.6 C 13.8 g/m*3 17.6 C 0 km/h
2121 29-07-2019 08:40:00 17.6 C 13.8 g/m*3 17.6 C 0 km/h
2122 29-07-2019 08:45:00 17.6 C 13.65 g/m*3 17.6 C 1.6 km/h
2123 29-07-2019 08:50:00 17.7 C 13.58 g/m*3 17.7 C 3.2 km/h
2124 29-07-2019 08:55:00 17.9 C 13.89 g/m*3 17.9 C 3.2 km/h
2125 29-07-2019 09:00:00 18 C 13.82 g/m*3 18 C 0 km/h
Sensor: Nr:Datum:Temp:Abs-Feuchte:Windchill:Wind:
Aussen-T/F 2126 29-07-2019 09:05:00 18.2 C 13.99 g/m*3 18.2 C 4.8 km/h
2127 29-07-2019 09:10:00 18.2 C 13.68 g/m*3 18.2 C 8.1 km/h
2128 29-07-2019 09:15:00 18.3 C 13.76 g/m*3 18.3 C 0 km/h
2129 29-07-2019 09:20:00 18.3 C 13.76 g/m*3 18.3 C 1.6 km/h
2130 29-07-2019 09:25:00 18.4 C 13.68 g/m*3 18.4 C 9.7 km/h
2131 29-07-2019 09:30:00 18.6 C 13.69 g/m*3 18.6 C 11.3 km/h
2132 29-07-2019 09:35:00 18.7 C 13.77 g/m*3 18.7 C 9.7 km/h
2133 29-07-2019 09:40:00 18.8 C 13.53 g/m*3 18.8 C 9.7 km/h
2134 29-07-2019 09:45:00 18.8 C 13.37 g/m*3 18.8 C 6.4 km/h
2135 29-07-2019 09:50:00 18.8 C 13.37 g/m*3 18.8 C 4.8 km/h
2136 29-07-2019 09:55:00 18.8 C 13.37 g/m*3 18.8 C 6.4 km/h
2137 29-07-2019 10:00:00 18.8 C 13.21 g/m*3 18.8 C 4.8 km/h
2138 29-07-2019 10:05:00 18.8 C 13.37 g/m*3 18.8 C 4.8 km/h
2139 29-07-2019 10:10:00 18.9 C 13.45 g/m*3 18.9 C 4.8 km/h
2140 29-07-2019 10:15:00 19.1 C 13.28 g/m*3 19.1 C 6.4 km/h
2141 29-07-2019 10:20:00 19.3 C 13.27 g/m*3 19.3 C 6.4 km/h
2142 29-07-2019 10:25:00 19.4 C 13.18 g/m*3 19.4 C 9.7 km/h
2143 29-07-2019 10:30:00 19.5 C 13.26 g/m*3 19.5 C 4.8 km/h
2144 29-07-2019 10:35:00 19.7 C 13.41 g/m*3 19.7 C 6.4 km/h
2145 29-07-2019 10:40:00 19.7 C 13.08 g/m*3 19.7 C 6.4 km/h
2146 29-07-2019 10:45:00 19.8 C 13.32 g/m*3 19.8 C 6.4 km/h
2147 29-07-2019 10:50:00 19.8 C 12.98 g/m*3 19.8 C 3.2 km/h
2148 29-07-2019 10:55:00 19.9 C 12.89 g/m*3 19.9 C 8.1 km/h
2149 29-07-2019 11:00:00 19.9 C 12.89 g/m*3 19.9 C 4.8 km/h
2150 29-07-2019 11:05:00 20 C 13.13 g/m*3 20 C 8.1 km/h
Sensor: Nr:Datum:Temp:Abs-Feuchte:Windchill:Wind:
Aussen-T/F 2151 29-07-2019 11:10:00 20 C 12.96 g/m*3 20 C 8.1 km/h
2152 29-07-2019 11:15:00 20.1 C 13.04 g/m*3 20.1 C 4.8 km/h
2153 29-07-2019 11:20:00 20.2 C 13.11 g/m*3 20.2 C 4.8 km/h
2154 29-07-2019 11:25:00 20.3 C 13.37 g/m*3 20.3 C 8.1 km/h
2155 29-07-2019 11:30:00 20.4 C 13.09 g/m*3 20.4 C 11.3 km/h
2156 29-07-2019 11:35:00 20.6 C 13.07 g/m*3 20.6 C 4.8 km/h
2157 29-07-2019 11:40:00 20.8 C 13.04 g/m*3 20.8 C 4.8 km/h
2158 29-07-2019 11:45:00 21 C 13.19 g/m*3 21 C 6.4 km/h
2159 29-07-2019 11:50:00 21.2 C 13.34 g/m*3 21.2 C 6.4 km/h
2160 29-07-2019 11:55:00 21.2 C 12.97 g/m*3 21.2 C 9.7 km/h
2161 29-07-2019 12:00:00 21.4 C 12.75 g/m*3 21.4 C 11.3 km/h
2162 29-07-2019 12:05:00 21.5 C 12.63 g/m*3 21.5 C 6.4 km/h
2163 29-07-2019 12:10:00 21.6 C 13.09 g/m*3 21.6 C 3.2 km/h
2164 29-07-2019 12:15:00 21.6 C 12.9 g/m*3 21.6 C 1.6 km/h
2165 29-07-2019 12:20:00 21.8 C 13.05 g/m*3 21.8 C 9.7 km/h
2166 29-07-2019 12:25:00 21.9 C 12.74 g/m*3 21.9 C 9.7 km/h
2167 29-07-2019 12:30:00 22.1 C 12.88 g/m*3 22.1 C 11.3 km/h
2168 29-07-2019 12:35:00 22.1 C 12.69 g/m*3 22.1 C 9.7 km/h
2169 29-07-2019 12:40:00 22.2 C 12.96 g/m*3 22.2 C 8.1 km/h
2170 29-07-2019 12:45:00 22.3 C 12.83 g/m*3 22.3 C 8.1 km/h
2171 29-07-2019 12:50:00 22.4 C 12.91 g/m*3 22.4 C 8.1 km/h
2172 29-07-2019 12:55:00 22.5 C 12.78 g/m*3 22.5 C 8.1 km/h
2173 29-07-2019 13:00:00 22.6 C 13.06 g/m*3 22.6 C 8.1 km/h
2174 29-07-2019 13:05:00 22.7 C 12.73 g/m*3 22.7 C 9.7 km/h
2175 29-07-2019 13:10:00 22.8 C 13 g/m*3 22.8 C 6.4 km/h
Sensor: Nr:Datum:Temp:Abs-Feuchte:Windchill:Wind:
Aussen-T/F 2176 29-07-2019 13:15:00 23 C 12.54 g/m*3 23 C 11.3 km/h
2177 29-07-2019 13:20:00 23.2 C 12.68 g/m*3 23.2 C 9.7 km/h
2178 29-07-2019 13:25:00 23.3 C 12.96 g/m*3 23.3 C 6.4 km/h
2179 29-07-2019 13:30:00 23.5 C 12.9 g/m*3 23.5 C 9.7 km/h
2180 29-07-2019 13:35:00 23.6 C 13.19 g/m*3 23.6 C 8.1 km/h
2181 29-07-2019 13:40:00 23.5 C 13.11 g/m*3 23.5 C 6.4 km/h
2182 29-07-2019 13:45:00 23.5 C 13.11 g/m*3 23.5 C 4.8 km/h
2183 29-07-2019 13:50:00 23.6 C 12.97 g/m*3 23.6 C 8.1 km/h
2184 29-07-2019 13:55:00 23.7 C 12.83 g/m*3 23.7 C 9.7 km/h
2185 29-07-2019 14:00:00 23.7 C 12.83 g/m*3 23.7 C 3.2 km/h
2186 29-07-2019 14:05:00 23.8 C 12.91 g/m*3 23.8 C 8.1 km/h
2187 29-07-2019 14:10:00 23.9 C 13.2 g/m*3 23.9 C 1.6 km/h
2188 29-07-2019 14:15:00 24.2 C 12.98 g/m*3 24.2 C 11.3 km/h
2189 29-07-2019 14:20:00 24.4 C 12.91 g/m*3 24.4 C 11.3 km/h
2190 29-07-2019 14:25:00 24.5 C 12.98 g/m*3 24.5 C 8.1 km/h
2191 29-07-2019 14:30:00 24.7 C 12.68 g/m*3 24.7 C 6.4 km/h
2192 29-07-2019 14:35:00 24.7 C 12.9 g/m*3 24.7 C 0 km/h
2193 29-07-2019 14:40:00 24.7 C 12.9 g/m*3 24.7 C 3.2 km/h
2194 29-07-2019 14:45:00 24.8 C 12.29 g/m*3 24.8 C 9.7 km/h
2195 29-07-2019 14:50:00 24.8 C 12.52 g/m*3 24.8 C 4.8 km/h
2196 29-07-2019 14:55:00 24.8 C 12.52 g/m*3 24.8 C 11.3 km/h
2197 29-07-2019 15:00:00 24.8 C 12.29 g/m*3 24.8 C 9.7 km/h
2198 29-07-2019 15:05:00 24.9 C 12.36 g/m*3 24.9 C 6.4 km/h
2199 29-07-2019 15:10:00 25.1 C 12.5 g/m*3 25.1 C 12.9 km/h
2200 29-07-2019 15:15:00 25.4 C 12.48 g/m*3 25.4 C 12.9 km/h
Sensor: Nr:Datum:Temp:Abs-Feuchte:Windchill:Wind:
Aussen-T/F 2201 29-07-2019 15:20:00 25.6 C 12.38 g/m*3 25.6 C 9.7 km/h
2202 29-07-2019 15:25:00 25.7 C 12.21 g/m*3 25.7 C 11.3 km/h
2203 29-07-2019 15:30:00 25.9 C 12.35 g/m*3 25.9 C 14.5 km/h
2204 29-07-2019 15:35:00 26.1 C 12.49 g/m*3 26.1 C 14.5 km/h
2205 29-07-2019 15:40:00 26.1 C 12.24 g/m*3 26.1 C 12.9 km/h
2206 29-07-2019 15:45:00 26.4 C 12.45 g/m*3 26.4 C 9.7 km/h
2207 29-07-2019 15:50:00 26.8 C 12.47 g/m*3 26.8 C 6.4 km/h
2208 29-07-2019 15:55:00 27.2 C 12.49 g/m*3 27.2 C 9.7 km/h
2209 29-07-2019 16:00:00 27.3 C 12.3 g/m*3 27.3 C 8.1 km/h
2210 29-07-2019 16:05:00 27.4 C 12.37 g/m*3 27.4 C 9.7 km/h
2211 29-07-2019 16:10:00 27.6 C 12.24 g/m*3 27.6 C 8.1 km/h
2212 29-07-2019 16:15:00 27.3 C 12.3 g/m*3 27.3 C 9.7 km/h
2213 29-07-2019 16:20:00 27.2 C 12.23 g/m*3 27.2 C 6.4 km/h
2214 29-07-2019 16:25:00 27.2 C 11.97 g/m*3 27.2 C 12.9 km/h
2215 29-07-2019 16:30:00 27.3 C 12.3 g/m*3 27.3 C 3.2 km/h
2216 29-07-2019 16:35:00 27.7 C 12.04 g/m*3 27.7 C 8.1 km/h
2217 29-07-2019 16:40:00 27.9 C 12.17 g/m*3 27.9 C 6.4 km/h
2218 29-07-2019 16:45:00 28.2 C 12.1 g/m*3 28.2 C 6.4 km/h
2219 29-07-2019 16:50:00 28.2 C 12.1 g/m*3 28.2 C 4.8 km/h
2220 29-07-2019 16:55:00 27.9 C 11.9 g/m*3 27.9 C 9.7 km/h
2221 29-07-2019 17:00:00 27.9 C 12.17 g/m*3 27.9 C 11.3 km/h
2222 29-07-2019 17:05:00 28 C 12.24 g/m*3 28 C 8.1 km/h
2223 29-07-2019 17:10:00 28.3 C 12.16 g/m*3 28.3 C 8.1 km/h
2224 29-07-2019 17:15:00 28.4 C 11.95 g/m*3 28.4 C 11.3 km/h
2225 29-07-2019 17:20:00 28.3 C 11.61 g/m*3 28.3 C 6.4 km/h
Sensor: Nr:Datum:Temp:Abs-Feuchte:Windchill:Wind:
Aussen-T/F 2226 29-07-2019 17:25:00 28.4 C 11.95 g/m*3 28.4 C 9.7 km/h
2227 29-07-2019 17:30:00 28.4 C 11.67 g/m*3 28.4 C 6.4 km/h
2228 29-07-2019 17:35:00 28.4 C 11.95 g/m*3 28.4 C 4.8 km/h
2229 29-07-2019 17:40:00 28.6 C 12.08 g/m*3 28.6 C 9.7 km/h
2230 29-07-2019 17:45:00 28.3 C 11.89 g/m*3 28.3 C 8.1 km/h
2231 29-07-2019 17:50:00 28.1 C 11.76 g/m*3 28.1 C 4.8 km/h
2232 29-07-2019 17:55:00 27.7 C 11.5 g/m*3 27.7 C 4.8 km/h
2233 29-07-2019 18:00:00 27.4 C 11.58 g/m*3 27.4 C 11.3 km/h
2234 29-07-2019 18:05:00 27.2 C 11.45 g/m*3 27.2 C 4.8 km/h
2235 29-07-2019 18:10:00 27.1 C 11.65 g/m*3 27.1 C 3.2 km/h
2236 29-07-2019 18:15:00 27.3 C 11.77 g/m*3 27.3 C 4.8 km/h
2237 29-07-2019 18:20:00 27.4 C 11.58 g/m*3 27.4 C 4.8 km/h
2238 29-07-2019 18:25:00 27.4 C 11.58 g/m*3 27.4 C 1.6 km/h
2239 29-07-2019 18:30:00 27.4 C 11.58 g/m*3 27.4 C 3.2 km/h
2240 29-07-2019 18:35:00 27.7 C 11.77 g/m*3 27.7 C 3.2 km/h
2241 29-07-2019 18:40:00 28 C 11.69 g/m*3 28 C 6.4 km/h
2242 29-07-2019 18:45:00 28.3 C 11.61 g/m*3 28.3 C 4.8 km/h
2243 29-07-2019 18:50:00 28.6 C 11.8 g/m*3 28.6 C 6.4 km/h
2244 29-07-2019 18:55:00 28.7 C 11.59 g/m*3 28.7 C 4.8 km/h
2245 29-07-2019 19:00:00 28.8 C 11.65 g/m*3 28.8 C 6.4 km/h
2246 29-07-2019 19:05:00 28.9 C 12 g/m*3 28.9 C 4.8 km/h
2247 29-07-2019 19:10:00 28.9 C 11.71 g/m*3 28.9 C 4.8 km/h
2248 29-07-2019 19:15:00 28.8 C 11.65 g/m*3 28.8 C 4.8 km/h
2249 29-07-2019 19:20:00 28.6 C 11.8 g/m*3 28.6 C 9.7 km/h
2250 29-07-2019 19:25:00 28.1 C 11.76 g/m*3 28.1 C 8.1 km/h
Sensor: Nr:Datum:Temp:Abs-Feuchte:Windchill:Wind:
Aussen-T/F 2251 29-07-2019 19:30:00 27.9 C 11.9 g/m*3 27.9 C 6.4 km/h
2252 29-07-2019 19:35:00 27.7 C 11.77 g/m*3 27.7 C 8.1 km/h
2253 29-07-2019 19:40:00 27.6 C 11.97 g/m*3 27.6 C 6.4 km/h
2254 29-07-2019 19:45:00 27.4 C 12.1 g/m*3 27.4 C 4.8 km/h
2255 29-07-2019 19:50:00 27.3 C 11.77 g/m*3 27.3 C 6.4 km/h
2256 29-07-2019 19:55:00 27.2 C 11.97 g/m*3 27.2 C 4.8 km/h
2257 29-07-2019 20:00:00 27.1 C 11.9 g/m*3 27.1 C 6.4 km/h
2258 29-07-2019 20:05:00 27 C 12.1 g/m*3 27 C 6.4 km/h
2259 29-07-2019 20:10:00 26.8 C 11.96 g/m*3 26.8 C 8.1 km/h
2260 29-07-2019 20:15:00 26.6 C 12.08 g/m*3 26.6 C 6.4 km/h
2261 29-07-2019 20:20:00 26.4 C 12.2 g/m*3 26.4 C 6.4 km/h
2262 29-07-2019 20:25:00 26.3 C 12.13 g/m*3 26.3 C 4.8 km/h
2263 29-07-2019 20:30:00 26.3 C 12.38 g/m*3 26.3 C 3.2 km/h
2264 29-07-2019 20:35:00 26.2 C 12.31 g/m*3 26.2 C 0 km/h
2265 29-07-2019 20:40:00 26 C 12.17 g/m*3 26 C 0 km/h
2266 29-07-2019 20:45:00 25.9 C 12.35 g/m*3 25.9 C 0 km/h
2267 29-07-2019 20:50:00 25.8 C 12.28 g/m*3 25.8 C 0 km/h
2268 29-07-2019 20:55:00 25.6 C 12.38 g/m*3 25.6 C 0 km/h
2269 29-07-2019 21:00:00 25.3 C 12.88 g/m*3 25.3 C 0 km/h
2270 29-07-2019 21:05:00 24.9 C 12.82 g/m*3 24.9 C 0 km/h
2271 29-07-2019 21:10:00 24.5 C 13.2 g/m*3 24.5 C 0 km/h
2272 29-07-2019 21:15:00 24 C 12.84 g/m*3 24 C 0 km/h
2273 29-07-2019 21:20:00 23.5 C 12.69 g/m*3 23.5 C 0 km/h
2274 29-07-2019 21:25:00 23 C 12.54 g/m*3 23 C 0 km/h
2275 29-07-2019 21:30:00 22.6 C 12.66 g/m*3 22.6 C 0 km/h
Sensor: Nr:Datum:Temp:Abs-Feuchte:Windchill:Wind:
Aussen-T/F 2276 29-07-2019 21:35:00 22.2 C 12.57 g/m*3 22.2 C 0 km/h
2277 29-07-2019 21:40:00 21.9 C 12.54 g/m*3 21.9 C 0 km/h
2278 29-07-2019 21:45:00 21.8 C 12.66 g/m*3 21.8 C 0 km/h
2279 29-07-2019 21:50:00 21.6 C 12.52 g/m*3 21.6 C 0 km/h
2280 29-07-2019 21:55:00 21.4 C 12.37 g/m*3 21.4 C 0 km/h
2281 29-07-2019 22:00:00 21.3 C 12.49 g/m*3 21.3 C 0 km/h
2282 29-07-2019 22:05:00 21.2 C 12.6 g/m*3 21.2 C 0 km/h
2283 29-07-2019 22:10:00 21.1 C 12.53 g/m*3 21.1 C 0 km/h
2284 29-07-2019 22:15:00 21 C 12.46 g/m*3 21 C 0 km/h
2285 29-07-2019 22:20:00 20.9 C 12.38 g/m*3 20.9 C 0 km/h
2286 29-07-2019 22:25:00 20.8 C 12.49 g/m*3 20.8 C 0 km/h
2287 29-07-2019 22:30:00 20.8 C 12.67 g/m*3 20.8 C 0 km/h
2288 29-07-2019 22:35:00 20.7 C 12.78 g/m*3 20.7 C 0 km/h
2289 29-07-2019 22:40:00 20.6 C 12.71 g/m*3 20.6 C 0 km/h
2290 29-07-2019 22:45:00 20.4 C 12.56 g/m*3 20.4 C 0 km/h
2291 29-07-2019 22:50:00 20.2 C 12.59 g/m*3 20.2 C 0 km/h
2292 29-07-2019 22:55:00 20.1 C 12.69 g/m*3 20.1 C 0 km/h
2293 29-07-2019 23:00:00 20 C 12.62 g/m*3 20 C 0 km/h
2294 29-07-2019 23:05:00 19.9 C 12.54 g/m*3 19.9 C 0 km/h
2295 29-07-2019 23:10:00 19.8 C 12.64 g/m*3 19.8 C 0 km/h
2296 29-07-2019 23:15:00 19.7 C 12.74 g/m*3 19.7 C 0 km/h
2297 29-07-2019 23:20:00 19.6 C 12.66 g/m*3 19.6 C 0 km/h
2298 29-07-2019 23:25:00 19.4 C 12.51 g/m*3 19.4 C 0 km/h
2299 29-07-2019 23:30:00 19.3 C 12.61 g/m*3 19.3 C 0 km/h
2300 29-07-2019 23:35:00 19.1 C 12.46 g/m*3 19.1 C 0 km/h
Sensor: Nr:Datum:Temp:Abs-Feuchte:Windchill:Wind:
Aussen-T/F 2301 29-07-2019 23:40:00 19 C 12.55 g/m*3 19 C 0 km/h
2302 29-07-2019 23:45:00 18.8 C 12.4 g/m*3 18.8 C 0 km/h
2303 29-07-2019 23:50:00 18.8 C 12.56 g/m*3 18.8 C 0 km/h
2304 29-07-2019 23:55:00 18.7 C 12.49 g/m*3 18.7 C 0 km/h
2305 30-07-2019 00:00:00 18.5 C 12.5 g/m*3 18.5 C 0 km/h
2306 30-07-2019 00:05:00 18.3 C 12.35 g/m*3 18.3 C 0 km/h
2307 30-07-2019 00:10:00 18.2 C 12.43 g/m*3 18.2 C 0 km/h
2308 30-07-2019 00:15:00 18.1 C 12.36 g/m*3 18.1 C 0 km/h
2309 30-07-2019 00:20:00 18 C 12.44 g/m*3 18 C 0 km/h
2310 30-07-2019 00:25:00 17.9 C 12.37 g/m*3 17.9 C 0 km/h
2311 30-07-2019 00:30:00 17.8 C 12.29 g/m*3 17.8 C 0 km/h
2312 30-07-2019 00:35:00 17.8 C 12.45 g/m*3 17.8 C 0 km/h
2313 30-07-2019 00:40:00 17.7 C 12.37 g/m*3 17.7 C 0 km/h
2314 30-07-2019 00:45:00 17.7 C 12.37 g/m*3 17.7 C 0 km/h
2315 30-07-2019 00:50:00 17.7 C 12.52 g/m*3 17.7 C 0 km/h
2316 30-07-2019 00:55:00 17.7 C 12.52 g/m*3 17.7 C 0 km/h
2317 30-07-2019 01:00:00 17.7 C 12.52 g/m*3 17.7 C 0 km/h
2318 30-07-2019 01:05:00 17.7 C 12.67 g/m*3 17.7 C 0 km/h
2319 30-07-2019 01:10:00 17.7 C 12.52 g/m*3 17.7 C 0 km/h
2320 30-07-2019 01:15:00 17.7 C 12.52 g/m*3 17.7 C 0 km/h
2321 30-07-2019 01:20:00 17.6 C 12.45 g/m*3 17.6 C 0 km/h
2322 30-07-2019 01:25:00 17.5 C 12.37 g/m*3 17.5 C 0 km/h
2323 30-07-2019 01:30:00 17.4 C 12.3 g/m*3 17.4 C 0 km/h
2324 30-07-2019 01:35:00 17.3 C 12.37 g/m*3 17.3 C 0 km/h
2325 30-07-2019 01:40:00 17.2 C 12.3 g/m*3 17.2 C 0 km/h
Sensor: Nr:Datum:Temp:Abs-Feuchte:Windchill:Wind:
Aussen-T/F 2326 30-07-2019 01:45:00 17.2 C 12.3 g/m*3 17.2 C 0 km/h
2327 30-07-2019 01:50:00 17.1 C 12.23 g/m*3 17.1 C 0 km/h
2328 30-07-2019 01:55:00 17 C 12.15 g/m*3 17 C 0 km/h
2329 30-07-2019 02:00:00 16.9 C 12.08 g/m*3 16.9 C 0 km/h
2330 30-07-2019 02:05:00 16.9 C 12.23 g/m*3 16.9 C 0 km/h
2331 30-07-2019 02:10:00 16.8 C 12.15 g/m*3 16.8 C 0 km/h
2332 30-07-2019 02:15:00 16.8 C 12.15 g/m*3 16.8 C 0 km/h
2333 30-07-2019 02:20:00 16.7 C 12.08 g/m*3 16.7 C 0 km/h
2334 30-07-2019 02:25:00 16.6 C 12.01 g/m*3 16.6 C 0 km/h
2335 30-07-2019 02:30:00 16.6 C 12.15 g/m*3 16.6 C 0 km/h
2336 30-07-2019 02:35:00 16.5 C 12.08 g/m*3 16.5 C 0 km/h
2337 30-07-2019 02:40:00 16.4 C 12 g/m*3 16.4 C 0 km/h
2338 30-07-2019 02:45:00 16.4 C 12 g/m*3 16.4 C 0 km/h
2339 30-07-2019 02:50:00 16.3 C 11.93 g/m*3 16.3 C 0 km/h
2340 30-07-2019 02:55:00 16.3 C 12.07 g/m*3 16.3 C 0 km/h
2341 30-07-2019 03:00:00 16.2 C 12 g/m*3 16.2 C 0 km/h
2342 30-07-2019 03:05:00 16.1 C 11.93 g/m*3 16.1 C 0 km/h
2343 30-07-2019 03:10:00 16 C 11.85 g/m*3 16 C 0 km/h
2344 30-07-2019 03:15:00 15.9 C 11.92 g/m*3 15.9 C 0 km/h
2345 30-07-2019 03:20:00 15.9 C 11.92 g/m*3 15.9 C 0 km/h
2346 30-07-2019 03:25:00 15.9 C 11.92 g/m*3 15.9 C 0 km/h
2347 30-07-2019 03:30:00 15.9 C 11.92 g/m*3 15.9 C 0 km/h
2348 30-07-2019 03:35:00 15.8 C 11.98 g/m*3 15.8 C 0 km/h
2349 30-07-2019 03:40:00 15.8 C 11.98 g/m*3 15.8 C 0 km/h
2350 30-07-2019 03:45:00 15.7 C 11.91 g/m*3 15.7 C 0 km/h
Sensor: Nr:Datum:Temp:Abs-Feuchte:Windchill:Wind:
Aussen-T/F 2351 30-07-2019 03:50:00 15.7 C 11.91 g/m*3 15.7 C 0 km/h
2352 30-07-2019 03:55:00 15.6 C 11.84 g/m*3 15.6 C 0 km/h
2353 30-07-2019 04:00:00 15.6 C 11.84 g/m*3 15.6 C 0 km/h
2354 30-07-2019 04:05:00 15.6 C 11.84 g/m*3 15.6 C 0 km/h
2355 30-07-2019 04:10:00 15.5 C 11.9 g/m*3 15.5 C 0 km/h
2356 30-07-2019 04:15:00 15.5 C 11.9 g/m*3 15.5 C 0 km/h
2357 30-07-2019 04:20:00 15.4 C 11.82 g/m*3 15.4 C 0 km/h
2358 30-07-2019 04:25:00 15.4 C 11.82 g/m*3 15.4 C 0 km/h
2359 30-07-2019 04:30:00 15.4 C 11.82 g/m*3 15.4 C 0 km/h
2360 30-07-2019 04:35:00 15.3 C 11.75 g/m*3 15.3 C 0 km/h
2361 30-07-2019 04:40:00 15.3 C 11.75 g/m*3 15.3 C 0 km/h
2362 30-07-2019 04:45:00 15.3 C 11.88 g/m*3 15.3 C 0 km/h
2363 30-07-2019 04:50:00 15.3 C 11.88 g/m*3 15.3 C 0 km/h
2364 30-07-2019 04:55:00 15.2 C 11.81 g/m*3 15.2 C 0 km/h
2365 30-07-2019 05:00:00 15.2 C 11.81 g/m*3 15.2 C 0 km/h
2366 30-07-2019 05:05:00 15.1 C 11.74 g/m*3 15.1 C 0 km/h
2367 30-07-2019 05:10:00 15.1 C 11.74 g/m*3 15.1 C 0 km/h
2368 30-07-2019 05:15:00 15.1 C 11.74 g/m*3 15.1 C 0 km/h
2369 30-07-2019 05:20:00 15.1 C 11.74 g/m*3 15.1 C 0 km/h
2370 30-07-2019 05:25:00 15.1 C 11.74 g/m*3 15.1 C 0 km/h
2371 30-07-2019 05:30:00 15.1 C 11.87 g/m*3 15.1 C 0 km/h
2372 30-07-2019 05:35:00 15 C 11.8 g/m*3 15 C 0 km/h
2373 30-07-2019 05:40:00 15 C 11.8 g/m*3 15 C 0 km/h
2374 30-07-2019 05:45:00 14.9 C 11.73 g/m*3 14.9 C 0 km/h
2375 30-07-2019 05:50:00 14.9 C 11.73 g/m*3 14.9 C 0 km/h
Sensor: Nr:Datum:Temp:Abs-Feuchte:Windchill:Wind:
Aussen-T/F 2376 30-07-2019 05:55:00 14.8 C 11.65 g/m*3 14.8 C 0 km/h
2377 30-07-2019 06:00:00 14.8 C 11.65 g/m*3 14.8 C 0 km/h
2378 30-07-2019 06:05:00 14.8 C 11.65 g/m*3 14.8 C 0 km/h
2379 30-07-2019 06:10:00 14.7 C 11.71 g/m*3 14.7 C 0 km/h
2380 30-07-2019 06:15:00 14.7 C 11.71 g/m*3 14.7 C 0 km/h
2381 30-07-2019 06:20:00 14.7 C 11.71 g/m*3 14.7 C 0 km/h
2382 30-07-2019 06:25:00 14.7 C 11.71 g/m*3 14.7 C 0 km/h
2383 30-07-2019 06:30:00 14.7 C 11.71 g/m*3 14.7 C 0 km/h
2384 30-07-2019 06:35:00 14.7 C 11.71 g/m*3 14.7 C 0 km/h
2385 30-07-2019 06:40:00 14.8 C 11.78 g/m*3 14.8 C 0 km/h
2386 30-07-2019 06:45:00 14.7 C 11.71 g/m*3 14.7 C 0 km/h
2387 30-07-2019 06:50:00 14.7 C 11.71 g/m*3 14.7 C 0 km/h
2388 30-07-2019 06:55:00 14.7 C 11.71 g/m*3 14.7 C 0 km/h
2389 30-07-2019 07:00:00 14.7 C 11.71 g/m*3 14.7 C 0 km/h
2390 30-07-2019 07:05:00 14.7 C 11.71 g/m*3 14.7 C 0 km/h
2391 30-07-2019 07:10:00 14.8 C 11.91 g/m*3 14.8 C 0 km/h
2392 30-07-2019 07:15:00 14.8 C 11.91 g/m*3 14.8 C 0 km/h
2393 30-07-2019 07:20:00 14.8 C 11.91 g/m*3 14.8 C 0 km/h
2394 30-07-2019 07:25:00 14.9 C 11.98 g/m*3 14.9 C 0 km/h
2395 30-07-2019 07:30:00 15 C 12.05 g/m*3 15 C 0 km/h
2396 30-07-2019 07:35:00 15 C 12.05 g/m*3 15 C 0 km/h
2397 30-07-2019 07:40:00 15.1 C 12.13 g/m*3 15.1 C 0 km/h
2398 30-07-2019 07:45:00 15.1 C 12.13 g/m*3 15.1 C 0 km/h
2399 30-07-2019 07:50:00 15.1 C 12.13 g/m*3 15.1 C 0 km/h
2400 30-07-2019 07:55:00 15.2 C 12.2 g/m*3 15.2 C 0 km/h
Sensor: Nr:Datum:Temp:Abs-Feuchte:Windchill:Wind:
Aussen-T/F 2401 30-07-2019 08:00:00 15.3 C 12.28 g/m*3 15.3 C 0 km/h
2402 30-07-2019 08:05:00 15.6 C 12.5 g/m*3 15.6 C 0 km/h
2403 30-07-2019 08:10:00 15.7 C 12.58 g/m*3 15.7 C 0 km/h
2404 30-07-2019 08:15:00 15.7 C 12.58 g/m*3 15.7 C 0 km/h
2405 30-07-2019 08:20:00 15.7 C 12.58 g/m*3 15.7 C 0 km/h
2406 30-07-2019 08:25:00 15.8 C 12.65 g/m*3 15.8 C 0 km/h
2407 30-07-2019 08:30:00 15.9 C 12.73 g/m*3 15.9 C 0 km/h
2408 30-07-2019 08:35:00 15.9 C 12.73 g/m*3 15.9 C 0 km/h
2409 30-07-2019 08:40:00 16.1 C 12.88 g/m*3 16.1 C 0 km/h
2410 30-07-2019 08:45:00 16.2 C 12.96 g/m*3 16.2 C 0 km/h
2411 30-07-2019 08:50:00 16.3 C 13.04 g/m*3 16.3 C 0 km/h
2412 30-07-2019 08:55:00 16.4 C 12.98 g/m*3 16.4 C 0 km/h
2413 30-07-2019 09:00:00 16.6 C 13.14 g/m*3 16.6 C 0 km/h
2414 30-07-2019 09:05:00 16.7 C 13.22 g/m*3 16.7 C 0 km/h
2415 30-07-2019 09:10:00 16.8 C 13.3 g/m*3 16.8 C 0 km/h
2416 30-07-2019 09:15:00 16.9 C 13.38 g/m*3 16.9 C 0 km/h
2417 30-07-2019 09:20:00 17.1 C 13.54 g/m*3 17.1 C 0 km/h
2418 30-07-2019 09:25:00 17.2 C 13.47 g/m*3 17.2 C 0 km/h
2419 30-07-2019 09:30:00 17.4 C 13.63 g/m*3 17.4 C 0 km/h
2420 30-07-2019 09:35:00 17.7 C 13.88 g/m*3 17.7 C 0 km/h
2421 30-07-2019 09:40:00 17.8 C 13.81 g/m*3 17.8 C 0 km/h
2422 30-07-2019 09:45:00 18 C 13.98 g/m*3 18 C 0 km/h
2423 30-07-2019 09:50:00 18.2 C 13.99 g/m*3 18.2 C 0 km/h
2424 30-07-2019 09:55:00 18.4 C 14 g/m*3 18.4 C 0 km/h
2425 30-07-2019 10:00:00 18.6 C 14.17 g/m*3 18.6 C 0 km/h
Sensor: Nr:Datum:Temp:Abs-Feuchte:Windchill:Wind:
Aussen-T/F 2426 30-07-2019 10:05:00 18.8 C 14.17 g/m*3 18.8 C 0 km/h
2427 30-07-2019 10:10:00 19.2 C 14.35 g/m*3 19.2 C 0 km/h
2428 30-07-2019 10:15:00 19.4 C 14.35 g/m*3 19.4 C 0 km/h
2429 30-07-2019 10:20:00 19.7 C 14.26 g/m*3 19.7 C 0 km/h
2430 30-07-2019 10:25:00 20.1 C 14.43 g/m*3 20.1 C 0 km/h
2431 30-07-2019 10:30:00 20.3 C 14.42 g/m*3 20.3 C 0 km/h
2432 30-07-2019 10:35:00 20.7 C 14.58 g/m*3 20.7 C 0 km/h
2433 30-07-2019 10:40:00 21.1 C 14.56 g/m*3 21.1 C 0 km/h
2434 30-07-2019 10:45:00 21.4 C 14.81 g/m*3 21.4 C 0 km/h
2435 30-07-2019 10:50:00 21.8 C 14.39 g/m*3 21.8 C 0 km/h
2436 30-07-2019 10:55:00 22.2 C 14.53 g/m*3 22.2 C 0 km/h
2437 30-07-2019 11:00:00 22.6 C 14.46 g/m*3 22.6 C 0 km/h
2438 30-07-2019 11:05:00 22.9 C 14.31 g/m*3 22.9 C 0 km/h
2439 30-07-2019 11:10:00 23.4 C 13.25 g/m*3 23.4 C 9.7 km/h
2440 30-07-2019 11:15:00 24.3 C 13.5 g/m*3 24.3 C 9.7 km/h
2441 30-07-2019 11:20:00 24.7 C 13.13 g/m*3 24.7 C 6.4 km/h
2442 30-07-2019 11:25:00 25.3 C 12.88 g/m*3 25.3 C 12.9 km/h
2443 30-07-2019 11:30:00 25.7 C 12.93 g/m*3 25.7 C 12.9 km/h
2444 30-07-2019 11:35:00 26.1 C 12.98 g/m*3 26.1 C 12.9 km/h
2445 30-07-2019 11:40:00 26.2 C 13.05 g/m*3 26.2 C 11.3 km/h
2446 30-07-2019 11:45:00 26.1 C 12.73 g/m*3 26.1 C 12.9 km/h
2447 30-07-2019 11:50:00 26.1 C 12.73 g/m*3 26.1 C 12.9 km/h
2448 30-07-2019 11:55:00 26.2 C 12.8 g/m*3 26.2 C 16.1 km/h
2449 30-07-2019 12:00:00 26.3 C 12.63 g/m*3 26.3 C 19.3 km/h
2450 30-07-2019 12:05:00 26.5 C 12.27 g/m*3 26.5 C 11.3 km/h
Sensor: Nr:Datum:Temp:Abs-Feuchte:Windchill:Wind:
Aussen-T/F 2451 30-07-2019 12:10:00 26.6 C 12.33 g/m*3 26.6 C 8.1 km/h
2452 30-07-2019 12:15:00 26.8 C 11.71 g/m*3 26.8 C 11.3 km/h
2453 30-07-2019 12:20:00 26.9 C 12.29 g/m*3 26.9 C 9.7 km/h
2454 30-07-2019 12:25:00 27.1 C 11.65 g/m*3 27.1 C 12.9 km/h
2455 30-07-2019 12:30:00 27.2 C 11.45 g/m*3 27.2 C 12.9 km/h
2456 30-07-2019 12:35:00 27.2 C 11.19 g/m*3 27.2 C 14.5 km/h
2457 30-07-2019 12:40:00 27.2 C 11.45 g/m*3 27.2 C 16.1 km/h
2458 30-07-2019 12:45:00 27.3 C 10.99 g/m*3 27.3 C 16.1 km/h
2459 30-07-2019 12:50:00 27.5 C 11.64 g/m*3 27.5 C 14.5 km/h
2460 30-07-2019 12:55:00 27.7 C 10.97 g/m*3 27.7 C 12.9 km/h
2461 30-07-2019 13:00:00 27.7 C 11.5 g/m*3 27.7 C 11.3 km/h
2462 30-07-2019 13:05:00 27.7 C 10.97 g/m*3 27.7 C 12.9 km/h
2463 30-07-2019 13:10:00 27.9 C 11.36 g/m*3 27.9 C 9.7 km/h
2464 30-07-2019 13:15:00 28.1 C 10.94 g/m*3 28.1 C 12.9 km/h
2465 30-07-2019 13:20:00 28.1 C 10.66 g/m*3 28.1 C 12.9 km/h
2466 30-07-2019 13:25:00 28.1 C 10.66 g/m*3 28.1 C 11.3 km/h
2467 30-07-2019 13:30:00 28.3 C 10.78 g/m*3 28.3 C 9.7 km/h
2468 30-07-2019 13:35:00 28.4 C 10.84 g/m*3 28.4 C 16.1 km/h
2469 30-07-2019 13:40:00 28.5 C 10.9 g/m*3 28.5 C 8.1 km/h
2470 30-07-2019 13:45:00 28.6 C 10.96 g/m*3 28.6 C 8.1 km/h
2471 30-07-2019 13:50:00 28.7 C 10.17 g/m*3 28.7 C 9.7 km/h
2472 30-07-2019 13:55:00 28.8 C 9.94 g/m*3 28.8 C 14.5 km/h
2473 30-07-2019 14:00:00 28.8 C 10.23 g/m*3 28.8 C 11.3 km/h
2474 30-07-2019 14:05:00 28.9 C 10.28 g/m*3 28.9 C 16.1 km/h
2475 30-07-2019 14:10:00 29.1 C 10.69 g/m*3 29.1 C 9.7 km/h
Sensor: Nr:Datum:Temp:Abs-Feuchte:Windchill:Wind:
Aussen-T/F 2476 30-07-2019 14:15:00 29.2 C 11.32 g/m*3 29.2 C 12.9 km/h
2477 30-07-2019 14:20:00 29.3 C 10.8 g/m*3 29.3 C 12.9 km/h
2478 30-07-2019 14:25:00 29.3 C 11.39 g/m*3 29.3 C 14.5 km/h
2479 30-07-2019 14:30:00 29.6 C 11.57 g/m*3 29.6 C 16.1 km/h
2480 30-07-2019 14:35:00 29.8 C 11.1 g/m*3 29.8 C 16.1 km/h
2481 30-07-2019 14:40:00 29.9 C 11.76 g/m*3 29.9 C 16.1 km/h
2482 30-07-2019 14:45:00 29.9 C 11.16 g/m*3 29.9 C 9.7 km/h
2483 30-07-2019 14:50:00 30 C 11.83 g/m*3 30 C 11.3 km/h
2484 30-07-2019 14:55:00 30.1 C 11.28 g/m*3 30.1 C 14.5 km/h
2485 30-07-2019 15:00:00 30.1 C 11.59 g/m*3 30.1 C 11.3 km/h
2486 30-07-2019 15:05:00 30.3 C 11.71 g/m*3 30.3 C 14.5 km/h
2487 30-07-2019 15:10:00 30.4 C 11.16 g/m*3 30.4 C 16.1 km/h
2488 30-07-2019 15:15:00 30.4 C 11.47 g/m*3 30.4 C 16.1 km/h
2489 30-07-2019 15:20:00 30.5 C 11.22 g/m*3 30.5 C 17.7 km/h
2490 30-07-2019 15:25:00 30.5 C 11.53 g/m*3 30.5 C 17.7 km/h
2491 30-07-2019 15:30:00 30.8 C 11.4 g/m*3 30.8 C 12.9 km/h
2492 30-07-2019 15:35:00 31 C 11.2 g/m*3 31 C 17.7 km/h
2493 30-07-2019 15:40:00 31.3 C 11.06 g/m*3 31.3 C 14.5 km/h
2494 30-07-2019 15:45:00 30.9 C 11.14 g/m*3 30.9 C 16.1 km/h
2495 30-07-2019 15:50:00 31 C 11.52 g/m*3 31 C 19.3 km/h
2496 30-07-2019 15:55:00 31.1 C 11.26 g/m*3 31.1 C 16.1 km/h
2497 30-07-2019 16:00:00 31.2 C 10.67 g/m*3 31.2 C 14.5 km/h
2498 30-07-2019 16:05:00 31.3 C 11.06 g/m*3 31.3 C 14.5 km/h
2499 30-07-2019 16:10:00 31.6 C 10.91 g/m*3 31.6 C 17.7 km/h
2500 30-07-2019 16:15:00 32 C 10.8 g/m*3 32 C 14.5 km/h
Sensor: Nr:Datum:Temp:Abs-Feuchte:Windchill:Wind:
Aussen-T/F 2501 30-07-2019 16:20:00 31.9 C 10.41 g/m*3 31.9 C 19.3 km/h
2502 30-07-2019 16:25:00 31.3 C 11.06 g/m*3 31.3 C 16.1 km/h
2503 30-07-2019 16:30:00 31.3 C 11.38 g/m*3 31.3 C 16.1 km/h
2504 30-07-2019 16:35:00 31.6 C 11.57 g/m*3 31.6 C 17.7 km/h
2505 30-07-2019 16:40:00 31.1 C 11.26 g/m*3 31.1 C 22.5 km/h
2506 30-07-2019 16:45:00 30.7 C 11.34 g/m*3 30.7 C 16.1 km/h
2507 30-07-2019 16:50:00 30.4 C 11.16 g/m*3 30.4 C 16.1 km/h
2508 30-07-2019 16:55:00 30.1 C 11.28 g/m*3 30.1 C 12.9 km/h
2509 30-07-2019 17:00:00 29.8 C 11.4 g/m*3 29.8 C 17.7 km/h
2510 30-07-2019 17:05:00 29.9 C 11.46 g/m*3 29.9 C 14.5 km/h
2511 30-07-2019 17:10:00 30.5 C 11.53 g/m*3 30.5 C 19.3 km/h
2512 30-07-2019 17:15:00 30.6 C 11.59 g/m*3 30.6 C 14.5 km/h
2513 30-07-2019 17:20:00 30.3 C 11.4 g/m*3 30.3 C 16.1 km/h
2514 30-07-2019 17:25:00 29.7 C 11.34 g/m*3 29.7 C 17.7 km/h
2515 30-07-2019 17:30:00 29.1 C 11.26 g/m*3 29.1 C 19.3 km/h
2516 30-07-2019 17:35:00 28.8 C 11.08 g/m*3 28.8 C 19.3 km/h
2517 30-07-2019 17:40:00 28.6 C 11.24 g/m*3 28.6 C 16.1 km/h
2518 30-07-2019 17:45:00 28.4 C 10.56 g/m*3 28.4 C 19.3 km/h
2519 30-07-2019 17:50:00 28.2 C 9.9 g/m*3 28.2 C 16.1 km/h
2520 30-07-2019 17:55:00 27.8 C 9.95 g/m*3 27.8 C 20.9 km/h
2521 30-07-2019 18:00:00 27.4 C 9.74 g/m*3 27.4 C 17.7 km/h
2522 30-07-2019 18:05:00 27.2 C 9.89 g/m*3 27.2 C 20.9 km/h
2523 30-07-2019 18:10:00 27.1 C 10.09 g/m*3 27.1 C 14.5 km/h
2524 30-07-2019 18:15:00 26.9 C 9.98 g/m*3 26.9 C 17.7 km/h
2525 30-07-2019 18:20:00 26.8 C 10.18 g/m*3 26.8 C 12.9 km/h
Sensor: Nr:Datum:Temp:Abs-Feuchte:Windchill:Wind:
Aussen-T/F 2526 30-07-2019 18:25:00 26.7 C 10.12 g/m*3 26.7 C 16.1 km/h
2527 30-07-2019 18:30:00 26.6 C 10.32 g/m*3 26.6 C 11.3 km/h
2528 30-07-2019 18:35:00 26.4 C 10.46 g/m*3 26.4 C 9.7 km/h
2529 30-07-2019 18:40:00 26.3 C 10.4 g/m*3 26.3 C 8.1 km/h
2530 30-07-2019 18:45:00 26.2 C 10.59 g/m*3 26.2 C 6.4 km/h
2531 30-07-2019 18:50:00 26 C 10.71 g/m*3 26 C 6.4 km/h
2532 30-07-2019 18:55:00 25.9 C 10.65 g/m*3 25.9 C 8.1 km/h
2533 30-07-2019 19:00:00 25.8 C 10.83 g/m*3 25.8 C 9.7 km/h
2534 30-07-2019 19:05:00 25.7 C 10.77 g/m*3 25.7 C 11.3 km/h
2535 30-07-2019 19:10:00 25.6 C 10.71 g/m*3 25.6 C 14.5 km/h
2536 30-07-2019 19:15:00 25.6 C 10.71 g/m*3 25.6 C 11.3 km/h
2537 30-07-2019 19:20:00 25.5 C 10.89 g/m*3 25.5 C 11.3 km/h
2538 30-07-2019 19:25:00 24.9 C 12.13 g/m*3 24.9 C 14.5 km/h
2539 30-07-2019 19:30:00 23.8 C 12.05 g/m*3 23.8 C 9.7 km/h
2540 30-07-2019 19:35:00 23.4 C 11.78 g/m*3 23.4 C 8.1 km/h
2541 30-07-2019 19:40:00 23.4 C 11.57 g/m*3 23.4 C 9.7 km/h
2542 30-07-2019 19:45:00 23.6 C 11.91 g/m*3 23.6 C 6.4 km/h
2543 30-07-2019 19:50:00 23.7 C 11.98 g/m*3 23.7 C 4.8 km/h
2544 30-07-2019 19:55:00 23.7 C 11.76 g/m*3 23.7 C 11.3 km/h
2545 30-07-2019 20:00:00 23.7 C 11.98 g/m*3 23.7 C 9.7 km/h
2546 30-07-2019 20:05:00 23.8 C 12.05 g/m*3 23.8 C 8.1 km/h
2547 30-07-2019 20:10:00 23.9 C 11.9 g/m*3 23.9 C 9.7 km/h
2548 30-07-2019 20:15:00 23.9 C 11.9 g/m*3 23.9 C 6.4 km/h
2549 30-07-2019 20:20:00 24 C 11.97 g/m*3 24 C 3.2 km/h
2550 30-07-2019 20:25:00 24 C 11.97 g/m*3 24 C 4.8 km/h
Sensor: Nr:Datum:Temp:Abs-Feuchte:Windchill:Wind:
Aussen-T/F 2551 30-07-2019 20:30:00 24.1 C 12.03 g/m*3 24.1 C 11.3 km/h
2552 30-07-2019 20:35:00 24.2 C 12.1 g/m*3 24.2 C 4.8 km/h
2553 30-07-2019 20:40:00 24.3 C 12.17 g/m*3 24.3 C 4.8 km/h
2554 30-07-2019 20:45:00 24.4 C 12.24 g/m*3 24.4 C 6.4 km/h
2555 30-07-2019 20:50:00 24.4 C 12.24 g/m*3 24.4 C 4.8 km/h
2556 30-07-2019 20:55:00 24.4 C 12.24 g/m*3 24.4 C 0 km/h
2557 30-07-2019 21:00:00 24.3 C 12.17 g/m*3 24.3 C 0 km/h
2558 30-07-2019 21:05:00 24.3 C 11.95 g/m*3 24.3 C 0 km/h
2559 30-07-2019 21:10:00 24.2 C 11.88 g/m*3 24.2 C 0 km/h
2560 30-07-2019 21:15:00 24.1 C 12.03 g/m*3 24.1 C 0 km/h
2561 30-07-2019 21:20:00 23.9 C 12.11 g/m*3 23.9 C 0 km/h
2562 30-07-2019 21:25:00 23.8 C 12.26 g/m*3 23.8 C 0 km/h
2563 30-07-2019 21:30:00 23.6 C 12.12 g/m*3 23.6 C 0 km/h
2564 30-07-2019 21:35:00 23.4 C 12.2 g/m*3 23.4 C 0 km/h
2565 30-07-2019 21:40:00 23.3 C 12.13 g/m*3 23.3 C 0 km/h
2566 30-07-2019 21:45:00 23.2 C 12.27 g/m*3 23.2 C 0 km/h
2567 30-07-2019 21:50:00 23.1 C 12.2 g/m*3 23.1 C 0 km/h
2568 30-07-2019 21:55:00 22.9 C 12.06 g/m*3 22.9 C 0 km/h
2569 30-07-2019 22:00:00 22.7 C 12.12 g/m*3 22.7 C 0 km/h
2570 30-07-2019 22:05:00 22.6 C 12.05 g/m*3 22.6 C 0 km/h
2571 30-07-2019 22:10:00 22.5 C 12.18 g/m*3 22.5 C 0 km/h
2572 30-07-2019 22:15:00 22.4 C 12.31 g/m*3 22.4 C 0 km/h
2573 30-07-2019 22:20:00 22.3 C 12.24 g/m*3 22.3 C 0 km/h
2574 30-07-2019 22:25:00 22.2 C 12.37 g/m*3 22.2 C 0 km/h
2575 30-07-2019 22:30:00 22.1 C 12.3 g/m*3 22.1 C 0 km/h
Sensor: Nr:Datum:Temp:Abs-Feuchte:Windchill:Wind:
Aussen-T/F 2576 30-07-2019 22:35:00 22.1 C 12.3 g/m*3 22.1 C 0 km/h
2577 30-07-2019 22:40:00 22 C 12.23 g/m*3 22 C 0 km/h
2578 30-07-2019 22:45:00 21.9 C 12.35 g/m*3 21.9 C 0 km/h
2579 30-07-2019 22:50:00 21.9 C 12.74 g/m*3 21.9 C 0 km/h
2580 30-07-2019 22:55:00 21.8 C 12.66 g/m*3 21.8 C 0 km/h
2581 30-07-2019 23:00:00 21.7 C 12.59 g/m*3 21.7 C 0 km/h
2582 30-07-2019 23:05:00 21.6 C 12.52 g/m*3 21.6 C 0 km/h
2583 30-07-2019 23:10:00 21.5 C 12.63 g/m*3 21.5 C 0 km/h
2584 30-07-2019 23:15:00 21.4 C 12.56 g/m*3 21.4 C 0 km/h
2585 30-07-2019 23:20:00 21.3 C 12.68 g/m*3 21.3 C 0 km/h
2586 30-07-2019 23:25:00 21.2 C 12.79 g/m*3 21.2 C 0 km/h
2587 30-07-2019 23:30:00 21.1 C 12.71 g/m*3 21.1 C 0 km/h
2588 30-07-2019 23:35:00 21 C 12.64 g/m*3 21 C 0 km/h
2589 30-07-2019 23:40:00 20.9 C 12.38 g/m*3 20.9 C 0 km/h
2590 30-07-2019 23:45:00 20.8 C 12.49 g/m*3 20.8 C 0 km/h
2591 30-07-2019 23:50:00 20.8 C 12.49 g/m*3 20.8 C 0 km/h
2592 30-07-2019 23:55:00 20.8 C 12.49 g/m*3 20.8 C 0 km/h
2593 31-07-2019 00:00:00 20.7 C 12.42 g/m*3 20.7 C 0 km/h
2594 31-07-2019 00:05:00 20.7 C 12.42 g/m*3 20.7 C 0 km/h
2595 31-07-2019 00:10:00 20.7 C 12.42 g/m*3 20.7 C 0 km/h
2596 31-07-2019 00:15:00 20.6 C 12.35 g/m*3 20.6 C 0 km/h
2597 31-07-2019 00:20:00 20.6 C 12.53 g/m*3 20.6 C 0 km/h
2598 31-07-2019 00:25:00 20.6 C 12.53 g/m*3 20.6 C 0 km/h
2599 31-07-2019 00:30:00 20.6 C 12.35 g/m*3 20.6 C 0 km/h
2600 31-07-2019 00:35:00 20.5 C 12.46 g/m*3 20.5 C 0 km/h
Sensor: Nr:Datum:Temp:Abs-Feuchte:Windchill:Wind:
Aussen-T/F 2601 31-07-2019 00:40:00 20.4 C 12.38 g/m*3 20.4 C 0 km/h
2602 31-07-2019 00:45:00 20.4 C 12.56 g/m*3 20.4 C 0 km/h
2603 31-07-2019 00:50:00 20.4 C 12.56 g/m*3 20.4 C 0 km/h
2604 31-07-2019 00:55:00 20.4 C 12.56 g/m*3 20.4 C 0 km/h
2605 31-07-2019 01:00:00 20.3 C 12.49 g/m*3 20.3 C 0 km/h
2606 31-07-2019 01:05:00 20.3 C 12.49 g/m*3 20.3 C 0 km/h
2607 31-07-2019 01:10:00 20.3 C 12.49 g/m*3 20.3 C 0 km/h
2608 31-07-2019 01:15:00 20.3 C 12.49 g/m*3 20.3 C 0 km/h
2609 31-07-2019 01:20:00 20.3 C 12.49 g/m*3 20.3 C 0 km/h
2610 31-07-2019 01:25:00 20.3 C 12.49 g/m*3 20.3 C 0 km/h
2611 31-07-2019 01:30:00 20.3 C 12.49 g/m*3 20.3 C 0 km/h
2612 31-07-2019 01:35:00 20.3 C 12.49 g/m*3 20.3 C 6.4 km/h
2613 31-07-2019 01:40:00 20.4 C 12.56 g/m*3 20.4 C 6.4 km/h
2614 31-07-2019 01:45:00 20.4 C 12.56 g/m*3 20.4 C 0 km/h
2615 31-07-2019 01:50:00 20.4 C 12.56 g/m*3 20.4 C 0 km/h
2616 31-07-2019 01:55:00 20.3 C 12.49 g/m*3 20.3 C 0 km/h
2617 31-07-2019 02:00:00 20.2 C 12.41 g/m*3 20.2 C 0 km/h
2618 31-07-2019 02:05:00 20.1 C 12.34 g/m*3 20.1 C 0 km/h
2619 31-07-2019 02:10:00 19.9 C 12.2 g/m*3 19.9 C 0 km/h
2620 31-07-2019 02:15:00 19.8 C 12.13 g/m*3 19.8 C 0 km/h
2621 31-07-2019 02:20:00 19.8 C 12.3 g/m*3 19.8 C 0 km/h
2622 31-07-2019 02:25:00 19.7 C 12.23 g/m*3 19.7 C 0 km/h
2623 31-07-2019 02:30:00 19.7 C 12.23 g/m*3 19.7 C 0 km/h
2624 31-07-2019 02:35:00 19.6 C 12.15 g/m*3 19.6 C 0 km/h
2625 31-07-2019 02:40:00 19.6 C 12.15 g/m*3 19.6 C 0 km/h
Sensor: Nr:Datum:Temp:Abs-Feuchte:Windchill:Wind:
Aussen-T/F 2626 31-07-2019 02:45:00 19.4 C 12.01 g/m*3 19.4 C 0 km/h
2627 31-07-2019 02:50:00 19.4 C 12.01 g/m*3 19.4 C 0 km/h
2628 31-07-2019 02:55:00 19.3 C 11.94 g/m*3 19.3 C 0 km/h
2629 31-07-2019 03:00:00 19.2 C 11.87 g/m*3 19.2 C 0 km/h
2630 31-07-2019 03:05:00 19.1 C 11.97 g/m*3 19.1 C 0 km/h
2631 31-07-2019 03:10:00 18.9 C 11.83 g/m*3 18.9 C 0 km/h
2632 31-07-2019 03:15:00 18.8 C 11.92 g/m*3 18.8 C 0 km/h
2633 31-07-2019 03:20:00 18.7 C 11.85 g/m*3 18.7 C 0 km/h
2634 31-07-2019 03:25:00 18.6 C 11.94 g/m*3 18.6 C 0 km/h
2635 31-07-2019 03:30:00 18.6 C 12.1 g/m*3 18.6 C 0 km/h
2636 31-07-2019 03:35:00 18.4 C 11.95 g/m*3 18.4 C 0 km/h
2637 31-07-2019 03:40:00 18.4 C 11.95 g/m*3 18.4 C 1.6 km/h
2638 31-07-2019 03:45:00 18.3 C 12.04 g/m*3 18.3 C 1.6 km/h
2639 31-07-2019 03:50:00 18.3 C 12.04 g/m*3 18.3 C 0 km/h
2640 31-07-2019 03:55:00 18.3 C 12.2 g/m*3 18.3 C 0 km/h
2641 31-07-2019 04:00:00 18.3 C 12.2 g/m*3 18.3 C 0 km/h
2642 31-07-2019 04:05:00 18.3 C 12.35 g/m*3 18.3 C 0 km/h
2643 31-07-2019 04:10:00 18.3 C 12.2 g/m*3 18.3 C 3.2 km/h
2644 31-07-2019 04:15:00 18.4 C 12.27 g/m*3 18.4 C 4.8 km/h
2645 31-07-2019 04:20:00 18.6 C 12.26 g/m*3 18.6 C 3.2 km/h
2646 31-07-2019 04:25:00 18.7 C 12.33 g/m*3 18.7 C 0 km/h
2647 31-07-2019 04:30:00 18.7 C 12.17 g/m*3 18.7 C 0 km/h
2648 31-07-2019 04:35:00 18.7 C 12.17 g/m*3 18.7 C 0 km/h
2649 31-07-2019 04:40:00 18.8 C 12.24 g/m*3 18.8 C 0 km/h
2650 31-07-2019 04:45:00 18.8 C 12.4 g/m*3 18.8 C 0 km/h
Sensor: Nr:Datum:Temp:Abs-Feuchte:Windchill:Wind:
Aussen-T/F 2651 31-07-2019 04:50:00 18.7 C 12.17 g/m*3 18.7 C 0 km/h
2652 31-07-2019 04:55:00 18.6 C 12.1 g/m*3 18.6 C 0 km/h
2653 31-07-2019 05:00:00 18.4 C 11.95 g/m*3 18.4 C 0 km/h
2654 31-07-2019 05:05:00 18.3 C 11.88 g/m*3 18.3 C 0 km/h
2655 31-07-2019 05:10:00 18.1 C 11.74 g/m*3 18.1 C 0 km/h
2656 31-07-2019 05:15:00 17.9 C 11.76 g/m*3 17.9 C 0 km/h
2657 31-07-2019 05:20:00 17.8 C 11.84 g/m*3 17.8 C 0 km/h
2658 31-07-2019 05:25:00 17.7 C 11.77 g/m*3 17.7 C 0 km/h
2659 31-07-2019 05:30:00 17.7 C 11.92 g/m*3 17.7 C 0 km/h
2660 31-07-2019 05:35:00 17.6 C 11.85 g/m*3 17.6 C 0 km/h
2661 31-07-2019 05:40:00 17.6 C 11.85 g/m*3 17.6 C 0 km/h
2662 31-07-2019 05:45:00 17.6 C 11.85 g/m*3 17.6 C 0 km/h
2663 31-07-2019 05:50:00 17.6 C 12 g/m*3 17.6 C 0 km/h
2664 31-07-2019 05:55:00 17.7 C 11.92 g/m*3 17.7 C 0 km/h
2665 31-07-2019 06:00:00 17.7 C 11.92 g/m*3 17.7 C 0 km/h
2666 31-07-2019 06:05:00 17.7 C 11.92 g/m*3 17.7 C 0 km/h
2667 31-07-2019 06:10:00 17.7 C 11.92 g/m*3 17.7 C 0 km/h
2668 31-07-2019 06:15:00 17.8 C 11.84 g/m*3 17.8 C 0 km/h
2669 31-07-2019 06:20:00 17.8 C 11.84 g/m*3 17.8 C 0 km/h
2670 31-07-2019 06:25:00 17.7 C 11.77 g/m*3 17.7 C 0 km/h
2671 31-07-2019 06:30:00 17.7 C 11.77 g/m*3 17.7 C 0 km/h
2672 31-07-2019 06:35:00 17.7 C 11.77 g/m*3 17.7 C 0 km/h
2673 31-07-2019 06:40:00 17.6 C 11.7 g/m*3 17.6 C 0 km/h
2674 31-07-2019 06:45:00 17.5 C 11.63 g/m*3 17.5 C 0 km/h
2675 31-07-2019 06:50:00 17.4 C 11.71 g/m*3 17.4 C 0 km/h
Sensor: Nr:Datum:Temp:Abs-Feuchte:Windchill:Wind:
Aussen-T/F 2676 31-07-2019 06:55:00 17.4 C 11.71 g/m*3 17.4 C 0 km/h
2677 31-07-2019 07:00:00 17.3 C 11.64 g/m*3 17.3 C 0 km/h
2678 31-07-2019 07:05:00 17.3 C 11.79 g/m*3 17.3 C 0 km/h
2679 31-07-2019 07:10:00 17.3 C 11.79 g/m*3 17.3 C 1.6 km/h
2680 31-07-2019 07:15:00 17.3 C 11.79 g/m*3 17.3 C 0 km/h
2681 31-07-2019 07:20:00 17.3 C 11.79 g/m*3 17.3 C 0 km/h
2682 31-07-2019 07:25:00 17.3 C 11.79 g/m*3 17.3 C 0 km/h
2683 31-07-2019 07:30:00 17.3 C 11.79 g/m*3 17.3 C 0 km/h
2684 31-07-2019 07:35:00 17.4 C 11.86 g/m*3 17.4 C 0 km/h
2685 31-07-2019 07:40:00 17.4 C 11.86 g/m*3 17.4 C 0 km/h
2686 31-07-2019 07:45:00 17.4 C 11.86 g/m*3 17.4 C 0 km/h
2687 31-07-2019 07:50:00 17.6 C 12 g/m*3 17.6 C 1.6 km/h
2688 31-07-2019 07:55:00 17.6 C 12 g/m*3 17.6 C 0 km/h
2689 31-07-2019 08:00:00 17.7 C 11.92 g/m*3 17.7 C 0 km/h
2690 31-07-2019 08:05:00 17.8 C 11.84 g/m*3 17.8 C 4.8 km/h
2691 31-07-2019 08:10:00 17.9 C 11.91 g/m*3 17.9 C 0 km/h
2692 31-07-2019 08:15:00 18 C 11.98 g/m*3 18 C 0 km/h
2693 31-07-2019 08:20:00 18.1 C 12.21 g/m*3 18.1 C 0 km/h
2694 31-07-2019 08:25:00 18.2 C 11.81 g/m*3 18.2 C 4.8 km/h
2695 31-07-2019 08:30:00 18.4 C 11.8 g/m*3 18.4 C 6.4 km/h
2696 31-07-2019 08:35:00 18.7 C 11.85 g/m*3 18.7 C 6.4 km/h
2697 31-07-2019 08:40:00 18.9 C 11.83 g/m*3 18.9 C 9.7 km/h
2698 31-07-2019 08:45:00 19.1 C 11.8 g/m*3 19.1 C 9.7 km/h
2699 31-07-2019 08:50:00 19.2 C 11.87 g/m*3 19.2 C 6.4 km/h
2700 31-07-2019 08:55:00 19.3 C 11.78 g/m*3 19.3 C 9.7 km/h
Sensor: Nr:Datum:Temp:Abs-Feuchte:Windchill:Wind:
Aussen-T/F 2701 31-07-2019 09:00:00 19.4 C 12.01 g/m*3 19.4 C 3.2 km/h
2702 31-07-2019 09:05:00 19.5 C 11.92 g/m*3 19.5 C 9.7 km/h
2703 31-07-2019 09:10:00 19.6 C 11.82 g/m*3 19.6 C 4.8 km/h
2704 31-07-2019 09:15:00 19.8 C 11.96 g/m*3 19.8 C 8.1 km/h
2705 31-07-2019 09:20:00 19.8 C 11.79 g/m*3 19.8 C 6.4 km/h
2706 31-07-2019 09:25:00 19.9 C 11.68 g/m*3 19.9 C 12.9 km/h
2707 31-07-2019 09:30:00 20.1 C 11.65 g/m*3 20.1 C 12.9 km/h
2708 31-07-2019 09:35:00 20.2 C 11.71 g/m*3 20.2 C 8.1 km/h
2709 31-07-2019 09:40:00 20.4 C 11.68 g/m*3 20.4 C 12.9 km/h
2710 31-07-2019 09:45:00 20.4 C 11.5 g/m*3 20.4 C 20.9 km/h
2711 31-07-2019 09:50:00 20.5 C 11.39 g/m*3 20.5 C 17.7 km/h
2712 31-07-2019 09:55:00 20.6 C 11.28 g/m*3 20.6 C 11.3 km/h
2713 31-07-2019 10:00:00 20.7 C 11.52 g/m*3 20.7 C 9.7 km/h
2714 31-07-2019 10:05:00 20.8 C 11.23 g/m*3 20.8 C 12.9 km/h
2715 31-07-2019 10:10:00 20.9 C 11.11 g/m*3 20.9 C 9.7 km/h
2716 31-07-2019 10:15:00 21.2 C 11.3 g/m*3 21.2 C 9.7 km/h
2717 31-07-2019 10:20:00 21.4 C 11.06 g/m*3 21.4 C 12.9 km/h
2718 31-07-2019 10:25:00 21.4 C 10.69 g/m*3 21.4 C 17.7 km/h
2719 31-07-2019 10:30:00 21.4 C 10.69 g/m*3 21.4 C 11.3 km/h
2720 31-07-2019 10:35:00 21.5 C 10.56 g/m*3 21.5 C 14.5 km/h
2721 31-07-2019 10:40:00 21.7 C 10.87 g/m*3 21.7 C 14.5 km/h
2722 31-07-2019 10:45:00 21.8 C 11.13 g/m*3 21.8 C 14.5 km/h
2723 31-07-2019 10:50:00 21.8 C 10.74 g/m*3 21.8 C 14.5 km/h
2724 31-07-2019 10:55:00 21.7 C 10.87 g/m*3 21.7 C 16.1 km/h
2725 31-07-2019 11:00:00 21.5 C 10.56 g/m*3 21.5 C 9.7 km/h
Sensor: Nr:Datum:Temp:Abs-Feuchte:Windchill:Wind:
Aussen-T/F 2726 31-07-2019 11:05:00 21.3 C 10.44 g/m*3 21.3 C 16.1 km/h
2727 31-07-2019 11:10:00 21.1 C 10.69 g/m*3 21.1 C 9.7 km/h
2728 31-07-2019 11:15:00 21.1 C 10.5 g/m*3 21.1 C 4.8 km/h
2729 31-07-2019 11:20:00 21.2 C 10.56 g/m*3 21.2 C 8.1 km/h
2730 31-07-2019 11:25:00 21.4 C 10.5 g/m*3 21.4 C 14.5 km/h
2731 31-07-2019 11:30:00 21.6 C 10.43 g/m*3 21.6 C 12.9 km/h
2732 31-07-2019 11:35:00 21.8 C 10.36 g/m*3 21.8 C 16.1 km/h
2733 31-07-2019 11:40:00 21.9 C 10.42 g/m*3 21.9 C 11.3 km/h
2734 31-07-2019 11:45:00 22 C 10.48 g/m*3 22 C 14.5 km/h
2735 31-07-2019 11:50:00 22.2 C 10.41 g/m*3 22.2 C 22.5 km/h
2736 31-07-2019 11:55:00 22.2 C 10.41 g/m*3 22.2 C 22.5 km/h
2737 31-07-2019 12:00:00 22.1 C 10.15 g/m*3 22.1 C 16.1 km/h
2738 31-07-2019 12:05:00 22.2 C 10.21 g/m*3 22.2 C 22.5 km/h
2739 31-07-2019 12:10:00 22.3 C 10.27 g/m*3 22.3 C 11.3 km/h
2740 31-07-2019 12:15:00 22.6 C 10.65 g/m*3 22.6 C 16.1 km/h
2741 31-07-2019 12:20:00 22.8 C 10.57 g/m*3 22.8 C 14.5 km/h
2742 31-07-2019 12:25:00 22.9 C 10.42 g/m*3 22.9 C 22.5 km/h
2743 31-07-2019 12:30:00 22.9 C 9.81 g/m*3 22.9 C 17.7 km/h
2744 31-07-2019 12:35:00 22.7 C 9.9 g/m*3 22.7 C 14.5 km/h
2745 31-07-2019 12:40:00 22.8 C 9.96 g/m*3 22.8 C 12.9 km/h
2746 31-07-2019 12:45:00 22.8 C 10.16 g/m*3 22.8 C 19.3 km/h
2747 31-07-2019 12:50:00 22.9 C 10.42 g/m*3 22.9 C 16.1 km/h
2748 31-07-2019 12:55:00 23 C 10.48 g/m*3 23 C 16.1 km/h
2749 31-07-2019 13:00:00 23.1 C 10.75 g/m*3 23.1 C 12.9 km/h
2750 31-07-2019 13:05:00 23.2 C 10.6 g/m*3 23.2 C 12.9 km/h
Sensor: Nr:Datum:Temp:Abs-Feuchte:Windchill:Wind:
Aussen-T/F 2751 31-07-2019 13:10:00 23.3 C 10.25 g/m*3 23.3 C 14.5 km/h
2752 31-07-2019 13:15:00 23.3 C 9.83 g/m*3 23.3 C 14.5 km/h
2753 31-07-2019 13:20:00 23.4 C 9.88 g/m*3 23.4 C 19.3 km/h
2754 31-07-2019 13:25:00 23.6 C 10 g/m*3 23.6 C 16.1 km/h
2755 31-07-2019 13:30:00 23.9 C 9.95 g/m*3 23.9 C 12.9 km/h
2756 31-07-2019 13:35:00 24 C 9.79 g/m*3 24 C 14.5 km/h
2757 31-07-2019 13:40:00 24 C 10.01 g/m*3 24 C 17.7 km/h
2758 31-07-2019 13:45:00 24.1 C 9.85 g/m*3 24.1 C 14.5 km/h
2759 31-07-2019 13:50:00 24.2 C 9.68 g/m*3 24.2 C 11.3 km/h
2760 31-07-2019 13:55:00 24.2 C 9.9 g/m*3 24.2 C 22.5 km/h
2761 31-07-2019 14:00:00 24.3 C 9.74 g/m*3 24.3 C 14.5 km/h
2762 31-07-2019 14:05:00 24.4 C 9.79 g/m*3 24.4 C 12.9 km/h
2763 31-07-2019 14:10:00 24.3 C 9.52 g/m*3 24.3 C 16.1 km/h
2764 31-07-2019 14:15:00 24.4 C 9.57 g/m*3 24.4 C 14.5 km/h
2765 31-07-2019 14:20:00 24.5 C 9.85 g/m*3 24.5 C 9.7 km/h
2766 31-07-2019 14:25:00 24.7 C 9.96 g/m*3 24.7 C 9.7 km/h
2767 31-07-2019 14:30:00 25 C 9.67 g/m*3 25 C 14.5 km/h
2768 31-07-2019 14:35:00 25.1 C 9.49 g/m*3 25.1 C 14.5 km/h
2769 31-07-2019 14:40:00 24.9 C 9.39 g/m*3 24.9 C 20.9 km/h
2770 31-07-2019 14:45:00 25.1 C 9.49 g/m*3 25.1 C 14.5 km/h
2771 31-07-2019 14:50:00 25.2 C 9.54 g/m*3 25.2 C 14.5 km/h
2772 31-07-2019 14:55:00 25.3 C 9.6 g/m*3 25.3 C 14.5 km/h
2773 31-07-2019 15:00:00 25.4 C 9.18 g/m*3 25.4 C 16.1 km/h
2774 31-07-2019 15:05:00 25.4 C 9.42 g/m*3 25.4 C 14.5 km/h
2775 31-07-2019 15:10:00 25.1 C 9.49 g/m*3 25.1 C 11.3 km/h
Sensor: Nr:Datum:Temp:Abs-Feuchte:Windchill:Wind:
Aussen-T/F 2776 31-07-2019 15:15:00 25.1 C 9.95 g/m*3 25.1 C 6.4 km/h
2777 31-07-2019 15:20:00 25.4 C 9.42 g/m*3 25.4 C 17.7 km/h
2778 31-07-2019 15:25:00 25.8 C 9.63 g/m*3 25.8 C 14.5 km/h
2779 31-07-2019 15:30:00 26 C 9.49 g/m*3 26 C 20.9 km/h
2780 31-07-2019 15:35:00 26 C 9.49 g/m*3 26 C 14.5 km/h
2781 31-07-2019 15:40:00 25.6 C 9.52 g/m*3 25.6 C 12.9 km/h
2782 31-07-2019 15:45:00 25.7 C 9.58 g/m*3 25.7 C 16.1 km/h
2783 31-07-2019 15:50:00 25.6 C 9.52 g/m*3 25.6 C 12.9 km/h
2784 31-07-2019 15:55:00 25.5 C 9.47 g/m*3 25.5 C 11.3 km/h
2785 31-07-2019 16:00:00 25.9 C 9.68 g/m*3 25.9 C 17.7 km/h
2786 31-07-2019 16:05:00 26.3 C 9.41 g/m*3 26.3 C 16.1 km/h
2787 31-07-2019 16:10:00 25.8 C 9.39 g/m*3 25.8 C 9.7 km/h
2788 31-07-2019 16:15:00 25.2 C 9.54 g/m*3 25.2 C 19.3 km/h
2789 31-07-2019 16:20:00 24.8 C 9.56 g/m*3 24.8 C 16.1 km/h
2790 31-07-2019 16:25:00 24.7 C 9.73 g/m*3 24.7 C 9.7 km/h
2791 31-07-2019 16:30:00 24.6 C 9.68 g/m*3 24.6 C 14.5 km/h
2792 31-07-2019 16:35:00 24.4 C 9.57 g/m*3 24.4 C 17.7 km/h
2793 31-07-2019 16:40:00 24.3 C 9.74 g/m*3 24.3 C 12.9 km/h
2794 31-07-2019 16:45:00 24.3 C 9.96 g/m*3 24.3 C 9.7 km/h
2795 31-07-2019 16:50:00 24.4 C 10.01 g/m*3 24.4 C 11.3 km/h
2796 31-07-2019 16:55:00 24.8 C 10.24 g/m*3 24.8 C 9.7 km/h
2797 31-07-2019 17:00:00 24.8 C 10.02 g/m*3 24.8 C 14.5 km/h
2798 31-07-2019 17:05:00 25.1 C 10.19 g/m*3 25.1 C 20.9 km/h
2799 31-07-2019 17:10:00 25.4 C 10.12 g/m*3 25.4 C 16.1 km/h
2800 31-07-2019 17:15:00 25.6 C 10.24 g/m*3 25.6 C 17.7 km/h
Sensor: Nr:Datum:Temp:Abs-Feuchte:Windchill:Wind:
Aussen-T/F 2801 31-07-2019 17:20:00 25.7 C 10.29 g/m*3 25.7 C 19.3 km/h
2802 31-07-2019 17:25:00 25.4 C 10.12 g/m*3 25.4 C 14.5 km/h
2803 31-07-2019 17:30:00 25.2 C 9.54 g/m*3 25.2 C 11.3 km/h
2804 31-07-2019 17:35:00 25.2 C 9.78 g/m*3 25.2 C 9.7 km/h
2805 31-07-2019 17:40:00 25.1 C 9.95 g/m*3 25.1 C 11.3 km/h
2806 31-07-2019 17:45:00 25.1 C 9.95 g/m*3 25.1 C 9.7 km/h
2807 31-07-2019 17:50:00 25.2 C 10.01 g/m*3 25.2 C 14.5 km/h
2808 31-07-2019 17:55:00 25.2 C 10.01 g/m*3 25.2 C 11.3 km/h
2809 31-07-2019 18:00:00 24.8 C 10.02 g/m*3 24.8 C 14.5 km/h
2810 31-07-2019 18:05:00 24.4 C 10.01 g/m*3 24.4 C 12.9 km/h
2811 31-07-2019 18:10:00 24.2 C 10.12 g/m*3 24.2 C 9.7 km/h
2812 31-07-2019 18:15:00 23.9 C 9.95 g/m*3 23.9 C 9.7 km/h
2813 31-07-2019 18:20:00 23.8 C 10.33 g/m*3 23.8 C 6.4 km/h
2814 31-07-2019 18:25:00 23.7 C 10.05 g/m*3 23.7 C 9.7 km/h
2815 31-07-2019 18:30:00 23.7 C 10.05 g/m*3 23.7 C 8.1 km/h
2816 31-07-2019 18:35:00 23.6 C 10.21 g/m*3 23.6 C 9.7 km/h
2817 31-07-2019 18:40:00 23.6 C 10.63 g/m*3 23.6 C 0 km/h
2818 31-07-2019 18:45:00 23.6 C 10.21 g/m*3 23.6 C 4.8 km/h
2819 31-07-2019 18:50:00 23.6 C 10.21 g/m*3 23.6 C 8.1 km/h
2820 31-07-2019 18:55:00 23.6 C 10.21 g/m*3 23.6 C 3.2 km/h
2821 31-07-2019 19:00:00 23.6 C 10.21 g/m*3 23.6 C 4.8 km/h
2822 31-07-2019 19:05:00 23.7 C 10.05 g/m*3 23.7 C 11.3 km/h
2823 31-07-2019 19:10:00 23.9 C 10.38 g/m*3 23.9 C 11.3 km/h
2824 31-07-2019 19:15:00 24 C 10.44 g/m*3 24 C 4.8 km/h
2825 31-07-2019 19:20:00 23.9 C 10.82 g/m*3 23.9 C 4.8 km/h
Sensor: Nr:Datum:Temp:Abs-Feuchte:Windchill:Wind:
Aussen-T/F 2826 31-07-2019 19:25:00 23.7 C 10.69 g/m*3 23.7 C 4.8 km/h
2827 31-07-2019 19:30:00 23.4 C 10.51 g/m*3 23.4 C 6.4 km/h
2828 31-07-2019 19:35:00 23.3 C 9.62 g/m*3 23.3 C 9.7 km/h
2829 31-07-2019 19:40:00 23.2 C 9.36 g/m*3 23.2 C 8.1 km/h
2830 31-07-2019 19:45:00 23.2 C 9.56 g/m*3 23.2 C 4.8 km/h
2831 31-07-2019 19:50:00 23.1 C 10.54 g/m*3 23.1 C 8.1 km/h
2832 31-07-2019 19:55:00 22.9 C 10.83 g/m*3 22.9 C 4.8 km/h
2833 31-07-2019 20:00:00 22.8 C 10.77 g/m*3 22.8 C 4.8 km/h
2834 31-07-2019 20:05:00 22.7 C 10.71 g/m*3 22.7 C 3.2 km/h
2835 31-07-2019 20:10:00 22.4 C 10.53 g/m*3 22.4 C 3.2 km/h
2836 31-07-2019 20:15:00 22.3 C 10.66 g/m*3 22.3 C 4.8 km/h
2837 31-07-2019 20:20:00 22.2 C 10.6 g/m*3 22.2 C 1.6 km/h
2838 31-07-2019 20:25:00 22.2 C 10.99 g/m*3 22.2 C 0 km/h
2839 31-07-2019 20:30:00 22.2 C 11.19 g/m*3 22.2 C 0 km/h
2840 31-07-2019 20:35:00 22.1 C 11.13 g/m*3 22.1 C 0 km/h
2841 31-07-2019 20:40:00 21.9 C 11 g/m*3 21.9 C 0 km/h
2842 31-07-2019 20:45:00 21.7 C 11.06 g/m*3 21.7 C 0 km/h
2843 31-07-2019 20:50:00 21.4 C 10.87 g/m*3 21.4 C 0 km/h
2844 31-07-2019 20:55:00 21.2 C 10.93 g/m*3 21.2 C 0 km/h
2845 31-07-2019 21:00:00 21 C 10.99 g/m*3 21 C 0 km/h
2846 31-07-2019 21:05:00 20.8 C 10.86 g/m*3 20.8 C 0 km/h
2847 31-07-2019 21:10:00 20.7 C 10.98 g/m*3 20.7 C 0 km/h
2848 31-07-2019 21:15:00 20.4 C 10.61 g/m*3 20.4 C 0 km/h
2849 31-07-2019 21:20:00 20.2 C 10.49 g/m*3 20.2 C 0 km/h
2850 31-07-2019 21:25:00 20 C 10.37 g/m*3 20 C 0 km/h
Sensor: Nr:Datum:Temp:Abs-Feuchte:Windchill:Wind:
Aussen-T/F 2851 31-07-2019 21:30:00 19.8 C 10.08 g/m*3 19.8 C 0 km/h
2852 31-07-2019 21:35:00 19.6 C 9.96 g/m*3 19.6 C 0 km/h
2853 31-07-2019 21:40:00 19.4 C 9.84 g/m*3 19.4 C 0 km/h
2854 31-07-2019 21:45:00 19.2 C 9.73 g/m*3 19.2 C 0 km/h
2855 31-07-2019 21:50:00 19.1 C 9.67 g/m*3 19.1 C 0 km/h
2856 31-07-2019 21:55:00 18.9 C 9.72 g/m*3 18.9 C 0 km/h
2857 31-07-2019 22:00:00 18.8 C 9.66 g/m*3 18.8 C 0 km/h
2858 31-07-2019 22:05:00 18.7 C 9.77 g/m*3 18.7 C 0 km/h
2859 31-07-2019 22:10:00 18.7 C 9.61 g/m*3 18.7 C 0 km/h
2860 31-07-2019 22:15:00 18.6 C 9.71 g/m*3 18.6 C 0 km/h
2861 31-07-2019 22:20:00 18.6 C 9.71 g/m*3 18.6 C 0 km/h
2862 31-07-2019 22:25:00 18.6 C 9.71 g/m*3 18.6 C 0 km/h
2863 31-07-2019 22:30:00 18.6 C 9.71 g/m*3 18.6 C 0 km/h
2864 31-07-2019 22:35:00 18.6 C 9.71 g/m*3 18.6 C 0 km/h
2865 31-07-2019 22:40:00 18.7 C 9.93 g/m*3 18.7 C 0 km/h
2866 31-07-2019 22:45:00 18.7 C 9.93 g/m*3 18.7 C 0 km/h
2867 31-07-2019 22:50:00 18.8 C 9.82 g/m*3 18.8 C 3.2 km/h
2868 31-07-2019 22:55:00 18.8 C 9.82 g/m*3 18.8 C 1.6 km/h
2869 31-07-2019 23:00:00 18.9 C 9.88 g/m*3 18.9 C 0 km/h
2870 31-07-2019 23:05:00 18.9 C 9.88 g/m*3 18.9 C 1.6 km/h
2871 31-07-2019 23:10:00 18.9 C 9.88 g/m*3 18.9 C 1.6 km/h
2872 31-07-2019 23:15:00 18.8 C 9.99 g/m*3 18.8 C 1.6 km/h
2873 31-07-2019 23:20:00 18.8 C 9.99 g/m*3 18.8 C 0 km/h
2874 31-07-2019 23:25:00 18.7 C 9.93 g/m*3 18.7 C 0 km/h
2875 31-07-2019 23:30:00 18.5 C 9.97 g/m*3 18.5 C 0 km/h
Sensor: Nr:Datum:Temp:Abs-Feuchte:Windchill:Wind:
Aussen-T/F 2876 31-07-2019 23:35:00 18.4 C 9.91 g/m*3 18.4 C 0 km/h
2877 31-07-2019 23:40:00 18.2 C 9.95 g/m*3 18.2 C 0 km/h
2878 31-07-2019 23:45:00 17.9 C 9.92 g/m*3 17.9 C 0 km/h
2879 31-07-2019 23:50:00 17.8 C 10.02 g/m*3 17.8 C 0 km/h
2880 31-07-2019 23:55:00 17.6 C 10.05 g/m*3 17.6 C 0 km/h
2881 01-08-2019 00:00:00 17.4 C 10.08 g/m*3 17.4 C 0 km/h
2882 01-08-2019 00:05:00 17.3 C 10.16 g/m*3 17.3 C 0 km/h
2883 01-08-2019 00:10:00 17.2 C 10.1 g/m*3 17.2 C 0 km/h
2884 01-08-2019 00:15:00 17.1 C 10.19 g/m*3 17.1 C 0 km/h
2885 01-08-2019 00:20:00 17 C 10.13 g/m*3 17 C 0 km/h
2886 01-08-2019 00:25:00 16.9 C 10.21 g/m*3 16.9 C 0 km/h
2887 01-08-2019 00:30:00 16.9 C 10.21 g/m*3 16.9 C 1.6 km/h
2888 01-08-2019 00:35:00 16.8 C 10.01 g/m*3 16.8 C 0 km/h
2889 01-08-2019 00:40:00 16.7 C 10.09 g/m*3 16.7 C 0 km/h
2890 01-08-2019 00:45:00 16.6 C 10.03 g/m*3 16.6 C 0 km/h
2891 01-08-2019 00:50:00 16.4 C 9.91 g/m*3 16.4 C 3.2 km/h
2892 01-08-2019 00:55:00 16.3 C 9.99 g/m*3 16.3 C 0 km/h
2893 01-08-2019 01:00:00 16.1 C 10.01 g/m*3 16.1 C 0 km/h
2894 01-08-2019 01:05:00 15.9 C 9.89 g/m*3 15.9 C 1.6 km/h
2895 01-08-2019 01:10:00 15.8 C 9.96 g/m*3 15.8 C 0 km/h
2896 01-08-2019 01:15:00 15.7 C 10.03 g/m*3 15.7 C 0 km/h
2897 01-08-2019 01:20:00 15.6 C 9.97 g/m*3 15.6 C 0 km/h
2898 01-08-2019 01:25:00 15.6 C 9.97 g/m*3 15.6 C 0 km/h
2899 01-08-2019 01:30:00 15.4 C 9.85 g/m*3 15.4 C 0 km/h
2900 01-08-2019 01:35:00 15.4 C 9.85 g/m*3 15.4 C 0 km/h
Sensor: Nr:Datum:Temp:Abs-Feuchte:Windchill:Wind:
Aussen-T/F 2901 01-08-2019 01:40:00 15.3 C 9.92 g/m*3 15.3 C 0 km/h
2902 01-08-2019 01:45:00 15.2 C 9.86 g/m*3 15.2 C 0 km/h
2903 01-08-2019 01:50:00 15.2 C 9.86 g/m*3 15.2 C 0 km/h
2904 01-08-2019 01:55:00 15.1 C 9.93 g/m*3 15.1 C 0 km/h
2905 01-08-2019 02:00:00 15.1 C 9.93 g/m*3 15.1 C 0 km/h
2906 01-08-2019 02:05:00 14.9 C 9.81 g/m*3 14.9 C 1.6 km/h
2907 01-08-2019 02:10:00 14.9 C 9.94 g/m*3 14.9 C 0 km/h
2908 01-08-2019 02:15:00 14.8 C 9.88 g/m*3 14.8 C 0 km/h
2909 01-08-2019 02:20:00 14.8 C 10.01 g/m*3 14.8 C 0 km/h
2910 01-08-2019 02:25:00 14.7 C 9.95 g/m*3 14.7 C 0 km/h
2911 01-08-2019 02:30:00 14.6 C 9.89 g/m*3 14.6 C 0 km/h
2912 01-08-2019 02:35:00 14.6 C 10.01 g/m*3 14.6 C 0 km/h
2913 01-08-2019 02:40:00 14.6 C 10.01 g/m*3 14.6 C 0 km/h
2914 01-08-2019 02:45:00 14.6 C 10.01 g/m*3 14.6 C 0 km/h
2915 01-08-2019 02:50:00 14.6 C 10.01 g/m*3 14.6 C 1.6 km/h
2916 01-08-2019 02:55:00 14.6 C 10.01 g/m*3 14.6 C 1.6 km/h
2917 01-08-2019 03:00:00 14.6 C 10.14 g/m*3 14.6 C 0 km/h
2918 01-08-2019 03:05:00 14.6 C 10.14 g/m*3 14.6 C 0 km/h
2919 01-08-2019 03:10:00 14.7 C 10.07 g/m*3 14.7 C 0 km/h
2920 01-08-2019 03:15:00 14.6 C 10.01 g/m*3 14.6 C 1.6 km/h
2921 01-08-2019 03:20:00 14.5 C 9.95 g/m*3 14.5 C 0 km/h
2922 01-08-2019 03:25:00 14.3 C 9.83 g/m*3 14.3 C 0 km/h
2923 01-08-2019 03:30:00 14.2 C 9.89 g/m*3 14.2 C 0 km/h
2924 01-08-2019 03:35:00 14 C 9.77 g/m*3 14 C 0 km/h
2925 01-08-2019 03:40:00 13.8 C 9.65 g/m*3 13.8 C 0 km/h
Sensor: Nr:Datum:Temp:Abs-Feuchte:Windchill:Wind:
Aussen-T/F 2926 01-08-2019 03:45:00 13.7 C 9.71 g/m*3 13.7 C 1.6 km/h
2927 01-08-2019 03:50:00 13.5 C 9.59 g/m*3 13.5 C 0 km/h
2928 01-08-2019 03:55:00 13.4 C 9.65 g/m*3 13.4 C 0 km/h
2929 01-08-2019 04:00:00 13.3 C 9.59 g/m*3 13.3 C 0 km/h
2930 01-08-2019 04:05:00 13.2 C 9.53 g/m*3 13.2 C 0 km/h
2931 01-08-2019 04:10:00 13.1 C 9.59 g/m*3 13.1 C 0 km/h
2932 01-08-2019 04:15:00 13 C 9.53 g/m*3 13 C 0 km/h
2933 01-08-2019 04:20:00 13 C 9.64 g/m*3 13 C 0 km/h
2934 01-08-2019 04:25:00 12.9 C 9.58 g/m*3 12.9 C 0 km/h
2935 01-08-2019 04:30:00 12.9 C 9.58 g/m*3 12.9 C 0 km/h
2936 01-08-2019 04:35:00 12.8 C 9.63 g/m*3 12.8 C 1.6 km/h
2937 01-08-2019 04:40:00 12.8 C 9.63 g/m*3 12.8 C 0 km/h
2938 01-08-2019 04:45:00 12.9 C 9.69 g/m*3 12.9 C 1.6 km/h
2939 01-08-2019 04:50:00 12.8 C 9.63 g/m*3 12.8 C 0 km/h
2940 01-08-2019 04:55:00 12.8 C 9.63 g/m*3 12.8 C 4.8 km/h
2941 01-08-2019 05:00:00 12.8 C 9.63 g/m*3 12.8 C 1.6 km/h
2942 01-08-2019 05:05:00 12.8 C 9.63 g/m*3 12.8 C 0 km/h
2943 01-08-2019 05:10:00 12.7 C 9.57 g/m*3 12.7 C 0 km/h
2944 01-08-2019 05:15:00 12.7 C 9.68 g/m*3 12.7 C 0 km/h
2945 01-08-2019 05:20:00 12.6 C 9.62 g/m*3 12.6 C 0 km/h
2946 01-08-2019 05:25:00 12.6 C 9.62 g/m*3 12.6 C 1.6 km/h
2947 01-08-2019 05:30:00 12.7 C 9.8 g/m*3 12.7 C 1.6 km/h
2948 01-08-2019 05:35:00 12.7 C 9.68 g/m*3 12.7 C 0 km/h
2949 01-08-2019 05:40:00 12.6 C 9.62 g/m*3 12.6 C 0 km/h
2950 01-08-2019 05:45:00 12.5 C 9.57 g/m*3 12.5 C 0 km/h
Sensor: Nr:Datum:Temp:Abs-Feuchte:Windchill:Wind:
Aussen-T/F 2951 01-08-2019 05:50:00 12.4 C 9.51 g/m*3 12.4 C 0 km/h
2952 01-08-2019 05:55:00 12.4 C 9.51 g/m*3 12.4 C 0 km/h
2953 01-08-2019 06:00:00 12.3 C 9.56 g/m*3 12.3 C 0 km/h
2954 01-08-2019 06:05:00 12.3 C 9.56 g/m*3 12.3 C 0 km/h
2955 01-08-2019 06:10:00 12.2 C 9.5 g/m*3 12.2 C 0 km/h
2956 01-08-2019 06:15:00 12.2 C 9.5 g/m*3 12.2 C 0 km/h
2957 01-08-2019 06:20:00 12.1 C 9.44 g/m*3 12.1 C 0 km/h
2958 01-08-2019 06:25:00 12.1 C 9.54 g/m*3 12.1 C 0 km/h
2959 01-08-2019 06:30:00 12.1 C 9.44 g/m*3 12.1 C 0 km/h
2960 01-08-2019 06:35:00 12 C 9.48 g/m*3 12 C 0 km/h
2961 01-08-2019 06:40:00 12 C 9.48 g/m*3 12 C 0 km/h
2962 01-08-2019 06:45:00 12 C 9.48 g/m*3 12 C 0 km/h
2963 01-08-2019 06:50:00 12.1 C 9.54 g/m*3 12.1 C 0 km/h
2964 01-08-2019 06:55:00 12.1 C 9.54 g/m*3 12.1 C 0 km/h
2965 01-08-2019 07:00:00 12.1 C 9.54 g/m*3 12.1 C 0 km/h
2966 01-08-2019 07:05:00 12.1 C 9.54 g/m*3 12.1 C 0 km/h
2967 01-08-2019 07:10:00 12.1 C 9.54 g/m*3 12.1 C 0 km/h
2968 01-08-2019 07:15:00 12.2 C 9.6 g/m*3 12.2 C 0 km/h
2969 01-08-2019 07:20:00 12.2 C 9.6 g/m*3 12.2 C 0 km/h
2970 01-08-2019 07:25:00 12.2 C 9.71 g/m*3 12.2 C 0 km/h
2971 01-08-2019 07:30:00 12.3 C 9.77 g/m*3 12.3 C 0 km/h
2972 01-08-2019 07:35:00 12.5 C 9.89 g/m*3 12.5 C 1.6 km/h
2973 01-08-2019 07:40:00 12.8 C 10.08 g/m*3 12.8 C 1.6 km/h
2974 01-08-2019 07:45:00 13.1 C 10.16 g/m*3 13.1 C 1.6 km/h
2975 01-08-2019 07:50:00 13.4 C 10.23 g/m*3 13.4 C 0 km/h
Sensor: Nr:Datum:Temp:Abs-Feuchte:Windchill:Wind:
Aussen-T/F 2976 01-08-2019 07:55:00 13.7 C 10.42 g/m*3 13.7 C 0 km/h
2977 01-08-2019 08:00:00 13.9 C 10.43 g/m*3 13.9 C 0 km/h
2978 01-08-2019 08:05:00 14.2 C 10.5 g/m*3 14.2 C 0 km/h
2979 01-08-2019 08:10:00 14.4 C 10.51 g/m*3 14.4 C 0 km/h
2980 01-08-2019 08:15:00 14.7 C 10.45 g/m*3 14.7 C 0 km/h
2981 01-08-2019 08:20:00 15 C 10.64 g/m*3 15 C 0 km/h
2982 01-08-2019 08:25:00 15.2 C 10.51 g/m*3 15.2 C 1.6 km/h
2983 01-08-2019 08:30:00 15.3 C 10.45 g/m*3 15.3 C 1.6 km/h
2984 01-08-2019 08:35:00 15.5 C 10.57 g/m*3 15.5 C 1.6 km/h
2985 01-08-2019 08:40:00 15.7 C 10.57 g/m*3 15.7 C 3.2 km/h
2986 01-08-2019 08:45:00 15.8 C 10.63 g/m*3 15.8 C 1.6 km/h
2987 01-08-2019 08:50:00 16.1 C 10.69 g/m*3 16.1 C 0 km/h
2988 01-08-2019 08:55:00 16.3 C 10.68 g/m*3 16.3 C 1.6 km/h
2989 01-08-2019 09:00:00 16.6 C 10.88 g/m*3 16.6 C 3.2 km/h
2990 01-08-2019 09:05:00 16.9 C 10.93 g/m*3 16.9 C 6.4 km/h
2991 01-08-2019 09:10:00 17.2 C 10.98 g/m*3 17.2 C 6.4 km/h
2992 01-08-2019 09:15:00 17.3 C 11.05 g/m*3 17.3 C 4.8 km/h
2993 01-08-2019 09:20:00 17.4 C 10.97 g/m*3 17.4 C 6.4 km/h
2994 01-08-2019 09:25:00 17.5 C 11.03 g/m*3 17.5 C 4.8 km/h
2995 01-08-2019 09:30:00 17.6 C 10.95 g/m*3 17.6 C 4.8 km/h
2996 01-08-2019 09:35:00 17.6 C 10.95 g/m*3 17.6 C 6.4 km/h
2997 01-08-2019 09:40:00 17.7 C 11.01 g/m*3 17.7 C 4.8 km/h
2998 01-08-2019 09:45:00 18 C 11.06 g/m*3 18 C 3.2 km/h
2999 01-08-2019 09:50:00 18.3 C 11.1 g/m*3 18.3 C 1.6 km/h
3000 01-08-2019 09:55:00 18.7 C 11.21 g/m*3 18.7 C 8.1 km/h
Sensor: Nr:Datum:Temp:Abs-Feuchte:Windchill:Wind:
Aussen-T/F 3001 01-08-2019 10:00:00 19.2 C 11.21 g/m*3 19.2 C 9.7 km/h
3002 01-08-2019 10:05:00 19.4 C 11.18 g/m*3 19.4 C 9.7 km/h
3003 01-08-2019 10:10:00 19.7 C 11.04 g/m*3 19.7 C 8.1 km/h
3004 01-08-2019 10:15:00 20 C 10.89 g/m*3 20 C 9.7 km/h
3005 01-08-2019 10:20:00 20.2 C 11.02 g/m*3 20.2 C 12.9 km/h
3006 01-08-2019 10:25:00 20.3 C 10.9 g/m*3 20.3 C 11.3 km/h
3007 01-08-2019 10:30:00 20.5 C 10.68 g/m*3 20.5 C 11.3 km/h
3008 01-08-2019 10:35:00 20.6 C 10.92 g/m*3 20.6 C 9.7 km/h
3009 01-08-2019 10:40:00 20.7 C 10.98 g/m*3 20.7 C 9.7 km/h
3010 01-08-2019 10:45:00 20.8 C 11.23 g/m*3 20.8 C 8.1 km/h
3011 01-08-2019 10:50:00 21.1 C 10.87 g/m*3 21.1 C 12.9 km/h
3012 01-08-2019 10:55:00 21.1 C 10.69 g/m*3 21.1 C 12.9 km/h
3013 01-08-2019 11:00:00 21.2 C 10.56 g/m*3 21.2 C 11.3 km/h
3014 01-08-2019 11:05:00 21.2 C 10.56 g/m*3 21.2 C 8.1 km/h
3015 01-08-2019 11:10:00 21.3 C 10.62 g/m*3 21.3 C 4.8 km/h
3016 01-08-2019 11:15:00 21.4 C 10.87 g/m*3 21.4 C 14.5 km/h
3017 01-08-2019 11:20:00 21.6 C 10.81 g/m*3 21.6 C 11.3 km/h
3018 01-08-2019 11:25:00 21.7 C 10.68 g/m*3 21.7 C 16.1 km/h
3019 01-08-2019 11:30:00 21.9 C 10.61 g/m*3 21.9 C 16.1 km/h
3020 01-08-2019 11:35:00 22.1 C 10.54 g/m*3 22.1 C 11.3 km/h
3021 01-08-2019 11:40:00 22 C 10.67 g/m*3 22 C 17.7 km/h
3022 01-08-2019 11:45:00 22.2 C 10.8 g/m*3 22.2 C 8.1 km/h
3023 01-08-2019 11:50:00 22.3 C 10.66 g/m*3 22.3 C 12.9 km/h
3024 01-08-2019 11:55:00 22.4 C 10.72 g/m*3 22.4 C 9.7 km/h
3025 01-08-2019 12:00:00 22.4 C 10.72 g/m*3 22.4 C 11.3 km/h
Sensor: Nr:Datum:Temp:Abs-Feuchte:Windchill:Wind:
Aussen-T/F 3026 01-08-2019 12:05:00 22.6 C 10.65 g/m*3 22.6 C 12.9 km/h
3027 01-08-2019 12:10:00 22.6 C 10.65 g/m*3 22.6 C 9.7 km/h
3028 01-08-2019 12:15:00 22.6 C 10.65 g/m*3 22.6 C 9.7 km/h
3029 01-08-2019 12:20:00 22.7 C 10.71 g/m*3 22.7 C 4.8 km/h
3030 01-08-2019 12:25:00 22.8 C 10.57 g/m*3 22.8 C 12.9 km/h
3031 01-08-2019 12:30:00 22.7 C 10.71 g/m*3 22.7 C 6.4 km/h
3032 01-08-2019 12:35:00 22.4 C 10.53 g/m*3 22.4 C 11.3 km/h
3033 01-08-2019 12:40:00 22.2 C 10.6 g/m*3 22.2 C 11.3 km/h
3034 01-08-2019 12:45:00 22.1 C 10.74 g/m*3 22.1 C 8.1 km/h
3035 01-08-2019 12:50:00 22.1 C 10.74 g/m*3 22.1 C 8.1 km/h
3036 01-08-2019 12:55:00 22.2 C 10.6 g/m*3 22.2 C 4.8 km/h
3037 01-08-2019 13:00:00 22.3 C 10.86 g/m*3 22.3 C 4.8 km/h
3038 01-08-2019 13:05:00 22.6 C 11.05 g/m*3 22.6 C 6.4 km/h
3039 01-08-2019 13:10:00 22.8 C 10.77 g/m*3 22.8 C 6.4 km/h
3040 01-08-2019 13:15:00 23.1 C 10.75 g/m*3 23.1 C 9.7 km/h
3041 01-08-2019 13:20:00 23.1 C 10.75 g/m*3 23.1 C 4.8 km/h
3042 01-08-2019 13:25:00 23.1 C 10.75 g/m*3 23.1 C 4.8 km/h
3043 01-08-2019 13:30:00 23.2 C 11.23 g/m*3 23.2 C 4.8 km/h
3044 01-08-2019 13:35:00 23.2 C 11.23 g/m*3 23.2 C 9.7 km/h
3045 01-08-2019 13:40:00 23.3 C 11.29 g/m*3 23.3 C 8.1 km/h
3046 01-08-2019 13:45:00 23.6 C 11.27 g/m*3 23.6 C 4.8 km/h
3047 01-08-2019 13:50:00 23.8 C 10.97 g/m*3 23.8 C 4.8 km/h
3048 01-08-2019 13:55:00 23.9 C 11.03 g/m*3 23.9 C 8.1 km/h
3049 01-08-2019 14:00:00 23.9 C 10.82 g/m*3 23.9 C 8.1 km/h
3050 01-08-2019 14:05:00 24.1 C 10.94 g/m*3 24.1 C 12.9 km/h
Sensor: Nr:Datum:Temp:Abs-Feuchte:Windchill:Wind:
Aussen-T/F 3051 01-08-2019 14:10:00 24.1 C 10.72 g/m*3 24.1 C 8.1 km/h
3052 01-08-2019 14:15:00 24.1 C 10.72 g/m*3 24.1 C 3.2 km/h
3053 01-08-2019 14:20:00 24.1 C 11.16 g/m*3 24.1 C 4.8 km/h
3054 01-08-2019 14:25:00 24.2 C 10.78 g/m*3 24.2 C 11.3 km/h
3055 01-08-2019 14:30:00 24.2 C 10.78 g/m*3 24.2 C 8.1 km/h
3056 01-08-2019 14:35:00 24.2 C 10.78 g/m*3 24.2 C 8.1 km/h
3057 01-08-2019 14:40:00 24.2 C 11 g/m*3 24.2 C 12.9 km/h
3058 01-08-2019 14:45:00 24.2 C 10.78 g/m*3 24.2 C 9.7 km/h
3059 01-08-2019 14:50:00 24.2 C 10.78 g/m*3 24.2 C 4.8 km/h
3060 01-08-2019 14:55:00 24.3 C 10.84 g/m*3 24.3 C 11.3 km/h
3061 01-08-2019 15:00:00 24.4 C 11.13 g/m*3 24.4 C 9.7 km/h
3062 01-08-2019 15:05:00 24.5 C 10.74 g/m*3 24.5 C 4.8 km/h
3063 01-08-2019 15:10:00 24.6 C 11.03 g/m*3 24.6 C 11.3 km/h
3064 01-08-2019 15:15:00 24.7 C 10.86 g/m*3 24.7 C 8.1 km/h
3065 01-08-2019 15:20:00 24.8 C 10.93 g/m*3 24.8 C 6.4 km/h
3066 01-08-2019 15:25:00 24.8 C 11.15 g/m*3 24.8 C 8.1 km/h
3067 01-08-2019 15:30:00 24.7 C 10.86 g/m*3 24.7 C 11.3 km/h
3068 01-08-2019 15:35:00 24.7 C 11.09 g/m*3 24.7 C 6.4 km/h
3069 01-08-2019 15:40:00 24.6 C 11.03 g/m*3 24.6 C 11.3 km/h
3070 01-08-2019 15:45:00 24.5 C 10.97 g/m*3 24.5 C 6.4 km/h
3071 01-08-2019 15:50:00 24.3 C 11.06 g/m*3 24.3 C 11.3 km/h
3072 01-08-2019 15:55:00 24.3 C 11.06 g/m*3 24.3 C 6.4 km/h
3073 01-08-2019 16:00:00 24.2 C 11.22 g/m*3 24.2 C 6.4 km/h
3074 01-08-2019 16:05:00 24.2 C 11.22 g/m*3 24.2 C 6.4 km/h
3075 01-08-2019 16:10:00 24.2 C 11.22 g/m*3 24.2 C 6.4 km/h
Sensor: Nr:Datum:Temp:Abs-Feuchte:Windchill:Wind:
Aussen-T/F 3076 01-08-2019 16:15:00 24.2 C 11.22 g/m*3 24.2 C 9.7 km/h
3077 01-08-2019 16:20:00 24.2 C 11.22 g/m*3 24.2 C 11.3 km/h
3078 01-08-2019 16:25:00 24.2 C 11.22 g/m*3 24.2 C 6.4 km/h
3079 01-08-2019 16:30:00 24.3 C 11.29 g/m*3 24.3 C 4.8 km/h
3080 01-08-2019 16:35:00 24.4 C 11.35 g/m*3 24.4 C 4.8 km/h
3081 01-08-2019 16:40:00 24.6 C 11.03 g/m*3 24.6 C 9.7 km/h
3082 01-08-2019 16:45:00 24.7 C 10.86 g/m*3 24.7 C 6.4 km/h
3083 01-08-2019 16:50:00 24.8 C 10.93 g/m*3 24.8 C 8.1 km/h
3084 01-08-2019 16:55:00 24.8 C 10.7 g/m*3 24.8 C 8.1 km/h
3085 01-08-2019 17:00:00 24.8 C 10.7 g/m*3 24.8 C 6.4 km/h
3086 01-08-2019 17:05:00 25 C 11.05 g/m*3 25 C 6.4 km/h
3087 01-08-2019 17:10:00 25 C 11.05 g/m*3 25 C 6.4 km/h
3088 01-08-2019 17:15:00 24.8 C 10.7 g/m*3 24.8 C 8.1 km/h
3089 01-08-2019 17:20:00 24.8 C 10.93 g/m*3 24.8 C 4.8 km/h
3090 01-08-2019 17:25:00 24.8 C 11.15 g/m*3 24.8 C 6.4 km/h
3091 01-08-2019 17:30:00 24.7 C 11.09 g/m*3 24.7 C 6.4 km/h
3092 01-08-2019 17:35:00 25 C 11.28 g/m*3 25 C 6.4 km/h
3093 01-08-2019 17:40:00 25.4 C 11.06 g/m*3 25.4 C 6.4 km/h
3094 01-08-2019 17:45:00 25.5 C 11.13 g/m*3 25.5 C 6.4 km/h
3095 01-08-2019 17:50:00 25.7 C 11.25 g/m*3 25.7 C 3.2 km/h
3096 01-08-2019 17:55:00 26.1 C 11.26 g/m*3 26.1 C 8.1 km/h
3097 01-08-2019 18:00:00 26.6 C 11.58 g/m*3 26.6 C 6.4 km/h
3098 01-08-2019 18:05:00 26.9 C 11.26 g/m*3 26.9 C 9.7 km/h
3099 01-08-2019 18:10:00 26.7 C 11.14 g/m*3 26.7 C 4.8 km/h
3100 01-08-2019 18:15:00 26.4 C 11.45 g/m*3 26.4 C 8.1 km/h
Sensor: Nr:Datum:Temp:Abs-Feuchte:Windchill:Wind:
Aussen-T/F 3101 01-08-2019 18:20:00 26.2 C 11.08 g/m*3 26.2 C 8.1 km/h
3102 01-08-2019 18:25:00 25.8 C 10.83 g/m*3 25.8 C 8.1 km/h
3103 01-08-2019 18:30:00 25.7 C 11.01 g/m*3 25.7 C 9.7 km/h
3104 01-08-2019 18:35:00 25.6 C 10.95 g/m*3 25.6 C 6.4 km/h
3105 01-08-2019 18:40:00 26.1 C 11.26 g/m*3 26.1 C 8.1 km/h
3106 01-08-2019 18:45:00 26.6 C 11.08 g/m*3 26.6 C 4.8 km/h
3107 01-08-2019 18:50:00 26.8 C 10.94 g/m*3 26.8 C 8.1 km/h
3108 01-08-2019 18:55:00 26.8 C 10.69 g/m*3 26.8 C 8.1 km/h
3109 01-08-2019 19:00:00 26.8 C 10.94 g/m*3 26.8 C 6.4 km/h
3110 01-08-2019 19:05:00 26.8 C 10.94 g/m*3 26.8 C 8.1 km/h
3111 01-08-2019 19:10:00 26.8 C 11.2 g/m*3 26.8 C 6.4 km/h
3112 01-08-2019 19:15:00 26.7 C 11.14 g/m*3 26.7 C 8.1 km/h
3113 01-08-2019 19:20:00 26.6 C 11.33 g/m*3 26.6 C 6.4 km/h
3114 01-08-2019 19:25:00 26.4 C 11.2 g/m*3 26.4 C 6.4 km/h
3115 01-08-2019 19:30:00 26.3 C 11.14 g/m*3 26.3 C 6.4 km/h
3116 01-08-2019 19:35:00 26.1 C 11.26 g/m*3 26.1 C 8.1 km/h
3117 01-08-2019 19:40:00 25.9 C 11.14 g/m*3 25.9 C 4.8 km/h
3118 01-08-2019 19:45:00 25.7 C 11.25 g/m*3 25.7 C 4.8 km/h
3119 01-08-2019 19:50:00 25.6 C 11.19 g/m*3 25.6 C 3.2 km/h
3120 01-08-2019 19:55:00 25.5 C 11.13 g/m*3 25.5 C 3.2 km/h
3121 01-08-2019 20:00:00 25.4 C 11.3 g/m*3 25.4 C 4.8 km/h
3122 01-08-2019 20:05:00 25.2 C 11.87 g/m*3 25.2 C 4.8 km/h
3123 01-08-2019 20:10:00 24.9 C 11.9 g/m*3 24.9 C 4.8 km/h
3124 01-08-2019 20:15:00 24.6 C 11.7 g/m*3 24.6 C 4.8 km/h
3125 01-08-2019 20:20:00 24.4 C 11.79 g/m*3 24.4 C 4.8 km/h
Sensor: Nr:Datum:Temp:Abs-Feuchte:Windchill:Wind:
Aussen-T/F 3126 01-08-2019 20:25:00 24.2 C 11.88 g/m*3 24.2 C 3.2 km/h
3127 01-08-2019 20:30:00 24 C 11.53 g/m*3 24 C 3.2 km/h
3128 01-08-2019 20:35:00 23.9 C 11.9 g/m*3 23.9 C 0 km/h
3129 01-08-2019 20:40:00 23.7 C 11.98 g/m*3 23.7 C 0 km/h
3130 01-08-2019 20:45:00 23.4 C 11.99 g/m*3 23.4 C 0 km/h
3131 01-08-2019 20:50:00 23 C 11.72 g/m*3 23 C 0 km/h
3132 01-08-2019 20:55:00 22.6 C 11.65 g/m*3 22.6 C 0 km/h
3133 01-08-2019 21:00:00 22.3 C 11.65 g/m*3 22.3 C 0 km/h
3134 01-08-2019 21:05:00 22.1 C 11.71 g/m*3 22.1 C 0 km/h
3135 01-08-2019 21:10:00 21.8 C 11.51 g/m*3 21.8 C 0 km/h
3136 01-08-2019 21:15:00 21.6 C 11.57 g/m*3 21.6 C 0 km/h
3137 01-08-2019 21:20:00 21.3 C 11.56 g/m*3 21.3 C 0 km/h
3138 01-08-2019 21:25:00 21.1 C 11.42 g/m*3 21.1 C 0 km/h
3139 01-08-2019 21:30:00 20.9 C 11.47 g/m*3 20.9 C 0 km/h
3140 01-08-2019 21:35:00 20.8 C 11.59 g/m*3 20.8 C 0 km/h
3141 01-08-2019 21:40:00 20.7 C 11.52 g/m*3 20.7 C 0 km/h
3142 01-08-2019 21:45:00 20.5 C 11.57 g/m*3 20.5 C 0 km/h
3143 01-08-2019 21:50:00 20.4 C 11.68 g/m*3 20.4 C 0 km/h
3144 01-08-2019 21:55:00 20.3 C 11.61 g/m*3 20.3 C 0 km/h
3145 01-08-2019 22:00:00 20.3 C 11.61 g/m*3 20.3 C 0 km/h
3146 01-08-2019 22:05:00 20.2 C 11.71 g/m*3 20.2 C 0 km/h
3147 01-08-2019 22:10:00 20.1 C 11.65 g/m*3 20.1 C 0 km/h
3148 01-08-2019 22:15:00 19.9 C 11.51 g/m*3 19.9 C 0 km/h
3149 01-08-2019 22:20:00 19.8 C 11.61 g/m*3 19.8 C 0 km/h
3150 01-08-2019 22:25:00 19.7 C 11.55 g/m*3 19.7 C 0 km/h
Sensor: Nr:Datum:Temp:Abs-Feuchte:Windchill:Wind:
Aussen-T/F 3151 01-08-2019 22:30:00 19.6 C 11.31 g/m*3 19.6 C 0 km/h
3152 01-08-2019 22:35:00 19.6 C 11.48 g/m*3 19.6 C 0 km/h
3153 01-08-2019 22:40:00 19.5 C 11.41 g/m*3 19.5 C 0 km/h
3154 01-08-2019 22:45:00 19.5 C 11.41 g/m*3 19.5 C 0 km/h
3155 01-08-2019 22:50:00 19.5 C 11.58 g/m*3 19.5 C 0 km/h
3156 01-08-2019 22:55:00 19.5 C 11.58 g/m*3 19.5 C 0 km/h
3157 01-08-2019 23:00:00 19.5 C 11.41 g/m*3 19.5 C 0 km/h
3158 01-08-2019 23:05:00 19.4 C 11.35 g/m*3 19.4 C 0 km/h
3159 01-08-2019 23:10:00 19.4 C 11.35 g/m*3 19.4 C 0 km/h
3160 01-08-2019 23:15:00 19.3 C 11.28 g/m*3 19.3 C 0 km/h
3161 01-08-2019 23:20:00 19.3 C 11.44 g/m*3 19.3 C 0 km/h
3162 01-08-2019 23:25:00 19.2 C 11.54 g/m*3 19.2 C 0 km/h
3163 01-08-2019 23:30:00 19.2 C 11.54 g/m*3 19.2 C 0 km/h
3164 01-08-2019 23:35:00 19.2 C 11.54 g/m*3 19.2 C 0 km/h
3165 01-08-2019 23:40:00 19.1 C 11.64 g/m*3 19.1 C 0 km/h
3166 01-08-2019 23:45:00 19.1 C 11.64 g/m*3 19.1 C 0 km/h
3167 01-08-2019 23:50:00 19.1 C 11.64 g/m*3 19.1 C 0 km/h
3168 01-08-2019 23:55:00 19.1 C 11.64 g/m*3 19.1 C 0 km/h
3169 02-08-2019 00:00:00 19.1 C 11.8 g/m*3 19.1 C 0 km/h
3170 02-08-2019 00:05:00 19.1 C 11.8 g/m*3 19.1 C 0 km/h
3171 02-08-2019 00:10:00 19 C 11.73 g/m*3 19 C 0 km/h
3172 02-08-2019 00:15:00 18.9 C 11.66 g/m*3 18.9 C 0 km/h
3173 02-08-2019 00:20:00 18.9 C 11.83 g/m*3 18.9 C 0 km/h
3174 02-08-2019 00:25:00 18.8 C 11.76 g/m*3 18.8 C 0 km/h
3175 02-08-2019 00:30:00 18.8 C 11.76 g/m*3 18.8 C 0 km/h
Sensor: Nr:Datum:Temp:Abs-Feuchte:Windchill:Wind:
Aussen-T/F 3176 02-08-2019 00:35:00 18.7 C 11.85 g/m*3 18.7 C 0 km/h
3177 02-08-2019 00:40:00 18.7 C 11.85 g/m*3 18.7 C 0 km/h
3178 02-08-2019 00:45:00 18.6 C 11.78 g/m*3 18.6 C 0 km/h
3179 02-08-2019 00:50:00 18.6 C 11.94 g/m*3 18.6 C 0 km/h
3180 02-08-2019 00:55:00 18.6 C 11.94 g/m*3 18.6 C 0 km/h
3181 02-08-2019 01:00:00 18.5 C 11.87 g/m*3 18.5 C 0 km/h
3182 02-08-2019 01:05:00 18.5 C 11.87 g/m*3 18.5 C 0 km/h
3183 02-08-2019 01:10:00 18.5 C 11.87 g/m*3 18.5 C 0 km/h
3184 02-08-2019 01:15:00 18.4 C 11.8 g/m*3 18.4 C 0 km/h
3185 02-08-2019 01:20:00 18.4 C 11.8 g/m*3 18.4 C 0 km/h
3186 02-08-2019 01:25:00 18.4 C 11.95 g/m*3 18.4 C 0 km/h
3187 02-08-2019 01:30:00 18.3 C 11.88 g/m*3 18.3 C 0 km/h
3188 02-08-2019 01:35:00 18.3 C 11.73 g/m*3 18.3 C 0 km/h
3189 02-08-2019 01:40:00 18.3 C 12.04 g/m*3 18.3 C 0 km/h
3190 02-08-2019 01:45:00 18.2 C 11.97 g/m*3 18.2 C 0 km/h
3191 02-08-2019 01:50:00 18.2 C 11.81 g/m*3 18.2 C 0 km/h
3192 02-08-2019 01:55:00 18.1 C 11.74 g/m*3 18.1 C 0 km/h
3193 02-08-2019 02:00:00 18.1 C 11.74 g/m*3 18.1 C 0 km/h
3194 02-08-2019 02:05:00 18.1 C 11.74 g/m*3 18.1 C 0 km/h
3195 02-08-2019 02:10:00 18 C 11.83 g/m*3 18 C 0 km/h
3196 02-08-2019 02:15:00 18 C 11.67 g/m*3 18 C 0 km/h
3197 02-08-2019 02:20:00 17.9 C 11.76 g/m*3 17.9 C 0 km/h
3198 02-08-2019 02:25:00 17.9 C 11.76 g/m*3 17.9 C 0 km/h
3199 02-08-2019 02:30:00 17.9 C 11.76 g/m*3 17.9 C 0 km/h
3200 02-08-2019 02:35:00 17.8 C 11.69 g/m*3 17.8 C 0 km/h
Sensor: Nr:Datum:Temp:Abs-Feuchte:Windchill:Wind:
Aussen-T/F 3201 02-08-2019 02:40:00 17.8 C 11.69 g/m*3 17.8 C 0 km/h
3202 02-08-2019 02:45:00 17.7 C 11.62 g/m*3 17.7 C 0 km/h
3203 02-08-2019 02:50:00 17.6 C 11.55 g/m*3 17.6 C 0 km/h
3204 02-08-2019 02:55:00 17.6 C 11.7 g/m*3 17.6 C 0 km/h
3205 02-08-2019 03:00:00 17.4 C 11.56 g/m*3 17.4 C 0 km/h
3206 02-08-2019 03:05:00 17.3 C 11.49 g/m*3 17.3 C 0 km/h
3207 02-08-2019 03:10:00 17.2 C 11.57 g/m*3 17.2 C 0 km/h
3208 02-08-2019 03:15:00 17.1 C 11.5 g/m*3 17.1 C 0 km/h
3209 02-08-2019 03:20:00